Provisional Data: Lititz Run near Lititz, PA


Please select a monitoring station.
Please select start date.
Please select start date.

Toggle Unit: C/F Toggle Unit: C/F
Sample Time Temperature (C) Temperature (F) Specific Conductivity (mS/cm) pH   Turbidity (NTU+) DO (mg/L)
12/4/2020 12:00:00 AM 10.14 50.252 1.075 7.85 8.39 9.64
12/4/2020 12:15:00 AM 10.15 50.27 1.084 7.85 8.57 9.62
12/4/2020 12:30:00 AM 10.17 50.306 1.093 7.84 8.85 9.61
12/4/2020 12:45:00 AM 10.18 50.324 1.101 7.84 11.11 9.6
12/4/2020 1:00:00 AM 10.18 50.324 1.108 7.83 10.3 9.59
12/4/2020 1:15:00 AM 10.18 50.324 1.114 7.83 10.15 9.56
12/4/2020 1:30:00 AM 10.19 50.342 1.118 7.84 9.23 9.56
12/4/2020 1:45:00 AM 10.19 50.342 1.123 7.83 8.66 9.55
12/4/2020 2:00:00 AM 10.19 50.342 1.125 7.83 9.01 9.54
12/4/2020 2:15:00 AM 10.19 50.342 1.126 7.83 9.01 9.53
12/4/2020 2:30:00 AM 10.18 50.324 1.125 7.84 9.29 9.53
12/4/2020 2:45:00 AM 10.18 50.324 1.125 7.83 9.5 9.52
12/4/2020 3:00:00 AM 10.17 50.306 1.123 7.83 10.59 9.53
12/4/2020 3:15:00 AM 10.15 50.27 1.122 7.83 9.94 9.53
12/4/2020 3:30:00 AM 10.14 50.252 1.12 7.83 9.87 9.55
12/4/2020 3:45:00 AM 10.12 50.216 1.117 7.84 9.85 9.55
12/4/2020 4:00:00 AM 10.1 50.18 1.113 7.83 9.61 9.53
12/4/2020 4:15:00 AM 10.08 50.144 1.109 7.83 9.3 9.53
12/4/2020 4:30:00 AM 10.05 50.09 1.104 7.83 8.67 9.56
12/4/2020 4:45:00 AM 10.03 50.054 1.099 7.83 8.93 9.57
12/4/2020 5:00:00 AM 10.02 50.036 1.095 7.83 8.02 9.57
12/4/2020 5:15:00 AM 10 50 1.09 7.83 9.86 9.57
12/4/2020 5:30:00 AM 9.99 49.982 1.085 7.84 8.67 9.59
12/4/2020 5:45:00 AM 9.97 49.946 1.079 7.83 7.93 9.59
12/4/2020 6:00:00 AM 9.96 49.928 1.072 7.83 7.98 9.6
12/4/2020 6:15:00 AM 9.95 49.91 1.065 7.84 8.54 9.6
12/4/2020 6:30:00 AM 9.94 49.892 1.057 7.85 9.22 9.59
12/4/2020 6:45:00 AM 9.93 49.874 1.049 7.84 8.99 9.61
12/4/2020 7:00:00 AM 9.91 49.838 1.04 7.85 8.89 9.63
12/4/2020 7:15:00 AM 9.9 49.82 1.032 7.84 8.75 9.64
12/4/2020 7:30:00 AM 9.88 49.784 1.023 7.85 8.56 9.65
12/4/2020 7:45:00 AM 9.86 49.748 1.015 7.85 7.9 9.71
12/4/2020 8:00:00 AM 9.84 49.712 1.007 7.86 8.65 9.77
12/4/2020 8:15:00 AM 9.84 49.712 1 7.87 8.14 9.91
12/4/2020 8:30:00 AM 9.85 49.73 0.994 7.87 7.37 9.97
12/4/2020 8:45:00 AM 9.85 49.73 0.988 7.88 7.44 10.02
12/4/2020 9:00:00 AM 9.87 49.766 0.984 7.89 7.43 10.12
12/4/2020 9:15:00 AM 9.88 49.784 0.982 7.89 7.35 10.18
12/4/2020 9:30:00 AM 9.9 49.82 0.98 7.89 8 10.22
12/4/2020 9:45:00 AM 9.94 49.892 0.98 7.9 7.2 10.3
12/4/2020 10:00:00 AM 9.98 49.964 0.978 7.91 7.16 10.44
12/4/2020 10:15:00 AM 10.03 50.054 0.976 7.91 7.14 10.47
12/4/2020 10:30:00 AM 10.1 50.18 0.974 7.91 7.47 10.54
12/4/2020 10:45:00 AM 10.16 50.288 0.971 7.92 7.26 10.55
12/4/2020 11:00:00 AM 10.18 50.324 0.968 7.91 7.98 10.41
12/4/2020 11:15:00 AM 10.2 50.36 0.965 7.91 7.8 10.35
12/4/2020 11:30:00 AM 10.23 50.414 0.961 7.91 7.6 10.41
12/4/2020 11:45:00 AM 10.27 50.486 0.957 7.92 7.86 10.5
12/4/2020 12:00:00 PM 10.31 50.558 0.954 7.94 8.46 10.57
12/4/2020 12:15:00 PM 10.34 50.612 0.954 7.94 7.85 10.62
12/4/2020 12:30:00 PM 10.38 50.684 0.957 7.95 8.61 10.66
12/4/2020 12:45:00 PM 10.42 50.756 0.966 7.95 7.76 10.64
12/4/2020 1:00:00 PM 10.47 50.846 0.98 7.94 7.02 10.57
12/4/2020 1:15:00 PM 10.53 50.954 0.998 7.94 7.63 10.52
12/4/2020 1:30:00 PM 10.59 51.062 1.019 7.94 7.93 10.46
12/4/2020 1:45:00 PM 10.65 51.17 1.041 7.93 7.02 10.44
12/4/2020 2:00:00 PM 10.72 51.296 1.062 7.93 6.98 10.41
12/4/2020 2:15:00 PM 10.8 51.44 1.079 7.94 7.5 10.37
12/4/2020 2:30:00 PM 10.86 51.548 1.092 7.93 7.47 10.34
12/4/2020 2:45:00 PM 10.91 51.638 1.1 7.93 8.87 10.28
12/4/2020 3:00:00 PM 10.95 51.71 1.106 7.92 7.89 10.25
12/4/2020 3:15:00 PM 10.98 51.764 1.11 7.93 7.26 10.23
12/4/2020 3:30:00 PM 11.01 51.818 1.113 7.93 7.61 10.23
12/4/2020 3:45:00 PM 11.04 51.872 1.115 7.93 8.19 10.2
12/4/2020 4:00:00 PM 11.05 51.89 1.116 7.92 7.47 10.13
12/4/2020 4:15:00 PM 11.07 51.926 1.117 7.92 7.94 10.06
12/4/2020 4:30:00 PM 11.07 51.926 1.117 7.91 7.42 10
12/4/2020 4:45:00 PM 11.07 51.926 1.117 7.91 7.2 9.95
12/4/2020 5:00:00 PM 11.08 51.944 1.117 7.9 8.9 9.9
12/4/2020 5:15:00 PM 11.07 51.926 1.116 7.91 8.92 9.86
12/4/2020 5:30:00 PM 11.07 51.926 1.114 7.9 9.07 9.83
12/4/2020 5:45:00 PM 11.07 51.926 1.111 7.9 11.58 9.78
12/4/2020 6:00:00 PM 11.06 51.908 1.108 7.89 11 9.76
12/4/2020 6:15:00 PM 11.06 51.908 1.105 7.89 10.81 9.74
12/4/2020 6:30:00 PM 11.04 51.872 1.101 7.88 10.04 9.72
12/4/2020 6:45:00 PM 11.03 51.854 1.096 7.88 10.4 9.7
12/4/2020 7:00:00 PM 11.01 51.818 1.09 7.87 10.6 9.67
12/4/2020 7:15:00 PM 11 51.8 1.082 7.87 10.88 9.66
12/4/2020 7:30:00 PM 10.99 51.782 1.076 7.86 11.63 9.64
12/4/2020 7:45:00 PM 10.98 51.764 1.07 7.86 10.93 9.63
12/4/2020 8:00:00 PM 10.98 51.764 1.066 7.85 12.31 9.62
12/4/2020 8:15:00 PM 10.97 51.746 1.061 7.85 14.74 9.59
12/4/2020 8:30:00 PM 10.96 51.728 1.052 7.84 14.47 9.57
12/4/2020 8:45:00 PM 10.97 51.746 1.046 7.83 14.79 9.55
12/4/2020 9:00:00 PM 10.97 51.746 1.04 7.83 16.22 9.55
12/4/2020 9:15:00 PM 10.97 51.746 1.029 7.82 16.22 9.55
12/4/2020 9:30:00 PM 10.95 51.71 1.013 7.81 23.1 9.56
12/4/2020 9:45:00 PM 10.93 51.674 0.995 7.81 14.8 9.57
12/4/2020 10:00:00 PM 10.9 51.62 0.978 7.8 15.29 9.57
12/4/2020 10:15:00 PM 10.88 51.584 0.962 7.81 16.16 9.57
12/4/2020 10:30:00 PM 10.86 51.548 0.946 7.79 16.53 9.56
12/4/2020 10:45:00 PM 10.82 51.476 0.927 7.78 15.69 9.57
12/4/2020 11:00:00 PM 10.77 51.386 0.906 7.77 16.15 9.57
12/4/2020 11:15:00 PM 10.73 51.314 0.887 7.76 16.07 9.54
12/4/2020 11:30:00 PM 10.69 51.242 0.871 7.75 16 9.55
12/4/2020 11:45:00 PM 10.65 51.17 0.858 7.73 15.64 9.53
12/5/2020 12:00:00 AM 10.61 51.098 0.844 7.72 16.11 9.51
12/5/2020 12:15:00 AM 10.57 51.026 0.831 7.72 16.09 9.53
12/5/2020 12:30:00 AM 10.53 50.954 0.818 7.71 17.41 9.53
12/5/2020 12:45:00 AM 10.49 50.882 0.806 7.7 16.5 9.52
12/5/2020 1:00:00 AM 10.45 50.81 0.795 7.69 16.25 9.54
12/5/2020 1:15:00 AM 10.41 50.738 0.787 7.68 15.86 9.55
12/5/2020 1:30:00 AM 10.37 50.666 0.779 7.68 17.56 9.55
12/5/2020 1:45:00 AM 10.33 50.594 0.772 7.67 15.61 9.57
12/5/2020 2:00:00 AM 10.3 50.54 0.766 7.67 14.03 9.58
12/5/2020 2:15:00 AM 10.27 50.486 0.761 7.67 15.13 9.59
12/5/2020 2:30:00 AM 10.25 50.45 0.759 7.68 17.34 9.6
12/5/2020 2:45:00 AM 10.22 50.396 0.757 7.68 15.65 9.61
12/5/2020 3:00:00 AM 10.2 50.36 0.757 7.67 14.9 9.62
12/5/2020 3:15:00 AM 10.18 50.324 0.755 7.67 15.19 9.63
12/5/2020 3:30:00 AM 10.16 50.288 0.752 7.67 14.85 9.64
12/5/2020 3:45:00 AM 10.13 50.234 0.75 7.68 14.66 9.65
12/5/2020 4:00:00 AM 10.11 50.198 0.748 7.69 13.63 9.66
12/5/2020 4:15:00 AM 10.09 50.162 0.746 7.68 12.22 9.67
12/5/2020 4:30:00 AM 10.07 50.126 0.745 7.69 14.38 9.68
12/5/2020 4:45:00 AM 10.05 50.09 0.742 7.69 13.94 9.68
12/5/2020 5:00:00 AM 10.03 50.054 0.741 7.69 13.69 9.69
12/5/2020 5:15:00 AM 10.03 50.054 0.741 7.69 13.81 9.69
12/5/2020 5:30:00 AM 10.02 50.036 0.742 7.69 14.25 9.68
12/5/2020 5:45:00 AM 10.02 50.036 0.741 7.69 13.77 9.68
12/5/2020 6:00:00 AM 10.02 50.036 0.74 7.69 14.11 9.69
12/5/2020 6:15:00 AM 10.01 50.018 0.738 7.69 14.48 9.68
12/5/2020 6:30:00 AM 10.01 50.018 0.737 7.7 13.45 9.68
12/5/2020 6:45:00 AM 10 50 0.738 7.69 13.38 9.69
12/5/2020 7:00:00 AM 10 50 0.742 7.7 14.8 9.69
12/5/2020 7:15:00 AM 10 50 0.746 7.7 14.41 9.68
12/5/2020 7:30:00 AM 10.01 50.018 0.753 7.7 13.28 9.69
12/5/2020 7:45:00 AM 10.02 50.036 0.762 7.7 13.06 9.7
12/5/2020 8:00:00 AM 10.04 50.072 0.77 7.71 12.61 9.73
12/5/2020 8:15:00 AM 10.05 50.09 0.777 7.71 11.87 9.76
12/5/2020 8:30:00 AM 10.08 50.144 0.782 7.72 12.33 9.79
12/5/2020 8:45:00 AM 10.12 50.216 0.784 7.74 11.78 9.9
12/5/2020 9:00:00 AM 10.16 50.288 0.784 7.75 11.23 10.03
12/5/2020 9:15:00 AM 10.18 50.324 0.784 7.75 11.14 10.08
12/5/2020 9:30:00 AM 10.22 50.396 0.787 7.77 10.48 10.16
12/5/2020 9:45:00 AM 10.26 50.468 0.791 7.78 10.39 10.22
12/5/2020 10:00:00 AM 10.3 50.54 0.793 7.78 9.68 10.26
12/5/2020 10:15:00 AM 10.34 50.612 0.794 7.78 9.81 10.3
12/5/2020 10:30:00 AM 10.37 50.666 0.791 7.79 9.66 10.36
12/5/2020 10:45:00 AM 10.43 50.774 0.787 7.8 9.38 10.52
12/5/2020 11:00:00 AM 10.48 50.864 0.782 7.81 9.43 10.62
12/5/2020 11:15:00 AM 10.53 50.954 0.779 7.81 9.67 10.67
12/5/2020 11:30:00 AM 10.54 50.972 0.778 7.82 9.3 10.66
12/5/2020 11:45:00 AM 10.57 51.026 0.781 7.83 9.35 10.7
12/5/2020 12:00:00 PM 10.62 51.116 0.79 7.83 9.07 10.76
12/5/2020 12:15:00 PM 10.66 51.188 0.808 7.84 9.4 10.71
12/5/2020 12:30:00 PM 10.73 51.314 0.827 7.83 9.35 10.72
12/5/2020 12:45:00 PM 10.77 51.386 0.842 7.83 9.28 10.76
12/5/2020 1:00:00 PM 10.82 51.476 0.852 7.84 8.93 10.82
12/5/2020 1:15:00 PM 10.87 51.566 0.857 7.86 8.47 10.89
12/5/2020 1:30:00 PM 10.89 51.602 0.861 7.86 8.41 10.83
12/5/2020 1:45:00 PM 10.93 51.674 0.868 7.85 8.17 10.82
12/5/2020 2:00:00 PM 10.95 51.71 0.879 7.87 9.15 10.85
12/5/2020 2:15:00 PM 10.98 51.764 0.89 7.87 8.94 10.85
12/5/2020 2:30:00 PM 11.02 51.836 0.903 7.88 8.74 10.88
12/5/2020 2:45:00 PM 11.04 51.872 0.914 7.87 8.9 10.83
12/5/2020 3:00:00 PM 11.05 51.89 0.923 7.88 9 10.83
12/5/2020 3:15:00 PM 11.05 51.89 0.93 7.89 8.51 10.77
12/5/2020 3:30:00 PM 11.04 51.872 0.937 7.88 7.95 10.71
12/5/2020 3:45:00 PM 11.02 51.836 0.942 7.88 7.91 10.62
12/5/2020 4:00:00 PM 10.99 51.782 0.948 7.88 8.97 10.53
12/5/2020 4:15:00 PM 10.97 51.746 0.952 7.87 8.86 10.45
12/5/2020 4:30:00 PM 10.94 51.692 0.955 7.86 8.1 10.39
12/5/2020 4:45:00 PM 10.92 51.656 0.958 7.87 8.33 10.3
12/5/2020 5:00:00 PM 10.89 51.602 0.96 7.86 8.04 10.23
12/5/2020 5:15:00 PM 10.85 51.53 0.961 7.85 8.51 10.18
12/5/2020 5:30:00 PM 10.81 51.458 0.962 7.85 8.61 10.14
12/5/2020 5:45:00 PM 10.78 51.404 0.962 7.85 8.88 10.09
12/5/2020 6:00:00 PM 10.75 51.35 0.962 7.85 9.12 10.04
12/5/2020 6:15:00 PM 10.73 51.314 0.962 7.85 8.72 10.01
12/5/2020 6:30:00 PM 10.69 51.242 0.961 7.85 9.88 9.96
12/5/2020 6:45:00 PM 10.67 51.206 0.961 7.83 9.75 9.92
12/5/2020 7:00:00 PM 10.63 51.134 0.961 7.83 9.62 9.88
12/5/2020 7:15:00 PM 10.6 51.08 0.96 7.84 8.68 9.83
12/5/2020 7:30:00 PM 10.56 51.008 0.958 7.83 9.37 9.81
12/5/2020 7:45:00 PM 10.53 50.954 0.956 7.83 8.53 9.77
12/5/2020 8:00:00 PM 10.49 50.882 0.954 7.82 9.58 9.73
12/5/2020 8:15:00 PM 10.44 50.792 0.954 7.81 8.7 9.7
12/5/2020 8:30:00 PM 10.41 50.738 0.952 7.81 8.49 9.66
12/5/2020 8:45:00 PM 10.37 50.666 0.95 7.81 8.88 9.64
12/5/2020 9:00:00 PM 10.34 50.612 0.949 7.8 9.13 9.62
12/5/2020 9:15:00 PM 10.3 50.54 0.948 7.81 9.28 9.6
12/5/2020 9:30:00 PM 10.26 50.468 0.947 7.8 8.85 9.58
12/5/2020 9:45:00 PM 10.23 50.414 0.947 7.81 8.83 9.57
12/5/2020 10:00:00 PM 10.2 50.36 0.947 7.8 8.94 9.57
12/5/2020 10:15:00 PM 10.17 50.306 0.948 7.79 9.09 9.56
12/5/2020 10:30:00 PM 10.15 50.27 0.948 7.8 10.09 9.56
12/5/2020 10:45:00 PM 10.12 50.216 0.948 7.79 9.39 9.56
12/5/2020 11:00:00 PM 10.08 50.144 0.948 7.79 9.01 9.56
12/5/2020 11:15:00 PM 10.04 50.072 0.947 7.79 9.43 9.57
12/5/2020 11:30:00 PM 10.01 50.018 0.945 7.79 9.15 9.58
12/5/2020 11:45:00 PM 9.98 49.964 0.944 7.79 8.97 9.59
12/6/2020 12:00:00 AM 9.96 49.928 0.944 7.8 9.37 9.59
12/6/2020 12:15:00 AM 9.94 49.892 0.943 7.79 9.54 9.59
12/6/2020 12:30:00 AM 9.92 49.856 0.942 7.79 9.87 9.59
12/6/2020 12:45:00 AM 9.9 49.82 0.941 7.79 9.09 9.6
12/6/2020 1:00:00 AM 9.87 49.766 0.941 7.79 9.76 9.61
12/6/2020 1:15:00 AM 9.85 49.73 0.942 7.79 9.84 9.61
12/6/2020 1:30:00 AM 9.83 49.694 0.943 7.79 9.8 9.61
12/6/2020 1:45:00 AM 9.82 49.676 0.944 7.78 10.3 9.61
12/6/2020 2:00:00 AM 9.79 49.622 0.944 7.79 10.02 9.61
12/6/2020 2:15:00 AM 9.77 49.586 0.943 7.79 9.72 9.61
12/6/2020 2:30:00 AM 9.74 49.532 0.942 7.79 9.71 9.61
12/6/2020 2:45:00 AM 9.72 49.496 0.94 7.79 9.27 9.61
12/6/2020 3:00:00 AM 9.68 49.424 0.938 7.79 9.61 9.63
12/6/2020 3:15:00 AM 9.64 49.352 0.935 7.79 9.79 9.64
12/6/2020 3:30:00 AM 9.6 49.28 0.932 7.79 10.44 9.65
12/6/2020 3:45:00 AM 9.54 49.172 0.927 7.79 9.65 9.67
12/6/2020 4:00:00 AM 9.49 49.082 0.924 7.79 9.2 9.68
12/6/2020 4:15:00 AM 9.44 48.992 0.919 7.79 8.89 9.7
12/6/2020 4:30:00 AM 9.38 48.884 0.915 7.79 9.26 9.73
12/6/2020 4:45:00 AM 9.33 48.794 0.91 7.81 9.19 9.74
12/6/2020 5:00:00 AM 9.28 48.704 0.905 7.81 9.13 9.76
12/6/2020 5:15:00 AM 9.22 48.596 0.901 7.8 9.15 9.77
12/6/2020 5:30:00 AM 9.17 48.506 0.896 7.8 8.26 9.79
12/6/2020 5:45:00 AM 9.11 48.398 0.891 7.8 8.08 9.8
12/6/2020 6:00:00 AM 9.05 48.29 0.886 7.8 8.11 9.83
12/6/2020 6:15:00 AM 8.99 48.182 0.882 7.8 7.72 9.86
12/6/2020 6:30:00 AM 8.94 48.092 0.877 7.81 7.64 9.88
12/6/2020 6:45:00 AM 8.88 47.984 0.873 7.81 7.65 9.9
12/6/2020 7:00:00 AM 8.82 47.876 0.868 7.82 7.25 9.93
12/6/2020 7:15:00 AM 8.77 47.786 0.863 7.82 7.43 9.96
12/6/2020 7:30:00 AM 8.71 47.678 0.86 7.83 7.57 10
12/6/2020 7:45:00 AM 8.66 47.588 0.856 7.82 7.86 10.06
12/6/2020 8:00:00 AM 8.63 47.534 0.854 7.83 8.01 10.12
12/6/2020 8:15:00 AM 8.6 47.48 0.851 7.84 8.67 10.19
12/6/2020 8:30:00 AM 8.58 47.444 0.85 7.84 8.87 10.26
12/6/2020 8:45:00 AM 8.57 47.426 0.85 7.85 8.9 10.35
12/6/2020 9:00:00 AM 8.58 47.444 0.851 7.85 9.28 10.47
12/6/2020 9:15:00 AM 8.59 47.462 0.851 7.87 10.2 10.56
12/6/2020 9:30:00 AM 8.62 47.516 0.85 7.87 8.97 10.68
12/6/2020 9:45:00 AM 8.65 47.57 0.849 7.88 9.05 10.77
12/6/2020 10:00:00 AM 8.65 47.57 0.848 7.88 8.89 10.83
12/6/2020 10:15:00 AM 8.69 47.642 0.844 7.9 8.81 10.95
12/6/2020 10:30:00 AM 8.75 47.75 0.84 7.91 8.02 11.05
12/6/2020 10:45:00 AM 8.82 47.876 0.836 7.92 7.81 11.14
12/6/2020 11:00:00 AM 8.88 47.984 0.833 7.92 7.89 11.21
12/6/2020 11:15:00 AM 8.96 48.128 0.831 7.93 8.03 11.28
12/6/2020 11:30:00 AM 9.04 48.272 0.83 7.95 7.58 11.32
12/6/2020 11:45:00 AM 9.12 48.416 0.83 7.94 8.17 11.4
12/6/2020 12:00:00 PM 9.2 48.56 0.832 7.95 7.59 11.46
12/6/2020 12:15:00 PM 9.26 48.668 0.835 7.96 7.82 11.46
12/6/2020 12:30:00 PM 9.34 48.812 0.841 7.96 8.01 11.52
12/6/2020 12:45:00 PM 9.42 48.956 0.85 7.97 7.58 11.54
12/6/2020 1:00:00 PM 9.52 49.136 0.864 7.98 7.85 11.58
12/6/2020 1:15:00 PM 9.62 49.316 0.885 7.97 7.54 11.57
12/6/2020 1:30:00 PM 9.73 49.514 0.906 7.97 7.46 11.57
12/6/2020 1:45:00 PM 9.8 49.64 0.924 7.97 6.89 11.57
12/6/2020 2:00:00 PM 9.86 49.748 0.938 7.97 7.23 11.54
12/6/2020 2:15:00 PM 9.87 49.766 0.946 7.97 7.91 11.5
12/6/2020 2:30:00 PM 9.89 49.802 0.954 7.96 7.17 11.44
12/6/2020 2:45:00 PM 9.92 49.856 0.961 7.96 6.97 11.4
12/6/2020 3:00:00 PM 9.94 49.892 0.967 7.96 9.4 11.38
12/6/2020 3:15:00 PM 9.94 49.892 0.974 7.95 7.54 11.29
12/6/2020 3:30:00 PM 9.93 49.874 0.979 7.95 7.93 11.18
12/6/2020 3:45:00 PM 9.92 49.856 0.984 7.95 7.45 11.08
12/6/2020 4:00:00 PM 9.91 49.838 0.987 7.93 7.57 10.98
12/6/2020 4:15:00 PM 9.91 49.838 0.989 7.93 7.19 10.9
12/6/2020 4:30:00 PM 9.91 49.838 0.991 7.93 7.03 10.8
12/6/2020 4:45:00 PM 9.91 49.838 0.993 7.93 7.59 10.71
12/6/2020 5:00:00 PM 9.9 49.82 0.994 7.92 7.64 10.64
12/6/2020 5:15:00 PM 9.88 49.784 0.995 7.91 7.36 10.56
12/6/2020 5:30:00 PM 9.86 49.748 0.996 7.9 7.8 10.5
12/6/2020 5:45:00 PM 9.83 49.694 0.996 7.9 8.65 10.44
12/6/2020 6:00:00 PM 9.8 49.64 0.996 7.9 8.55 10.4
12/6/2020 6:15:00 PM 9.76 49.568 0.997 7.89 8.33 10.34
12/6/2020 6:30:00 PM 9.72 49.496 0.999 7.88 8.1 10.29
12/6/2020 6:45:00 PM 9.67 49.406 1.001 7.89 7.68 10.25
12/6/2020 7:00:00 PM 9.63 49.334 1.003 7.88 7.64 10.2
12/6/2020 7:15:00 PM 9.58 49.244 1.003 7.88 8.16 10.16
12/6/2020 7:30:00 PM 9.53 49.154 1.003 7.86 8.64 10.13
12/6/2020 7:45:00 PM 9.48 49.064 1.003 7.87 8.44 10.08
12/6/2020 8:00:00 PM 9.43 48.974 1.002 7.85 8.85 10.05
12/6/2020 8:15:00 PM 9.37 48.866 1.001 7.85 9.07 10.02
12/6/2020 8:30:00 PM 9.32 48.776 0.998 7.85 8.8 9.98
12/6/2020 8:45:00 PM 9.26 48.668 0.995 7.84 9.23 9.95
12/6/2020 9:00:00 PM 9.21 48.578 0.991 7.84 10.21 9.92
12/6/2020 9:15:00 PM 9.15 48.47 0.988 7.84 9.59 9.9
12/6/2020 9:30:00 PM 9.09 48.362 0.985 7.83 10.93 9.88
12/6/2020 9:45:00 PM 9.03 48.254 0.982 7.84 10.35 9.88
12/6/2020 10:00:00 PM 8.98 48.164 0.981 7.83 9.85 9.88
12/6/2020 10:15:00 PM 8.93 48.074 0.979 7.83 10.58 9.87
12/6/2020 10:30:00 PM 8.88 47.984 0.979 7.83 10.76 9.87
12/6/2020 10:45:00 PM 8.82 47.876 0.977 7.82 10.46 9.87
12/6/2020 11:00:00 PM 8.77 47.786 0.977 7.81 10.09 9.87
12/6/2020 11:15:00 PM 8.73 47.714 0.977 7.81 9.92 9.87
12/6/2020 11:30:00 PM 8.68 47.624 0.976 7.81 10.41 9.87
12/6/2020 11:45:00 PM 8.63 47.534 0.976 7.81 10.4 9.88
12/7/2020 12:00:00 AM 8.59 47.462 0.978 7.82 10 9.88
12/7/2020 12:15:00 AM 8.54 47.372 0.98 7.81 9.68 9.88
12/7/2020 12:30:00 AM 8.5 47.3 0.984 7.81 9.84 9.89
12/7/2020 12:45:00 AM 8.46 47.228 0.985 7.81 9.87 9.9
12/7/2020 1:00:00 AM 8.41 47.138 0.987 7.81 9.33 9.91
12/7/2020 1:15:00 AM 8.37 47.066 0.988 7.81 9.25 9.92
12/7/2020 1:30:00 AM 8.33 46.994 0.989 7.81 9.35 9.94
12/7/2020 1:45:00 AM 8.28 46.904 0.99 7.8 9.32 9.95
12/7/2020 2:00:00 AM 8.24 46.832 0.992 7.81 9.62 9.95
12/7/2020 2:15:00 AM 8.2 46.76 0.994 7.8 10.04 9.96
12/7/2020 2:30:00 AM 8.15 46.67 0.995 7.82 9.14 9.97
12/7/2020 2:45:00 AM 8.11 46.598 0.996 7.8 10.19 9.98
12/7/2020 3:00:00 AM 8.06 46.508 0.995 7.82 9.08 9.99
12/7/2020 3:15:00 AM 8.02 46.436 0.995 7.81 9.96 9.99
12/7/2020 3:30:00 AM 7.97 46.346 0.992 7.81 8.37 10.01
12/7/2020 3:45:00 AM 7.92 46.256 0.99 7.81 8.67 10.03
12/7/2020 4:00:00 AM 7.87 46.166 0.986 7.81 8.74 10.05
12/7/2020 4:15:00 AM 7.81 46.058 0.98 7.81 8.62 10.07
12/7/2020 4:30:00 AM 7.76 45.968 0.976 7.81 9.74 10.1
12/7/2020 4:45:00 AM 7.71 45.878 0.971 7.81 8.67 10.13
12/7/2020 5:00:00 AM 7.65 45.77 0.966 7.81 8.04 10.14
12/7/2020 5:15:00 AM 7.6 45.68 0.961 7.83 7.74 10.17
12/7/2020 5:30:00 AM 7.56 45.608 0.955 7.82 8.09 10.19
12/7/2020 5:45:00 AM 7.51 45.518 0.948 7.83 8.11 10.21
12/7/2020 6:00:00 AM 7.47 45.446 0.942 7.82 7.68 10.23
12/7/2020 6:15:00 AM 7.43 45.374 0.936 7.82 7.62 10.24
12/7/2020 6:30:00 AM 7.4 45.32 0.93 7.83 7.52 10.27
12/7/2020 6:45:00 AM 7.36 45.248 0.924 7.84 7.54 10.28
12/7/2020 7:00:00 AM 7.32 45.176 0.918 7.84 7.09 10.31
12/7/2020 7:15:00 AM 7.29 45.122 0.912 7.83 6.95 10.33
12/7/2020 7:30:00 AM 7.25 45.05 0.907 7.84 7.37 10.37
12/7/2020 7:45:00 AM 7.23 45.014 0.904 7.84 7.76 10.43
12/7/2020 8:00:00 AM 7.2 44.96 0.901 7.85 7.95 10.5
12/7/2020 8:15:00 AM 7.19 44.942 0.9 7.85 9.76 10.56
12/7/2020 8:30:00 AM 7.19 44.942 0.9 7.87 9.74 10.63
12/7/2020 8:45:00 AM 7.21 44.978 0.902 7.87 9.45 10.71
12/7/2020 9:00:00 AM 7.23 45.014 0.905 7.86 9.9 10.78
12/7/2020 9:15:00 AM 7.27 45.086 0.908 7.88 10.7 10.83
12/7/2020 9:30:00 AM 7.32 45.176 0.91 7.88 10.99 10.92
12/7/2020 9:45:00 AM 7.38 45.284 0.911 7.9 10.32 11.02
12/7/2020 10:00:00 AM 7.46 45.428 0.911 7.89 10.86 11.11
12/7/2020 10:15:00 AM 7.56 45.608 0.909 7.91 11.46 11.17
12/7/2020 10:30:00 AM 7.66 45.788 0.905 7.92 11.98 11.22
12/7/2020 10:45:00 AM 7.77 45.986 0.9 7.92 11.24 11.33
12/7/2020 11:00:00 AM 7.89 46.202 0.894 7.94 10.18 11.43
12/7/2020 11:15:00 AM 7.99 46.382 0.89 7.94 11.22 11.48
12/7/2020 11:30:00 AM 8.09 46.562 0.887 7.94 11.1 11.52
12/7/2020 11:45:00 AM 8.19 46.742 0.887 7.95 10.85 11.58
12/7/2020 12:00:00 PM 8.31 46.958 0.891 7.96 10.04 11.63
12/7/2020 12:15:00 PM 8.43 47.174 0.898 7.96 10.4 11.67
12/7/2020 12:30:00 PM 8.56 47.408 0.909 7.98 10 11.68
12/7/2020 12:45:00 PM 8.69 47.642 0.922 7.97 10.03 11.7
12/7/2020 1:00:00 PM 8.81 47.858 0.937 7.97 10.62 11.71
12/7/2020 1:15:00 PM 8.93 48.074 0.951 7.98 10.11 11.7
12/7/2020 1:30:00 PM 9.03 48.254 0.963 7.98 9.65 11.7
12/7/2020 1:45:00 PM 9.12 48.416 0.972 7.98 9.51 11.7
12/7/2020 2:00:00 PM 9.19 48.542 0.98 7.98 10.16 11.69
12/7/2020 2:15:00 PM 9.23 48.614 0.983 7.98 10.54 11.66
12/7/2020 2:30:00 PM 9.26 48.668 0.986 7.98 10.73 11.63
12/7/2020 2:45:00 PM 9.26 48.668 0.987 7.98 10.72 11.56
12/7/2020 3:00:00 PM 9.24 48.632 0.986 7.98 10.07 11.48
12/7/2020 3:15:00 PM 9.2 48.56 0.984 7.98 10.22 11.38
12/7/2020 3:30:00 PM 9.16 48.488 0.982 7.97 10.1 11.29
12/7/2020 3:45:00 PM 9.12 48.416 0.982 7.96 9.51 11.2
12/7/2020 4:00:00 PM 9.1 48.38 0.981 7.96 9.63 11.13
12/7/2020 4:15:00 PM 9.07 48.326 0.982 7.96 11.11 11.04
12/7/2020 4:30:00 PM 9.07 48.326 0.983 7.95 10.65 10.96
12/7/2020 4:45:00 PM 9.07 48.326 0.984 7.95 10.59 10.87
12/7/2020 5:00:00 PM 9.07 48.326 0.985 7.94 11.07 10.79
12/7/2020 5:15:00 PM 9.07 48.326 0.987 7.93 10.39 10.72
12/7/2020 5:30:00 PM 9.06 48.308 0.989 7.94 10.35 10.66
12/7/2020 5:45:00 PM 9.05 48.29 0.991 7.92 10.72 10.61
12/7/2020 6:00:00 PM 9.03 48.254 0.992 7.92 10.28 10.56
12/7/2020 6:15:00 PM 9.01 48.218 0.994 7.91 9.7 10.51
12/7/2020 6:30:00 PM 8.98 48.164 0.996 7.91 9.94 10.46
12/7/2020 6:45:00 PM 8.95 48.11 0.999 7.9 9.09 10.41
12/7/2020 7:00:00 PM 8.92 48.056 1.001 7.9 8.95 10.36
12/7/2020 7:15:00 PM 8.88 47.984 1.003 7.9 8.38 10.3
12/7/2020 7:30:00 PM 8.84 47.912 1.005 7.89 8.78 10.27
12/7/2020 7:45:00 PM 8.8 47.84 1.006 7.89 8.95 10.22
12/7/2020 8:00:00 PM 8.75 47.75 1.009 7.87 8.5 10.18
12/7/2020 8:15:00 PM 8.71 47.678 1.01 7.87 8.54 10.13
12/7/2020 8:30:00 PM 8.66 47.588 1.011 7.87 8.54 10.07
12/7/2020 8:45:00 PM 8.61 47.498 1.01 7.86 8.72 10.05
12/7/2020 9:00:00 PM 8.56 47.408 1.008 7.86 8.98 10.02
12/7/2020 9:15:00 PM 8.51 47.318 1.004 7.86 9.04 9.99
12/7/2020 9:30:00 PM 8.45 47.21 1 7.85 10.37 9.98
12/7/2020 9:45:00 PM 8.39 47.102 0.997 7.86 9.56 9.97
12/7/2020 10:00:00 PM 8.34 47.012 0.995 7.84 9.48 9.96
12/7/2020 10:15:00 PM 8.29 46.922 0.994 7.85 10.95 9.96
12/7/2020 10:30:00 PM 8.24 46.832 0.995 7.84 10.11 9.96
12/7/2020 10:45:00 PM 8.19 46.742 0.995 7.84 10.02 9.95
12/7/2020 11:00:00 PM 8.15 46.67 0.995 7.83 9.68 9.94
12/7/2020 11:15:00 PM 8.1 46.58 0.995 7.83 9.64 9.94
12/7/2020 11:30:00 PM 8.06 46.508 0.997 7.84 10.4 9.94
12/7/2020 11:45:00 PM 8.02 46.436 1 7.83 9.71 9.94
12/8/2020 12:00:00 AM 7.99 46.382 1.002 7.83 10.33 9.94
12/8/2020 12:15:00 AM 7.95 46.31 1.003 7.83 10.7 9.94
12/8/2020 12:30:00 AM 7.91 46.238 1.006 7.84 11.36 9.95
12/8/2020 12:45:00 AM 7.88 46.184 1.006 7.82 10.2 9.96
12/8/2020 1:00:00 AM 7.86 46.148 1.007 7.82 10.57 9.96
12/8/2020 1:15:00 AM 7.85 46.13 1.009 7.83 10.81 9.97
12/8/2020 1:30:00 AM 7.83 46.094 1.008 7.82 10.03 9.98
12/8/2020 1:45:00 AM 7.81 46.058 1.009 7.83 10.48 9.99
12/8/2020 2:00:00 AM 7.78 46.004 1.01 7.83 10.41 9.99
12/8/2020 2:15:00 AM 7.77 45.986 1.01 7.82 10.21 10
12/8/2020 2:30:00 AM 7.75 45.95 1.01 7.82 9.48 10.01
12/8/2020 2:45:00 AM 7.74 45.932 1.008 7.82 9.78 10.02
12/8/2020 3:00:00 AM 7.73 45.914 1.004 7.82 9.31 10.02
12/8/2020 3:15:00 AM 7.71 45.878 1.001 7.82 8.42 10.04
12/8/2020 3:30:00 AM 7.69 45.842 0.995 7.82 8.53 10.05
12/8/2020 3:45:00 AM 7.67 45.806 0.991 7.83 9.59 10.07
12/8/2020 4:00:00 AM 7.65 45.77 0.986 7.84 9.61 10.08
12/8/2020 4:15:00 AM 7.64 45.752 0.982 7.84 10.02 10.09
12/8/2020 4:30:00 AM 7.63 45.734 0.978 7.84 9.61 10.1
12/8/2020 4:45:00 AM 7.61 45.698 0.972 7.84 9.98 10.11
12/8/2020 5:00:00 AM 7.6 45.68 0.968 7.83 10.07 10.13
12/8/2020 5:15:00 AM 7.57 45.626 0.963 7.83 8.99 10.14
12/8/2020 5:30:00 AM 7.56 45.608 0.959 7.84 8.06 10.15
12/8/2020 5:45:00 AM 7.55 45.59 0.955 7.83 7.76 10.16
12/8/2020 6:00:00 AM 7.53 45.554 0.95 7.84 7.52 10.16
12/8/2020 6:15:00 AM 7.5 45.5 0.945 7.84 7.78 10.18
12/8/2020 6:30:00 AM 7.49 45.482 0.939 7.84 8.27 10.19
12/8/2020 6:45:00 AM 7.48 45.464 0.934 7.85 7.41 10.19
12/8/2020 7:00:00 AM 7.45 45.41 0.928 7.85 7.64 10.2
12/8/2020 7:15:00 AM 7.41 45.338 0.922 7.84 7.09 10.22
12/8/2020 7:30:00 AM 7.39 45.302 0.914 7.85 7.18 10.25
12/8/2020 7:45:00 AM 7.36 45.248 0.906 7.86 7.82 10.32
12/8/2020 8:00:00 AM 7.34 45.212 0.898 7.86 7.72 10.38
12/8/2020 8:15:00 AM 7.34 45.212 0.894 7.86 8.52 10.48
12/8/2020 8:30:00 AM 7.35 45.23 0.89 7.88 9.52 10.55
12/8/2020 8:45:00 AM 7.36 45.248 0.889 7.88 11.02 10.62
12/8/2020 9:00:00 AM 7.38 45.284 0.888 7.89 10.27 10.7
12/8/2020 9:15:00 AM 7.41 45.338 0.888 7.89 10.27 10.77
12/8/2020 9:30:00 AM 7.44 45.392 0.889 7.89 11.04 10.86
12/8/2020 9:45:00 AM 7.49 45.482 0.889 7.9 10.54 10.97
12/8/2020 10:00:00 AM 7.57 45.626 0.889 7.91 10.15 11.07
12/8/2020 10:15:00 AM 7.64 45.752 0.888 7.92 11.23 11.14
12/8/2020 10:30:00 AM 7.73 45.914 0.886 7.93 11.6 11.21
12/8/2020 10:45:00 AM 7.81 46.058 0.884 7.94 10.29 11.3
12/8/2020 11:00:00 AM 7.91 46.238 0.881 7.94 9.45 11.4
12/8/2020 11:15:00 AM 8.01 46.418 0.879 7.95 9.21 11.5
12/8/2020 11:30:00 AM 8.12 46.616 0.877 7.96 10.34 11.58
12/8/2020 11:45:00 AM 8.2 46.76 0.876 7.97 11.43 11.62
12/8/2020 12:00:00 PM 8.29 46.922 0.878 7.97 11.3 11.68
12/8/2020 12:15:00 PM 8.38 47.084 0.884 7.99 10.46 11.75
12/8/2020 12:30:00 PM 8.49 47.282 0.893 8 10.62 11.79
12/8/2020 12:45:00 PM 8.6 47.48 0.906 7.99 9.33 11.84
12/8/2020 1:00:00 PM 8.72 47.696 0.921 8 8.93 11.92
12/8/2020 1:15:00 PM 8.81 47.858 0.938 8 8.69 11.94
12/8/2020 1:30:00 PM 8.87 47.966 0.956 8 9.71 11.88
12/8/2020 1:45:00 PM 8.93 48.074 0.971 8 8.97 11.81
12/8/2020 2:00:00 PM 8.99 48.182 0.981 8.01 9.43 11.79
12/8/2020 2:15:00 PM 9.02 48.236 0.989 8 9.31 11.81
12/8/2020 2:30:00 PM 8.99 48.182 0.992 8 8.88 11.78
12/8/2020 2:45:00 PM 8.96 48.128 0.994 8 9.77 11.73
12/8/2020 3:00:00 PM 8.96 48.128 0.995 8 9.38 11.64
12/8/2020 3:15:00 PM 8.97 48.146 0.995 8 9.88 11.61
12/8/2020 3:30:00 PM 8.99 48.182 0.996 8 9.48 11.55
12/8/2020 3:45:00 PM 8.99 48.182 0.997 7.99 8.89 11.49
12/8/2020 4:00:00 PM 8.99 48.182 0.996 8 9.41 11.42
12/8/2020 4:15:00 PM 9 48.2 0.996 8 9.23 11.33
12/8/2020 4:30:00 PM 8.99 48.182 0.997 7.98 9.37 11.25
12/8/2020 4:45:00 PM 8.99 48.182 1 7.98 10.1 11.17
12/8/2020 5:00:00 PM 9 48.2 1.001 7.97 8.5 11.08
12/8/2020 5:15:00 PM 9.01 48.218 1.003 7.97 8.43 10.99
12/8/2020 5:30:00 PM 9 48.2 1.004 7.97 8.46 10.92
12/8/2020 5:45:00 PM 8.99 48.182 1.005 7.95 9.01 10.85
12/8/2020 6:00:00 PM 8.97 48.146 1.004 7.96 8.83 10.79
12/8/2020 6:15:00 PM 8.94 48.092 1.003 7.94 8.09 10.73
12/8/2020 6:30:00 PM 8.91 48.038 1.002 7.93 7.91 10.66
12/8/2020 6:45:00 PM 8.87 47.966 1.002 7.94 7.59 10.61
12/8/2020 7:00:00 PM 8.83 47.894 1.001 7.93 7.52 10.54
12/8/2020 7:15:00 PM 8.79 47.822 1.001 7.92 7.63 10.48
12/8/2020 7:30:00 PM 8.75 47.75 1.001 7.91 7.63 10.42
12/8/2020 7:45:00 PM 8.7 47.66 1.001 7.91 7.77 10.36
12/8/2020 8:00:00 PM 8.66 47.588 1.001 7.91 7.8 10.31
12/8/2020 8:15:00 PM 8.63 47.534 1.004 7.9 7.86 10.26
12/8/2020 8:30:00 PM 8.61 47.498 1.006 7.89 7.83 10.2
12/8/2020 8:45:00 PM 8.59 47.462 1.008 7.88 8.09 10.16
12/8/2020 9:00:00 PM 8.58 47.444 1.006 7.88 8.18 10.12
12/8/2020 9:15:00 PM 8.56 47.408 1.003 7.87 7.93 10.08
12/8/2020 9:30:00 PM 8.54 47.372 0.998 7.87 8.4 10.07
12/8/2020 9:45:00 PM 8.53 47.354 0.993 7.86 7.96 10.04
12/8/2020 10:00:00 PM 8.5 47.3 0.989 7.86 8.42 10.03
12/8/2020 10:15:00 PM 8.49 47.282 0.988 7.86 7.95 10.02
12/8/2020 10:30:00 PM 8.47 47.246 0.989 7.86 7.95 10.01
12/8/2020 10:45:00 PM 8.44 47.192 0.99 7.85 8.03 10.01
12/8/2020 11:00:00 PM 8.41 47.138 0.991 7.85 8.19 10
12/8/2020 11:15:00 PM 8.4 47.12 0.994 7.84 7.86 9.99
12/8/2020 11:30:00 PM 8.37 47.066 0.998 7.85 8.37 9.99
12/8/2020 11:45:00 PM 8.34 47.012 1.002 7.85 8.9 9.97
12/9/2020 12:00:00 AM 8.31 46.958 1.007 7.85 8.42 9.97
12/9/2020 12:15:00 AM 8.29 46.922 1.011 7.84 8.5 9.97
12/9/2020 12:30:00 AM 8.27 46.886 1.015 7.84 8.13 9.96
12/9/2020 12:45:00 AM 8.25 46.85 1.018 7.84 7.85 9.97
12/9/2020 1:00:00 AM 8.22 46.796 1.022 7.83 7.96 9.95
12/9/2020 1:15:00 AM 8.2 46.76 1.024 7.84 8.49 9.95
12/9/2020 1:30:00 AM 8.18 46.724 1.027 7.83 8.16 9.96
12/9/2020 1:45:00 AM 8.17 46.706 1.027 7.84 7.97 9.95
12/9/2020 2:00:00 AM 8.16 46.688 1.025 7.83 8.34 9.96
12/9/2020 2:15:00 AM 8.15 46.67 1.023 7.84 8.29 9.96
12/9/2020 2:30:00 AM 8.15 46.67 1.02 7.83 8.09 9.97
12/9/2020 2:45:00 AM 8.14 46.652 1.017 7.83 7.58 9.98
12/9/2020 3:00:00 AM 8.13 46.634 1.015 7.83 8.1 9.99
12/9/2020 3:15:00 AM 8.1 46.58 1.011 7.84 8.42 9.98
12/9/2020 3:30:00 AM 8.07 46.526 1.008 7.83 8.31 10
12/9/2020 3:45:00 AM 8.05 46.49 1.005 7.83 8.16 10
12/9/2020 4:00:00 AM 8.02 46.436 1.001 7.83 8.42 10.01
12/9/2020 4:15:00 AM 7.98 46.364 0.998 7.83 8.88 10.01
12/9/2020 4:30:00 AM 7.95 46.31 0.993 7.83 8.4 10.03
12/9/2020 4:45:00 AM 7.92 46.256 0.99 7.83 8.57 10.03
12/9/2020 5:00:00 AM 7.89 46.202 0.985 7.84 8.8 10.05
12/9/2020 5:15:00 AM 7.86 46.148 0.98 7.84 8.23 10.06
12/9/2020 5:30:00 AM 7.83 46.094 0.974 7.84 8.03 10.08
12/9/2020 5:45:00 AM 7.81 46.058 0.967 7.84 7.93 10.1
12/9/2020 6:00:00 AM 7.8 46.04 0.959 7.84 7.97 10.13
12/9/2020 6:15:00 AM 7.79 46.022 0.952 7.84 7.7 10.14
12/9/2020 6:30:00 AM 7.79 46.022 0.945 7.84 7.7 10.15
12/9/2020 6:45:00 AM 7.79 46.022 0.937 7.85 8.31 10.16
12/9/2020 7:00:00 AM 7.79 46.022 0.93 7.85 7.31 10.17
12/9/2020 7:15:00 AM 7.78 46.004 0.922 7.85 7.23 10.19
12/9/2020 7:30:00 AM 7.76 45.968 0.916 7.85 7.19 10.21
12/9/2020 7:45:00 AM 7.75 45.95 0.91 7.85 7.04 10.26
12/9/2020 8:00:00 AM 7.74 45.932 0.906 7.86 6.81 10.32
12/9/2020 8:15:00 AM 7.74 45.932 0.903 7.86 6.87 10.39
12/9/2020 8:30:00 AM 7.75 45.95 0.902 7.87 7.62 10.48
12/9/2020 8:45:00 AM 7.77 45.986 0.901 7.88 7.46 10.53
12/9/2020 9:00:00 AM 7.79 46.022 0.901 7.88 7.32 10.62
12/9/2020 9:15:00 AM 7.82 46.076 0.9 7.89 7.72 10.68
12/9/2020 9:30:00 AM 7.86 46.148 0.9 7.89 7.36 10.75
12/9/2020 9:45:00 AM 7.92 46.256 0.9 7.91 7.63 10.84
12/9/2020 10:00:00 AM 7.96 46.328 0.901 7.9 8.08 10.8
12/9/2020 10:15:00 AM 8.03 46.454 0.9 7.91 7.48 10.86
12/9/2020 10:30:00 AM 8.08 46.544 0.897 7.9 7.36 10.8
12/9/2020 10:45:00 AM 8.07 46.526 0.893 7.9 7.48 10.73
12/9/2020 11:00:00 AM 8.08 46.544 0.889 7.91 7.18 10.79
12/9/2020 11:15:00 AM 8.12 46.616 0.884 7.91 7.76 10.88
12/9/2020 11:30:00 AM 8.16 46.688 0.882 7.93 7.12 11.01
12/9/2020 11:45:00 AM 8.22 46.796 0.882 7.93 7.21 11.1
12/9/2020 12:00:00 PM 8.3 46.94 0.885 7.94 7.38 11.14
12/9/2020 12:15:00 PM 8.38 47.084 0.891 7.95 6.9 11.17
12/9/2020 12:30:00 PM 8.46 47.228 0.901 7.95 7.28 11.19
12/9/2020 12:45:00 PM 8.55 47.39 0.912 7.95 7.18 11.25
12/9/2020 1:00:00 PM 8.63 47.534 0.927 7.95 7.4 11.24
12/9/2020 1:15:00 PM 8.71 47.678 0.941 7.95 6.86 11.15
12/9/2020 1:30:00 PM 8.81 47.858 0.954 7.94 7.01 11.13
12/9/2020 1:45:00 PM 8.92 48.056 0.965 7.95 7.85 11.2
12/9/2020 2:00:00 PM 9 48.2 0.974 7.95 7.21 11.23
12/9/2020 2:15:00 PM 9.08 48.344 0.981 7.95 6.91 11.19
12/9/2020 2:30:00 PM 9.15 48.47 0.985 7.96 7.7 11.18
12/9/2020 2:45:00 PM 9.21 48.578 0.988 7.95 7.63 11.15
12/9/2020 3:00:00 PM 9.28 48.704 0.991 7.95 7.46 11.16
12/9/2020 3:15:00 PM 9.34 48.812 0.993 7.96 7.34 11.19
12/9/2020 3:30:00 PM 9.38 48.884 0.995 7.96 7.48 11.15
12/9/2020 3:45:00 PM 9.42 48.956 0.995 7.96 7.07 11.05
12/9/2020 4:00:00 PM 9.46 49.028 0.996 7.95 7.29 11.01
12/9/2020 4:15:00 PM 9.48 49.064 0.999 7.95 7.37 10.97
12/9/2020 4:30:00 PM 9.5 49.1 1.002 7.94 6.97 10.86
12/9/2020 4:45:00 PM 9.53 49.154 1.008 7.93 6.71 10.77
12/9/2020 5:00:00 PM 9.55 49.19 1.015 7.92 7.06 10.67
12/9/2020 5:15:00 PM 9.56 49.208 1.023 7.92 7.4 10.59
12/9/2020 5:30:00 PM 9.57 49.226 1.03 7.91 7.88 10.53
12/9/2020 5:45:00 PM 9.57 49.226 1.037 7.91 7.52 10.47
12/9/2020 6:00:00 PM 9.58 49.244 1.045 7.91 7.26 10.42
12/9/2020 6:15:00 PM 9.59 49.262 1.051 7.9 7.23 10.35
12/9/2020 6:30:00 PM 9.6 49.28 1.057 7.9 7.39 10.3
12/9/2020 6:45:00 PM 9.62 49.316 1.063 7.89 7.11 10.25
12/9/2020 7:00:00 PM 9.62 49.316 1.066 7.89 7.37 10.2
12/9/2020 7:15:00 PM 9.63 49.334 1.067 7.89 7.41 10.15
12/9/2020 7:30:00 PM 9.62 49.316 1.067 7.88 6.79 10.11
12/9/2020 7:45:00 PM 9.62 49.316 1.067 7.88 7.55 10.07
12/9/2020 8:00:00 PM 9.62 49.316 1.067 7.87 7.48 10.02
12/9/2020 8:15:00 PM 9.61 49.298 1.066 7.87 7.42 9.98
12/9/2020 8:30:00 PM 9.61 49.298 1.061 7.86 8.36 9.94
12/9/2020 8:45:00 PM 9.59 49.262 1.053 7.87 8.35 9.89
12/9/2020 9:00:00 PM 9.56 49.208 1.042 7.87 8.23 9.87
12/9/2020 9:15:00 PM 9.55 49.19 1.03 7.86 7.42 9.85
12/9/2020 9:30:00 PM 9.52 49.136 1.018 7.86 7.55 9.82
12/9/2020 9:45:00 PM 9.51 49.118 1.009 7.86 7.37 9.8
12/9/2020 10:00:00 PM 9.5 49.1 1.002 7.85 7.32 9.78
12/9/2020 10:15:00 PM 9.49 49.082 0.999 7.85 7.58 9.76
12/9/2020 10:30:00 PM 9.48 49.064 0.997 7.84 8.07 9.73
12/9/2020 10:45:00 PM 9.49 49.082 0.997 7.84 8 9.71
12/9/2020 11:00:00 PM 9.5 49.1 1 7.84 7.78 9.69
12/9/2020 11:15:00 PM 9.51 49.118 1.002 7.84 8.59 9.68
12/9/2020 11:30:00 PM 9.53 49.154 1.006 7.84 7.87 9.65
12/9/2020 11:45:00 PM 9.55 49.19 1.01 7.83 7.07 9.63
12/10/2020 12:00:00 AM 9.57 49.226 1.015 7.84 7.2 9.61
12/10/2020 12:15:00 AM 9.59 49.262 1.019 7.83 7.31 9.59
12/10/2020 12:30:00 AM 9.61 49.298 1.024 7.82 7.4 9.57
12/10/2020 12:45:00 AM 9.62 49.316 1.029 7.82 7.07 9.54
12/10/2020 1:00:00 AM 9.64 49.352 1.031 7.83 7.82 9.54
12/10/2020 1:15:00 AM 9.65 49.37 1.033 7.82 8.65 9.52
12/10/2020 1:30:00 AM 9.66 49.388 1.034 7.83 7.79 9.5
12/10/2020 1:45:00 AM 9.67 49.406 1.035 7.83 7.76 9.51
12/10/2020 2:00:00 AM 9.67 49.406 1.036 7.82 7.34 9.51
12/10/2020 2:15:00 AM 9.67 49.406 1.036 7.82 8.02 9.5
12/10/2020 2:30:00 AM 9.67 49.406 1.036 7.82 7.43 9.49
12/10/2020 2:45:00 AM 9.68 49.424 1.035 7.82 7.19 9.47
12/10/2020 3:00:00 AM 9.67 49.406 1.033 7.83 7.32 9.48
12/10/2020 3:15:00 AM 9.67 49.406 1.032 7.83 7.87 9.49
12/10/2020 3:30:00 AM 9.65 49.37 1.029 7.82 8.16 9.5
12/10/2020 3:45:00 AM 9.62 49.316 1.025 7.82 8.35 9.5
12/10/2020 4:00:00 AM 9.57 49.226 1.021 7.83 8.79 9.51
12/10/2020 4:15:00 AM 9.52 49.136 1.017 7.83 8.67 9.54
12/10/2020 4:30:00 AM 9.46 49.028 1.013 7.83 8.91 9.56
12/10/2020 4:45:00 AM 9.4 48.92 1.008 7.83 7.97 9.57
12/10/2020 5:00:00 AM 9.35 48.83 1.004 7.83 9.08 9.57
12/10/2020 5:15:00 AM 9.29 48.722 0.999 7.83 8.16 9.6
12/10/2020 5:30:00 AM 9.25 48.65 0.994 7.84 8.73 9.6
12/10/2020 5:45:00 AM 9.2 48.56 0.988 7.83 8.16 9.62
12/10/2020 6:00:00 AM 9.14 48.452 0.981 7.84 9.48 9.66
12/10/2020 6:15:00 AM 9.09 48.362 0.974 7.83 9.12 9.67
12/10/2020 6:30:00 AM 9.03 48.254 0.967 7.84 9.68 9.69
12/10/2020 6:45:00 AM 8.97 48.146 0.961 7.84 8.46 9.73
12/10/2020 7:00:00 AM 8.92 48.056 0.955 7.84 8.7 9.76
12/10/2020 7:15:00 AM 8.86 47.948 0.947 7.84 8.36 9.8
12/10/2020 7:30:00 AM 8.81 47.858 0.941 7.84 8.34 9.86
12/10/2020 7:45:00 AM 8.78 47.804 0.934 7.85 8.74 9.92
12/10/2020 8:00:00 AM 8.75 47.75 0.93 7.85 8.49 9.98
12/10/2020 8:15:00 AM 8.72 47.696 0.927 7.85 8.38 10.09
12/10/2020 8:30:00 AM 8.73 47.714 0.925 7.86 7.85 10.22
12/10/2020 8:45:00 AM 8.75 47.75 0.924 7.87 8.59 10.39
12/10/2020 9:00:00 AM 8.79 47.822 0.924 7.89 8.16 10.54
12/10/2020 9:15:00 AM 8.83 47.894 0.923 7.91 7.75 10.67
12/10/2020 9:30:00 AM 8.9 48.02 0.924 7.91 7.65 10.77
12/10/2020 9:45:00 AM 8.97 48.146 0.923 7.91 8.31 10.82
12/10/2020 10:00:00 AM 9.05 48.29 0.922 7.91 7.85 10.88
12/10/2020 10:15:00 AM 9.13 48.434 0.92 7.93 7.82 10.98
12/10/2020 10:30:00 AM 9.21 48.578 0.918 7.95 8.71 11.08
12/10/2020 10:45:00 AM 9.31 48.758 0.915 7.96 8.22 11.22
12/10/2020 11:00:00 AM 9.39 48.902 0.913 7.97 7.67 11.29
12/10/2020 11:15:00 AM 9.49 49.082 0.911 7.98 7.44 11.4
12/10/2020 11:30:00 AM 9.55 49.19 0.91 7.99 7.48 11.39
12/10/2020 11:45:00 AM 9.66 49.388 0.909 7.99 8.19 11.46
12/10/2020 12:00:00 PM 9.73 49.514 0.907 8 7.56 11.55
12/10/2020 12:15:00 PM 9.79 49.622 0.904 8 7.73 11.62
12/10/2020 12:30:00 PM 9.87 49.766 0.909 8.01 7.51 11.69
12/10/2020 12:45:00 PM 10 50 0.923 8.01 7.85 11.72
12/10/2020 1:00:00 PM 10.14 50.252 0.941 8.02 7.32 11.73
12/10/2020 1:15:00 PM 10.29 50.522 0.96 8.02 7.6 11.73
12/10/2020 1:30:00 PM 10.41 50.738 0.978 8.02 7.03 11.74
12/10/2020 1:45:00 PM 10.52 50.936 0.993 8.03 6.94 11.74
12/10/2020 2:00:00 PM 10.6 51.08 1.006 8.03 6.93 11.72
12/10/2020 2:15:00 PM 10.67 51.206 1.014 8.02 7.27 11.7
12/10/2020 2:30:00 PM 10.72 51.296 1.02 8.03 7.51 11.65
12/10/2020 2:45:00 PM 10.75 51.35 1.024 8.03 7.2 11.57
12/10/2020 3:00:00 PM 10.76 51.368 1.026 8.02 7.47 11.48
12/10/2020 3:15:00 PM 10.76 51.368 1.028 8.01 7.74 11.37
12/10/2020 3:30:00 PM 10.75 51.35 1.029 8.01 7.23 11.25
12/10/2020 3:45:00 PM 10.72 51.296 1.029 8 7.36 11.15
12/10/2020 4:00:00 PM 10.7 51.26 1.03 7.99 7.63 11.06
12/10/2020 4:15:00 PM 10.68 51.224 1.03 7.98 7.82 10.96
12/10/2020 4:30:00 PM 10.65 51.17 1.029 7.97 7.48 10.86
12/10/2020 4:45:00 PM 10.63 51.134 1.028 7.97 7.4 10.76
12/10/2020 5:00:00 PM 10.6 51.08 1.027 7.96 7.52 10.66
12/10/2020 5:15:00 PM 10.58 51.044 1.028 7.96 9.16 10.58
12/10/2020 5:30:00 PM 10.56 51.008 1.031 7.94 7.56 10.5
12/10/2020 5:45:00 PM 10.54 50.972 1.038 7.95 9.07 10.42
12/10/2020 6:00:00 PM 10.52 50.936 1.046 7.93 8.44 10.35
12/10/2020 6:15:00 PM 10.5 50.9 1.054 7.93 7.85 10.27
12/10/2020 6:30:00 PM 10.47 50.846 1.061 7.92 7.6 10.22
12/10/2020 6:45:00 PM 10.44 50.792 1.068 7.91 7.55 10.16
12/10/2020 7:00:00 PM 10.4 50.72 1.073 7.91 7.63 10.1
12/10/2020 7:15:00 PM 10.35 50.63 1.076 7.91 8.08 10.04
12/10/2020 7:30:00 PM 10.3 50.54 1.077 7.89 7.33 9.99
12/10/2020 7:45:00 PM 10.25 50.45 1.078 7.9 7.38 9.94
12/10/2020 8:00:00 PM 10.2 50.36 1.08 7.89 7.18 9.89
12/10/2020 8:15:00 PM 10.15 50.27 1.08 7.88 7.84 9.85
12/10/2020 8:30:00 PM 10.1 50.18 1.079 7.87 9.43 9.81
12/10/2020 8:45:00 PM 10.04 50.072 1.078 7.87 9.06 9.78
12/10/2020 9:00:00 PM 9.97 49.946 1.075 7.87 7.75 9.75
12/10/2020 9:15:00 PM 9.9 49.82 1.072 7.87 8.02 9.72
12/10/2020 9:30:00 PM 9.83 49.694 1.066 7.86 7.86 9.71
12/10/2020 9:45:00 PM 9.76 49.568 1.06 7.85 8.65 9.68
12/10/2020 10:00:00 PM 9.69 49.442 1.054 7.86 8.64 9.67
12/10/2020 10:15:00 PM 9.62 49.316 1.049 7.85 8.22 9.67
12/10/2020 10:30:00 PM 9.54 49.172 1.044 7.86 9.5 9.68
12/10/2020 10:45:00 PM 9.47 49.046 1.039 7.85 8.4 9.69
12/10/2020 11:00:00 PM 9.41 48.938 1.036 7.85 7.72 9.69
12/10/2020 11:15:00 PM 9.34 48.812 1.034 7.84 7.86 9.69
12/10/2020 11:30:00 PM 9.29 48.722 1.035 7.84 7.94 9.7
12/10/2020 11:45:00 PM 9.23 48.614 1.038 7.83 8.14 9.7
12/11/2020 12:00:00 AM 9.18 48.524 1.043 7.83 8.57 9.7
12/11/2020 12:15:00 AM 9.13 48.434 1.05 7.83 8.85 9.7
12/11/2020 12:30:00 AM 9.08 48.344 1.056 7.83 8.87 9.7
12/11/2020 12:45:00 AM 9.03 48.254 1.062 7.84 7.89 9.7
12/11/2020 1:00:00 AM 8.99 48.182 1.067 7.84 8.42 9.71
12/11/2020 1:15:00 AM 8.94 48.092 1.071 7.83 7.74 9.72
12/11/2020 1:30:00 AM 8.89 48.002 1.074 7.84 7.86 9.73
12/11/2020 1:45:00 AM 8.85 47.93 1.077 7.83 8.16 9.74
12/11/2020 2:00:00 AM 8.8 47.84 1.08 7.83 8.47 9.74
12/11/2020 2:15:00 AM 8.75 47.75 1.082 7.84 8.07 9.74
12/11/2020 2:30:00 AM 8.7 47.66 1.083 7.83 7.9 9.76
12/11/2020 2:45:00 AM 8.65 47.57 1.084 7.83 7.6 9.77
12/11/2020 3:00:00 AM 8.6 47.48 1.083 7.83 7.81 9.77
12/11/2020 3:15:00 AM 8.55 47.39 1.083 7.84 7.44 9.8
12/11/2020 3:30:00 AM 8.51 47.318 1.082 7.84 7.78 9.82
12/11/2020 3:45:00 AM 8.46 47.228 1.079 7.83 8.27 9.84
12/11/2020 4:00:00 AM 8.41 47.138 1.076 7.83 7.81 9.87
12/11/2020 4:15:00 AM 8.36 47.048 1.072 7.84 8.2 9.88
12/11/2020 4:30:00 AM 8.31 46.958 1.067 7.85 8.91 9.92
12/11/2020 4:45:00 AM 8.26 46.868 1.062 7.84 8.01 9.93
12/11/2020 5:00:00 AM 8.21 46.778 1.058 7.84 8.23 9.95
12/11/2020 5:15:00 AM 8.17 46.706 1.054 7.85 7.94 9.97
12/11/2020 5:30:00 AM 8.13 46.634 1.049 7.84 8.54 9.99
12/11/2020 5:45:00 AM 8.09 46.562 1.044 7.85 8.34 10
12/11/2020 6:00:00 AM 8.05 46.49 1.037 7.85 8.02 10.02
12/11/2020 6:15:00 AM 8.02 46.436 1.03 7.85 7.53 10.06
12/11/2020 6:30:00 AM 7.98 46.364 1.022 7.85 7.64 10.08
12/11/2020 6:45:00 AM 7.94 46.292 1.014 7.85 7.2 10.11
12/11/2020 7:00:00 AM 7.9 46.22 1.005 7.85 8.08 10.15
12/11/2020 7:15:00 AM 7.86 46.148 0.996 7.86 7.26 10.18
12/11/2020 7:30:00 AM 7.82 46.076 0.988 7.87 7.85 10.23
12/11/2020 7:45:00 AM 7.79 46.022 0.981 7.87 7.66 10.31
12/11/2020 8:00:00 AM 7.77 45.986 0.975 7.87 7.56 10.4
12/11/2020 8:15:00 AM 7.76 45.968 0.969 7.89 7.78 10.5
12/11/2020 8:30:00 AM 7.77 45.986 0.966 7.9 7.85 10.62
12/11/2020 8:45:00 AM 7.78 46.004 0.963 7.9 7.86 10.73
12/11/2020 9:00:00 AM 7.81 46.058 0.963 7.91 7.79 10.86
12/11/2020 9:15:00 AM 7.87 46.166 0.961 7.93 8.12 10.98
12/11/2020 9:30:00 AM 7.96 46.328 0.962 7.93 7.85 11.12
12/11/2020 9:45:00 AM 8.07 46.526 0.961 7.95 7.9 11.29
12/11/2020 10:00:00 AM 8.18 46.724 0.962 7.96 7.65 11.37
12/11/2020 10:15:00 AM 8.29 46.922 0.961 7.97 7.69 11.42
12/11/2020 10:30:00 AM 8.42 47.156 0.959 7.98 7.91 11.46
12/11/2020 10:45:00 AM 8.54 47.372 0.955 7.98 7.36 11.52
12/11/2020 11:00:00 AM 8.66 47.588 0.951 7.99 7.1 11.6
12/11/2020 11:15:00 AM 8.79 47.822 0.947 8 7.53 11.68
12/11/2020 11:30:00 AM 8.93 48.074 0.945 8.01 7.32 11.74
12/11/2020 11:45:00 AM 9.09 48.362 0.946 8.01 7.24 11.78
12/11/2020 12:00:00 PM 9.25 48.65 0.949 8.02 7.48 11.82
12/11/2020 12:15:00 PM 9.36 48.848 0.949 8.03 7.92 11.9
12/11/2020 12:30:00 PM 9.42 48.956 0.944 8.04 7.53 11.97
12/11/2020 12:45:00 PM 9.49 49.082 0.948 8.05 7.44 12.05
12/11/2020 1:00:00 PM 9.61 49.298 0.959 8.06 6.79 12.06
12/11/2020 1:15:00 PM 9.75 49.55 0.976 8.06 6.67 12.1
12/11/2020 1:30:00 PM 9.89 49.802 0.991 8.06 6.51 12.13
12/11/2020 1:45:00 PM 10.02 50.036 1.005 8.06 6.81 12.12
12/11/2020 2:00:00 PM 10.13 50.234 1.018 8.06 6.64 12.08
12/11/2020 2:15:00 PM 10.24 50.432 1.027 8.07 7.46 12.04
12/11/2020 2:30:00 PM 10.34 50.612 1.034 8.07 6.34 12
12/11/2020 2:45:00 PM 10.43 50.774 1.04 8.07 7.06 11.98
12/11/2020 3:00:00 PM 10.51 50.918 1.044 8.07 6.36 11.9
12/11/2020 3:15:00 PM 10.58 51.044 1.047 8.06 6.4 11.79
12/11/2020 3:30:00 PM 10.66 51.188 1.05 8.06 6.43 11.69
12/11/2020 3:45:00 PM 10.71 51.278 1.052 8.05 6.72 11.56
12/11/2020 4:00:00 PM 10.76 51.368 1.055 8.04 6.3 11.43
12/11/2020 4:15:00 PM 10.79 51.422 1.056 8.03 6.07 11.3
12/11/2020 4:30:00 PM 10.82 51.476 1.056 8.02 5.94 11.19
12/11/2020 4:45:00 PM 10.84 51.512 1.055 8.02 6.1 11.06
12/11/2020 5:00:00 PM 10.85 51.53 1.054 8.01 6.15 10.95
12/11/2020 5:15:00 PM 10.84 51.512 1.053 8.01 6.74 10.85
12/11/2020 5:30:00 PM 10.84 51.512 1.051 8 6.61 10.75
12/11/2020 5:45:00 PM 10.83 51.494 1.05 7.99 6.85 10.65
12/11/2020 6:00:00 PM 10.82 51.476 1.049 7.99 6.6 10.57
12/11/2020 6:15:00 PM 10.8 51.44 1.05 7.98 6.77 10.5
12/11/2020 6:30:00 PM 10.79 51.422 1.05 7.98 6.23 10.43
12/11/2020 6:45:00 PM 10.77 51.386 1.051 7.97 6.39 10.36
12/11/2020 7:00:00 PM 10.75 51.35 1.051 7.96 6.73 10.3
12/11/2020 7:15:00 PM 10.72 51.296 1.049 7.96 6.24 10.21
12/11/2020 7:30:00 PM 10.68 51.224 1.047 7.94 6.35 10.16
12/11/2020 7:45:00 PM 10.64 51.152 1.045 7.95 6.5 10.1
12/11/2020 8:00:00 PM 10.59 51.062 1.043 7.94 6.37 10.03
12/11/2020 8:15:00 PM 10.55 50.99 1.042 7.93 6.41 9.97
12/11/2020 8:30:00 PM 10.49 50.882 1.039 7.92 6.7 9.91
12/11/2020 8:45:00 PM 10.43 50.774 1.034 7.91 6.39 9.86
12/11/2020 9:00:00 PM 10.37 50.666 1.028 7.9 6.73 9.81
12/11/2020 9:15:00 PM 10.3 50.54 1.022 7.9 6.33 9.76
12/11/2020 9:30:00 PM 10.24 50.432 1.016 7.9 6.24 9.73
12/11/2020 9:45:00 PM 10.18 50.324 1.011 7.89 8.53 9.7
12/11/2020 10:00:00 PM 10.12 50.216 1.006 7.88 7.07 9.68
12/11/2020 10:15:00 PM 10.06 50.108 1.003 7.88 6.58 9.67
12/11/2020 10:30:00 PM 10 50 1.002 7.87 6.6 9.65
12/11/2020 10:45:00 PM 9.95 49.91 1.003 7.87 6.55 9.64
12/11/2020 11:00:00 PM 9.9 49.82 1.004 7.87 7.02 9.62
12/11/2020 11:15:00 PM 9.85 49.73 1.007 7.86 6.71 9.63
12/11/2020 11:30:00 PM 9.8 49.64 1.009 7.86 6.2 9.62
12/11/2020 11:45:00 PM 9.75 49.55 1.012 7.86 6.13 9.61
12/12/2020 12:00:00 AM 9.7 49.46 1.015 7.86 7.15 9.59
12/12/2020 12:15:00 AM 9.65 49.37 1.017 7.86 5.96 9.61
12/12/2020 12:30:00 AM 9.6 49.28 1.02 7.85 6.23 9.61
12/12/2020 12:45:00 AM 9.55 49.19 1.021 7.86 6.45 9.6
12/12/2020 1:00:00 AM 9.5 49.1 1.022 7.85 6.14 9.63
12/12/2020 1:15:00 AM 9.45 49.01 1.023 7.85 5.93 9.63
12/12/2020 1:30:00 AM 9.4 48.92 1.024 7.85 6.28 9.65
12/12/2020 1:45:00 AM 9.35 48.83 1.025 7.86 6.1 9.65
12/12/2020 2:00:00 AM 9.31 48.758 1.026 7.85 6.89 9.66
12/12/2020 2:15:00 AM 9.26 48.668 1.026 7.85 6.05 9.67
12/12/2020 2:30:00 AM 9.2 48.56 1.026 7.85 6.14 9.69
12/12/2020 2:45:00 AM 9.15 48.47 1.025 7.86 6.28 9.67
12/12/2020 3:00:00 AM 9.11 48.398 1.024 7.86 6.58 9.7
12/12/2020 3:15:00 AM 9.07 48.326 1.024 7.85 6.44 9.72
12/12/2020 3:30:00 AM 9.02 48.236 1.024 7.85 6.57 9.74
12/12/2020 3:45:00 AM 8.98 48.164 1.024 7.86 6.48 9.75
12/12/2020 4:00:00 AM 8.95 48.11 1.022 7.85 7.79 9.77
12/12/2020 4:15:00 AM 8.91 48.038 1.02 7.85 6.66 9.79
12/12/2020 4:30:00 AM 8.88 47.984 1.017 7.85 6.23 9.81
12/12/2020 4:45:00 AM 8.85 47.93 1.014 7.85 6.29 9.83
12/12/2020 5:00:00 AM 8.82 47.876 1.011 7.86 6.26 9.85
12/12/2020 5:15:00 AM 8.78 47.804 1.008 7.86 7.48 9.86
12/12/2020 5:30:00 AM 8.75 47.75 1.006 7.86 6.31 9.88
12/12/2020 5:45:00 AM 8.73 47.714 1.003 7.86 6.64 9.89
12/12/2020 6:00:00 AM 8.71 47.678 0.999 7.86 7.79 9.9
12/12/2020 6:15:00 AM 8.7 47.66 0.996 7.87 6.98 9.92
12/12/2020 6:30:00 AM 8.7 47.66 0.991 7.86 6.45 9.94
12/12/2020 6:45:00 AM 8.71 47.678 0.986 7.87 6.49 9.95
12/12/2020 7:00:00 AM 8.72 47.696 0.981 7.87 6.66 9.97
12/12/2020 7:15:00 AM 8.73 47.714 0.976 7.87 6.64 9.98
12/12/2020 7:30:00 AM 8.73 47.714 0.971 7.87 6.08 10
12/12/2020 7:45:00 AM 8.74 47.732 0.964 7.87 6.19 10.03
12/12/2020 8:00:00 AM 8.76 47.768 0.959 7.88 6.1 10.1
12/12/2020 8:15:00 AM 8.78 47.804 0.954 7.88 5.82 10.17
12/12/2020 8:30:00 AM 8.83 47.894 0.951 7.89 5.45 10.31
12/12/2020 8:45:00 AM 8.88 47.984 0.948 7.9 5.72 10.42
12/12/2020 9:00:00 AM 8.94 48.092 0.947 7.91 5.81 10.46
12/12/2020 9:15:00 AM 8.99 48.182 0.947 7.91 6.08 10.49
12/12/2020 9:30:00 AM 9.05 48.29 0.948 7.92 5.69 10.5
12/12/2020 9:45:00 AM 9.12 48.416 0.949 7.91 5.86 10.53
12/12/2020 10:00:00 AM 9.19 48.542 0.952 7.91 6.64 10.59
12/12/2020 10:15:00 AM 9.26 48.668 0.953 7.92 6.21 10.64
12/12/2020 10:30:00 AM 9.35 48.83 0.953 7.92 6.74 10.69
12/12/2020 10:45:00 AM 9.45 49.01 0.951 7.93 6.63 10.74
12/12/2020 11:00:00 AM 9.54 49.172 0.948 7.94 6.98 10.79
12/12/2020 11:15:00 AM 9.64 49.352 0.944 7.94 6.71 10.82
12/12/2020 11:30:00 AM 9.75 49.55 0.938 7.95 6.7 10.92
12/12/2020 11:45:00 AM 9.85 49.73 0.933 7.97 6.6 11.01
12/12/2020 12:00:00 PM 9.97 49.946 0.929 7.98 6.83 11.15
12/12/2020 12:15:00 PM 10.11 50.198 0.926 8 7.32 11.3
12/12/2020 12:30:00 PM 10.23 50.414 0.924 8 7.1 11.33
12/12/2020 12:45:00 PM 10.35 50.63 0.925 8 6.52 11.37
12/12/2020 1:00:00 PM 10.47 50.846 0.929 8.01 6.79 11.38
12/12/2020 1:15:00 PM 10.58 51.044 0.938 8.02 6.7 11.35
12/12/2020 1:30:00 PM 10.7 51.26 0.954 8.01 6.68 11.29
12/12/2020 1:45:00 PM 10.82 51.476 0.972 8.01 6.92 11.31
12/12/2020 2:00:00 PM 10.95 51.71 0.992 8.02 6.58 11.29
12/12/2020 2:15:00 PM 11.1 51.98 1.012 8.02 7.26 11.34
12/12/2020 2:30:00 PM 11.25 52.25 1.027 8.02 6.64 11.38
12/12/2020 2:45:00 PM 11.37 52.466 1.04 8.02 6.12 11.32
12/12/2020 3:00:00 PM 11.49 52.682 1.051 8.02 6.31 11.3
12/12/2020 3:15:00 PM 11.57 52.826 1.061 8.02 6.18 11.22
12/12/2020 3:30:00 PM 11.64 52.952 1.068 8.01 6.12 11.06
12/12/2020 3:45:00 PM 11.69 53.042 1.075 8.01 6.05 10.97
12/12/2020 4:00:00 PM 11.73 53.114 1.081 7.99 5.95 10.84
12/12/2020 4:15:00 PM 11.76 53.168 1.084 7.99 6.01 10.74
12/12/2020 4:30:00 PM 11.78 53.204 1.086 7.98 5.75 10.63
12/12/2020 4:45:00 PM 11.8 53.24 1.088 7.98 5.79 10.51
12/12/2020 5:00:00 PM 11.82 53.276 1.09 7.97 6.25 10.4
12/12/2020 5:15:00 PM 11.82 53.276 1.091 7.96 6.66 10.3
12/12/2020 5:30:00 PM 11.81 53.258 1.092 7.95 6.62 10.21
12/12/2020 5:45:00 PM 11.8 53.24 1.092 7.95 6.95 10.13
12/12/2020 6:00:00 PM 11.79 53.222 1.092 7.94 7.14 10.06
12/12/2020 6:15:00 PM 11.77 53.186 1.09 7.94 7.39 9.99
12/12/2020 6:30:00 PM 11.75 53.15 1.089 7.93 7.09 9.94
12/12/2020 6:45:00 PM 11.73 53.114 1.087 7.93 7.47 9.88
12/12/2020 7:00:00 PM 11.71 53.078 1.087 7.92 7.93 9.82
12/12/2020 7:15:00 PM 11.69 53.042 1.086 7.92 7.39 9.76
12/12/2020 7:30:00 PM 11.67 53.006 1.084 7.92 6.95 9.71
12/12/2020 7:45:00 PM 11.64 52.952 1.082 7.91 6.91 9.66
12/12/2020 8:00:00 PM 11.62 52.916 1.079 7.9 6.48 9.61
12/12/2020 8:15:00 PM 11.6 52.88 1.075 7.89 6.84 9.56
12/12/2020 8:30:00 PM 11.58 52.844 1.072 7.89 6.68 9.5
12/12/2020 8:45:00 PM 11.57 52.826 1.068 7.89 6.23 9.46
12/12/2020 9:00:00 PM 11.55 52.79 1.065 7.89 6.72 9.41
12/12/2020 9:15:00 PM 11.53 52.754 1.061 7.88 6.22 9.37
12/12/2020 9:30:00 PM 11.51 52.718 1.059 7.88 6.71 9.34
12/12/2020 9:45:00 PM 11.51 52.718 1.058 7.86 6.48 9.3
12/12/2020 10:00:00 PM 11.51 52.718 1.06 7.86 6.36 9.25
12/12/2020 10:15:00 PM 11.53 52.754 1.065 7.85 6.48 9.2
12/12/2020 10:30:00 PM 11.55 52.79 1.068 7.85 6.65 9.16
12/12/2020 10:45:00 PM 11.56 52.808 1.071 7.84 6.64 9.13
12/12/2020 11:00:00 PM 11.56 52.808 1.073 7.85 6.93 9.11
12/12/2020 11:15:00 PM 11.56 52.808 1.075 7.83 6.56 9.09
12/12/2020 11:30:00 PM 11.56 52.808 1.075 7.85 6.81 9.08
12/12/2020 11:45:00 PM 11.55 52.79 1.075 7.84 6.92 9.07
12/13/2020 12:00:00 AM 11.52 52.736 1.073 7.84 6.96 9.06
12/13/2020 12:15:00 AM 11.49 52.682 1.071 7.84 6.62 9.07
12/13/2020 12:30:00 AM 11.45 52.61 1.068 7.84 6.56 9.07
12/13/2020 12:45:00 AM 11.4 52.52 1.065 7.83 6.85 9.07
12/13/2020 1:00:00 AM 11.36 52.448 1.062 7.82 7.14 9.08
12/13/2020 1:15:00 AM 11.32 52.376 1.061 7.82 7 9.08
12/13/2020 1:30:00 AM 11.3 52.34 1.06 7.83 7.11 9.08
12/13/2020 1:45:00 AM 11.28 52.304 1.059 7.83 7.28 9.08
12/13/2020 2:00:00 AM 11.27 52.286 1.058 7.83 6.94 9.08
12/13/2020 2:15:00 AM 11.27 52.286 1.056 7.82 7.27 9.08
12/13/2020 2:30:00 AM 11.27 52.286 1.054 7.82 6.97 9.09
12/13/2020 2:45:00 AM 11.26 52.268 1.052 7.82 7.31 9.09
12/13/2020 3:00:00 AM 11.23 52.214 1.05 7.82 7.03 9.09
12/13/2020 3:15:00 AM 11.19 52.142 1.047 7.83 7.37 9.09
12/13/2020 3:30:00 AM 11.15 52.07 1.045 7.82 7.68 9.09
12/13/2020 3:45:00 AM 11.1 51.98 1.04 7.82 7.53 9.1
12/13/2020 4:00:00 AM 11.04 51.872 1.036 7.83 7.06 9.12
12/13/2020 4:15:00 AM 10.99 51.782 1.033 7.83 6.91 9.13
12/13/2020 4:30:00 AM 10.93 51.674 1.029 7.83 7 9.15
12/13/2020 4:45:00 AM 10.88 51.584 1.027 7.82 7.08 9.16
12/13/2020 5:00:00 AM 10.83 51.494 1.024 7.83 7.31 9.17
12/13/2020 5:15:00 AM 10.79 51.422 1.02 7.82 7.76 9.19
12/13/2020 5:30:00 AM 10.73 51.314 1.017 7.83 7.64 9.21
12/13/2020 5:45:00 AM 10.68 51.224 1.013 7.83 7.61 9.23
12/13/2020 6:00:00 AM 10.63 51.134 1.01 7.84 7.75 9.24
12/13/2020 6:15:00 AM 10.57 51.026 1.007 7.83 7.63 9.26
12/13/2020 6:30:00 AM 10.52 50.936 1.004 7.83 7.54 9.28
12/13/2020 6:45:00 AM 10.47 50.846 1 7.84 7.8 9.3
12/13/2020 7:00:00 AM 10.43 50.774 0.996 7.84 7.47 9.32
12/13/2020 7:15:00 AM 10.4 50.72 0.992 7.84 7.83 9.34
12/13/2020 7:30:00 AM 10.38 50.684 0.987 7.84 7.4 9.37
12/13/2020 7:45:00 AM 10.36 50.648 0.981 7.85 7.12 9.43
12/13/2020 8:00:00 AM 10.35 50.63 0.976 7.85 7.17 9.49
12/13/2020 8:15:00 AM 10.34 50.612 0.97 7.86 7.43 9.57
12/13/2020 8:30:00 AM 10.31 50.558 0.965 7.87 7.9 9.65
12/13/2020 8:45:00 AM 10.29 50.522 0.962 7.87 7.58 9.75
12/13/2020 9:00:00 AM 10.29 50.522 0.96 7.88 7.46 9.9
12/13/2020 9:15:00 AM 10.31 50.558 0.96 7.89 7.13 10.07
12/13/2020 9:30:00 AM 10.34 50.612 0.959 7.9 6.81 10.23
12/13/2020 9:45:00 AM 10.38 50.684 0.958 7.92 7.06 10.39
12/13/2020 10:00:00 AM 10.47 50.846 0.958 7.93 6.58 10.6
12/13/2020 10:15:00 AM 10.56 51.008 0.958 7.95 6.26 10.75
12/13/2020 10:30:00 AM 10.63 51.134 0.957 7.95 6.7 10.8
12/13/2020 10:45:00 AM 10.74 51.332 0.956 7.97 6.56 10.9
12/13/2020 11:00:00 AM 10.88 51.584 0.956 7.97 7.09 11.06
12/13/2020 11:15:00 AM 11.03 51.854 0.956 7.99 6.92 11.21
12/13/2020 11:30:00 AM 11.11 51.998 0.955 7.99 6.96 11.23
12/13/2020 11:45:00 AM 11.18 52.124 0.955 7.99 8.14 11.22
12/13/2020 12:00:00 PM 11.25 52.25 0.952 8 7.6 11.21
12/13/2020 12:15:00 PM 11.35 52.43 0.95 8.01 6.92 11.29
12/13/2020 12:30:00 PM 11.41 52.538 0.947 8.02 6.78 11.34
12/13/2020 12:45:00 PM 11.43 52.574 0.943 8.02 6.72 11.38
12/13/2020 1:00:00 PM 11.47 52.646 0.94 8.03 6.94 11.45
12/13/2020 1:15:00 PM 11.52 52.736 0.94 8.04 6.96 11.55
12/13/2020 1:30:00 PM 11.54 52.772 0.944 8.05 6.97 11.58
12/13/2020 1:45:00 PM 11.58 52.844 0.951 8.05 6.79 11.6
12/13/2020 2:00:00 PM 11.63 52.934 0.965 8.05 6.39 11.58
12/13/2020 2:15:00 PM 11.71 53.078 0.981 8.05 7.14 11.58
12/13/2020 2:30:00 PM 11.79 53.222 0.998 8.05 9.12 11.54
12/13/2020 2:45:00 PM 11.85 53.33 1.017 8.04 9.11 11.45
12/13/2020 3:00:00 PM 11.91 53.438 1.034 8.04 7.83 11.42
12/13/2020 3:15:00 PM 11.96 53.528 1.05 8.04 7.33 11.4
12/13/2020 3:30:00 PM 11.99 53.582 1.067 8.05 7.18 11.28
12/13/2020 3:45:00 PM 12.03 53.654 1.079 8.03 6.79 11.16
12/13/2020 4:00:00 PM 12.06 53.708 1.09 8.03 7.02 11.03
12/13/2020 4:15:00 PM 12.07 53.726 1.097 8.01 6.85 10.93
12/13/2020 4:30:00 PM 12.05 53.69 1.103 8.01 7.07 10.81
12/13/2020 4:45:00 PM 12.04 53.672 1.107 8.01 6.68 10.66
12/13/2020 5:00:00 PM 12.02 53.636 1.111 8 6.82 10.54
12/13/2020 5:15:00 PM 11.99 53.582 1.112 7.98 7.19 10.45
12/13/2020 5:30:00 PM 11.95 53.51 1.114 7.97 7.16 10.35
12/13/2020 5:45:00 PM 11.9 53.42 1.115 7.97 7.48 10.27
12/13/2020 6:00:00 PM 11.85 53.33 1.116 7.96 7.42 10.19
12/13/2020 6:15:00 PM 11.79 53.222 1.116 7.95 7.51 10.12
12/13/2020 6:30:00 PM 11.72 53.096 1.117 7.95 7.68 10.05
12/13/2020 6:45:00 PM 11.65 52.97 1.117 7.95 7.43 9.99
12/13/2020 7:00:00 PM 11.58 52.844 1.117 7.94 7.5 9.92
12/13/2020 7:15:00 PM 11.51 52.718 1.118 7.93 7.53 9.86
12/13/2020 7:30:00 PM 11.45 52.61 1.119 7.93 7.52 9.8
12/13/2020 7:45:00 PM 11.38 52.484 1.121 7.91 7.28 9.74
12/13/2020 8:00:00 PM 11.31 52.358 1.122 7.91 7.35 9.68
12/13/2020 8:15:00 PM 11.23 52.214 1.123 7.91 7.36 9.63
12/13/2020 8:30:00 PM 11.17 52.106 1.123 7.9 7.32 9.57
12/13/2020 8:45:00 PM 11.11 51.998 1.123 7.89 7.36 9.52
12/13/2020 9:00:00 PM 11.06 51.908 1.122 7.89 7.2 9.48
12/13/2020 9:15:00 PM 11 51.8 1.12 7.88 7.26 9.44
12/13/2020 9:30:00 PM 10.96 51.728 1.117 7.88 7.52 9.41
12/13/2020 9:45:00 PM 10.92 51.656 1.115 7.87 7.31 9.38
12/13/2020 10:00:00 PM 10.88 51.584 1.113 7.87 7.39 9.36
12/13/2020 10:15:00 PM 10.83 51.494 1.112 7.86 7.17 9.35
12/13/2020 10:30:00 PM 10.79 51.422 1.11 7.86 7.23 9.33
12/13/2020 10:45:00 PM 10.76 51.368 1.11 7.86 7.01 9.33
12/13/2020 11:00:00 PM 10.7 51.26 1.11 7.86 7.06 9.32
12/13/2020 11:15:00 PM 10.64 51.152 1.111 7.85 6.97 9.32
12/13/2020 11:30:00 PM 10.59 51.062 1.111 7.85 7.25 9.31
12/13/2020 11:45:00 PM 10.52 50.936 1.111 7.85 7.13 9.31
12/14/2020 12:00:00 AM 10.45 50.81 1.111 7.84 6.99 9.32
12/14/2020 12:15:00 AM 10.38 50.684 1.111 7.85 6.96 9.33
12/14/2020 12:30:00 AM 10.32 50.576 1.112 7.85 6.59 9.34
12/14/2020 12:45:00 AM 10.26 50.468 1.114 7.84 6.83 9.35
12/14/2020 1:00:00 AM 10.21 50.378 1.115 7.84 6.72 9.35
12/14/2020 1:15:00 AM 10.17 50.306 1.116 7.83 6.8 9.36
12/14/2020 1:30:00 AM 10.13 50.234 1.117 7.84 7.12 9.36
12/14/2020 1:45:00 AM 10.1 50.18 1.117 7.84 7.22 9.36
12/14/2020 2:00:00 AM 10.08 50.144 1.117 7.84 7.3 9.37
12/14/2020 2:15:00 AM 10.06 50.108 1.117 7.84 7.73 9.37
12/14/2020 2:30:00 AM 10.04 50.072 1.116 7.83 7.25 9.37
12/14/2020 2:45:00 AM 10.03 50.054 1.115 7.83 6.99 9.37
12/14/2020 3:00:00 AM 10.01 50.018 1.113 7.83 6.88 9.37
12/14/2020 3:15:00 AM 9.99 49.982 1.112 7.83 6.93 9.38
12/14/2020 3:30:00 AM 9.98 49.964 1.11 7.83 7.85 9.38
12/14/2020 3:45:00 AM 9.95 49.91 1.106 7.83 7.75 9.39
12/14/2020 4:00:00 AM 9.93 49.874 1.101 7.84 7.18 9.4
12/14/2020 4:15:00 AM 9.91 49.838 1.095 7.83 7.51 9.41
12/14/2020 4:30:00 AM 9.89 49.802 1.087 7.83 7.54 9.42
12/14/2020 4:45:00 AM 9.86 49.748 1.08 7.84 7.34 9.44
12/14/2020 5:00:00 AM 9.84 49.712 1.073 7.83 7.73 9.45
12/14/2020 5:15:00 AM 9.81 49.658 1.065 7.84 7.85 9.46
12/14/2020 5:30:00 AM 9.79 49.622 1.058 7.83 7.87 9.48
12/14/2020 5:45:00 AM 9.77 49.586 1.05 7.84 7.47 9.5
12/14/2020 6:00:00 AM 9.75 49.55 1.042 7.85 7.35 9.52
12/14/2020 6:15:00 AM 9.73 49.514 1.033 7.84 7.05 9.54
12/14/2020 6:30:00 AM 9.7 49.46 1.021 7.84 7.21 9.58
12/14/2020 6:45:00 AM 9.68 49.424 1.01 7.85 7.44 9.61
12/14/2020 7:00:00 AM 9.66 49.388 1 7.84 7.95 9.63
12/14/2020 7:15:00 AM 9.64 49.352 0.989 7.85 7.51 9.65
12/14/2020 7:30:00 AM 9.61 49.298 0.979 7.86 7.32 9.68
12/14/2020 7:45:00 AM 9.59 49.262 0.969 7.85 7.29 9.71
12/14/2020 8:00:00 AM 9.57 49.226 0.958 7.87 7.38 9.74
12/14/2020 8:15:00 AM 9.55 49.19 0.949 7.87 7.3 9.78
12/14/2020 8:30:00 AM 9.53 49.154 0.941 7.87 7.38 9.81
12/14/2020 8:45:00 AM 9.52 49.136 0.935 7.87 7.59 9.84
12/14/2020 9:00:00 AM 9.5 49.1 0.929 7.88 7.51 9.87
12/14/2020 9:15:00 AM 9.46 49.028 0.926 7.87 7.86 9.91
12/14/2020 9:30:00 AM 9.41 48.938 0.925 7.88 8 9.94
12/14/2020 9:45:00 AM 9.35 48.83 0.922 7.87 8.8 9.99
12/14/2020 10:00:00 AM 9.29 48.722 0.915 7.88 10.23 10.05
12/14/2020 10:15:00 AM 9.24 48.632 0.912 7.88 9.7 10.09
12/14/2020 10:30:00 AM 9.22 48.596 0.908 7.87 10.21 10.11
12/14/2020 10:45:00 AM 9.19 48.542 0.902 7.88 10.48 10.13
12/14/2020 11:00:00 AM 9.12 48.416 0.889 7.86 10.81 10.15
12/14/2020 11:15:00 AM 9.01 48.218 0.876 7.86 11.65 10.19
12/14/2020 11:30:00 AM 8.95 48.11 0.87 7.84 12.65 10.21
12/14/2020 11:45:00 AM 8.94 48.092 0.872 7.85 14.26 10.24
12/14/2020 12:00:00 PM 8.97 48.146 0.882 7.85 14.29 10.25
12/14/2020 12:15:00 PM 9.02 48.236 0.902 7.85 17.12 10.23
12/14/2020 12:30:00 PM 9.09 48.362 0.923 7.83 17.88 10.18
12/14/2020 12:45:00 PM 9.16 48.488 0.94 7.83 17.43 10.17
12/14/2020 1:00:00 PM 9.19 48.542 0.946 7.84 16.82 10.15
12/14/2020 1:15:00 PM 9.22 48.596 0.942 7.82 14.96 10.18
12/14/2020 1:30:00 PM 9.23 48.614 0.932 7.84 16.73 10.27
12/14/2020 1:45:00 PM 9.23 48.614 0.915 7.83 13.32 10.37
12/14/2020 2:00:00 PM 9.21 48.578 0.896 7.83 14.63 10.42
12/14/2020 2:15:00 PM 9.18 48.524 0.878 7.81 13.75 10.41
12/14/2020 2:30:00 PM 9.13 48.434 0.857 7.79 13.82 10.41
12/14/2020 2:45:00 PM 9.08 48.344 0.834 7.8 13.47 10.43
12/14/2020 3:00:00 PM 9.03 48.254 0.814 7.79 13.38 10.47
12/14/2020 3:15:00 PM 9 48.2 0.797 7.8 13.55 10.54
12/14/2020 3:30:00 PM 8.97 48.146 0.784 7.78 13.41 10.56
12/14/2020 3:45:00 PM 8.93 48.074 0.775 7.77 13.67 10.53
12/14/2020 4:00:00 PM 8.9 48.02 0.77 7.75 13.73 10.54
12/14/2020 4:15:00 PM 8.86 47.948 0.769 7.73 12.81 10.52
12/14/2020 4:30:00 PM 8.81 47.858 0.771 7.73 12.53 10.52
12/14/2020 4:45:00 PM 8.79 47.822 0.773 7.74 12.26 10.52
12/14/2020 5:00:00 PM 8.77 47.786 0.776 7.74 14.14 10.51
12/14/2020 5:15:00 PM 8.74 47.732 0.777 7.74 13.6 10.51
12/14/2020 5:30:00 PM 8.71 47.678 0.779 7.72 13.43 10.51
12/14/2020 5:45:00 PM 8.66 47.588 0.782 7.71 12.73 10.51
12/14/2020 6:00:00 PM 8.62 47.516 0.785 7.71 13.65 10.49
12/14/2020 6:15:00 PM 8.59 47.462 0.789 7.73 17.72 10.48
12/14/2020 6:30:00 PM 8.57 47.426 0.792 7.72 12.64 10.47
12/14/2020 6:45:00 PM 8.56 47.408 0.798 7.72 12.5 10.45
12/14/2020 7:00:00 PM 8.55 47.39 0.802 7.72 12.81 10.42
12/14/2020 7:15:00 PM 8.53 47.354 0.806 7.73 12.23 10.39
12/14/2020 7:30:00 PM 8.51 47.318 0.811 7.73 11.82 10.35
12/14/2020 7:45:00 PM 8.48 47.264 0.817 7.74 11.62 10.32
12/14/2020 8:00:00 PM 8.45 47.21 0.822 7.73 11.61 10.28
12/14/2020 8:15:00 PM 8.43 47.174 0.83 7.73 11.19 10.24
12/14/2020 8:30:00 PM 8.41 47.138 0.835 7.73 11.13 10.21
12/14/2020 8:45:00 PM 8.39 47.102 0.839 7.73 10.64 10.17
12/14/2020 9:00:00 PM 8.35 47.03 0.843 7.72 11.32 10.15
12/14/2020 9:15:00 PM 8.33 46.994 0.848 7.73 10.55 10.13
12/14/2020 9:30:00 PM 8.32 46.976 0.856 7.73 10.48 10.11
12/14/2020 9:45:00 PM 8.32 46.976 0.866 7.72 10.63 10.1
12/14/2020 10:00:00 PM 8.31 46.958 0.876 7.74 10.13 10.08
12/14/2020 10:15:00 PM 8.32 46.976 0.886 7.73 9.5 10.07
12/14/2020 10:30:00 PM 8.32 46.976 0.897 7.72 10.34 10.06
12/14/2020 10:45:00 PM 8.32 46.976 0.907 7.73 9.94 10.05
12/14/2020 11:00:00 PM 8.32 46.976 0.917 7.74 9.79 10.04
12/14/2020 11:15:00 PM 8.32 46.976 0.928 7.75 9.15 10.03
12/14/2020 11:30:00 PM 8.32 46.976 0.938 7.74 9.68 10.02
12/14/2020 11:45:00 PM 8.32 46.976 0.95 7.76 9.04 10.01
12/15/2020 12:00:00 AM 8.32 46.976 0.959 7.75 9.28 10.01
12/15/2020 12:15:00 AM 8.3 46.94 0.967 7.75 9.06 10
12/15/2020 12:30:00 AM 8.3 46.94 0.973 7.77 9.17 10.01
12/15/2020 12:45:00 AM 8.28 46.904 0.978 7.77 8.86 10.01
12/15/2020 1:00:00 AM 8.26 46.868 0.982 7.77 8.79 10.03
12/15/2020 1:15:00 AM 8.25 46.85 0.984 7.77 8.85 10.03
12/15/2020 1:30:00 AM 8.23 46.814 0.985 7.78 8.69 10.04
12/15/2020 1:45:00 AM 8.2 46.76 0.987 7.78 10.25 10.06
12/15/2020 2:00:00 AM 8.18 46.724 0.988 7.78 9.33 10.07
12/15/2020 2:15:00 AM 8.15 46.67 0.989 7.8 8.81 10.08
12/15/2020 2:30:00 AM 8.12 46.616 0.99 7.79 9.14 10.09
12/15/2020 2:45:00 AM 8.09 46.562 0.991 7.78 8.7 10.1
12/15/2020 3:00:00 AM 8.06 46.508 0.992 7.79 8.59 10.11
12/15/2020 3:15:00 AM 8.03 46.454 0.991 7.81 8.57 10.12
12/15/2020 3:30:00 AM 7.99 46.382 0.989 7.79 8.06 10.13
12/15/2020 3:45:00 AM 7.96 46.328 0.987 7.81 8.07 10.14
12/15/2020 4:00:00 AM 7.92 46.256 0.984 7.82 7.98 10.16
12/15/2020 4:15:00 AM 7.89 46.202 0.981 7.82 7.67 10.17
12/15/2020 4:30:00 AM 7.85 46.13 0.979 7.82 9.51 10.18
12/15/2020 4:45:00 AM 7.81 46.058 0.977 7.81 8.74 10.2
12/15/2020 5:00:00 AM 7.78 46.004 0.975 7.82 8.15 10.21
12/15/2020 5:15:00 AM 7.74 45.932 0.973 7.83 7.81 10.23
12/15/2020 5:30:00 AM 7.7 45.86 0.968 7.82 8.21 10.25
12/15/2020 5:45:00 AM 7.66 45.788 0.963 7.82 7.58 10.28
12/15/2020 6:00:00 AM 7.62 45.716 0.957 7.82 7.25 10.3
12/15/2020 6:15:00 AM 7.57 45.626 0.951 7.84 7.32 10.32
12/15/2020 6:30:00 AM 7.53 45.554 0.945 7.83 7.45 10.34
12/15/2020 6:45:00 AM 7.48 45.464 0.939 7.83 7.11 10.36
12/15/2020 7:00:00 AM 7.44 45.392 0.933 7.83 7.31 10.38
12/15/2020 7:15:00 AM 7.4 45.32 0.929 7.84 7.07 10.4
12/15/2020 7:30:00 AM 7.36 45.248 0.924 7.83 7.54 10.44
12/15/2020 7:45:00 AM 7.35 45.23 0.92 7.84 7.15 10.5
12/15/2020 8:00:00 AM 7.34 45.212 0.917 7.86 7.79 10.57
12/15/2020 8:15:00 AM 7.36 45.248 0.916 7.86 7.88 10.65
12/15/2020 8:30:00 AM 7.38 45.284 0.916 7.86 8.5 10.74
12/15/2020 8:45:00 AM 7.41 45.338 0.916 7.88 8.58 10.84
12/15/2020 9:00:00 AM 7.43 45.374 0.917 7.88 8.87 10.89
12/15/2020 9:15:00 AM 7.47 45.446 0.918 7.88 8.24 11
12/15/2020 9:30:00 AM 7.54 45.572 0.918 7.9 7.36 11.19
12/15/2020 9:45:00 AM 7.64 45.752 0.917 7.92 8.04 11.37
12/15/2020 10:00:00 AM 7.73 45.914 0.915 7.93 8.7 11.45
12/15/2020 10:15:00 AM 7.81 46.058 0.912 7.94 9.11 11.49
12/15/2020 10:30:00 AM 7.91 46.238 0.909 7.95 8.4 11.57
12/15/2020 10:45:00 AM 7.98 46.364 0.907 7.96 8.79 11.65
12/15/2020 11:00:00 AM 8.07 46.526 0.904 7.97 8.07 11.78
12/15/2020 11:15:00 AM 8.19 46.742 0.901 7.98 7.2 11.91
12/15/2020 11:30:00 AM 8.31 46.958 0.899 7.99 7.24 11.98
12/15/2020 11:45:00 AM 8.43 47.174 0.901 8 7.84 12
12/15/2020 12:00:00 PM 8.54 47.372 0.906 8 8.13 12.04
12/15/2020 12:15:00 PM 8.64 47.552 0.915 8.01 8.49 12.09
12/15/2020 12:30:00 PM 8.76 47.768 0.927 8.01 7.87 12.13
12/15/2020 12:45:00 PM 8.86 47.948 0.939 8.02 8.16 12.15
12/15/2020 1:00:00 PM 8.96 48.128 0.955 8.02 8.48 12.15
12/15/2020 1:15:00 PM 9.06 48.308 0.97 8.03 8.32 12.16
12/15/2020 1:30:00 PM 9.15 48.47 0.983 8.02 7.34 12.2
12/15/2020 1:45:00 PM 9.23 48.614 0.993 8.03 6.82 12.24
12/15/2020 2:00:00 PM 9.28 48.704 0.998 8.04 7.13 12.23
12/15/2020 2:15:00 PM 9.31 48.758 1.002 8.04 7.87 12.19
12/15/2020 2:30:00 PM 9.32 48.776 1.003 8.03 7.82 12.15
12/15/2020 2:45:00 PM 9.36 48.848 1.004 8.03 7.6 12.14
12/15/2020 3:00:00 PM 9.37 48.866 1.003 8.03 8.18 12.08
12/15/2020 3:15:00 PM 9.39 48.902 1.002 8.03 7.92 12.02
12/15/2020 3:30:00 PM 9.38 48.884 1.001 8.04 7.76 11.94
12/15/2020 3:45:00 PM 9.39 48.902 1 8.02 8.04 11.85
12/15/2020 4:00:00 PM 9.39 48.902 1.001 8.02 7.85 11.74
12/15/2020 4:15:00 PM 9.39 48.902 1.002 8.02 7.8 11.63
12/15/2020 4:30:00 PM 9.4 48.92 1.003 8.01 7.82 11.5
12/15/2020 4:45:00 PM 9.4 48.92 1.003 7.99 7.69 11.39
12/15/2020 5:00:00 PM 9.4 48.92 1.003 7.99 7.7 11.29
12/15/2020 5:15:00 PM 9.39 48.902 1.001 7.98 8.48 11.2
12/15/2020 5:30:00 PM 9.39 48.902 0.999 7.98 8.13 11.13
12/15/2020 5:45:00 PM 9.37 48.866 0.996 7.97 7.53 11.06
12/15/2020 6:00:00 PM 9.36 48.848 0.993 7.96 7.63 10.98
12/15/2020 6:15:00 PM 9.33 48.794 0.99 7.96 7.79 10.92
12/15/2020 6:30:00 PM 9.3 48.74 0.988 7.95 8.17 10.85
12/15/2020 6:45:00 PM 9.27 48.686 0.985 7.95 7.89 10.78
12/15/2020 7:00:00 PM 9.24 48.632 0.984 7.94 7.56 10.71
12/15/2020 7:15:00 PM 9.2 48.56 0.983 7.93 7.13 10.64
12/15/2020 7:30:00 PM 9.17 48.506 0.984 7.92 7.65 10.57
12/15/2020 7:45:00 PM 9.13 48.434 0.987 7.92 7.77 10.49
12/15/2020 8:00:00 PM 9.09 48.362 0.99 7.9 7.65 10.42
12/15/2020 8:15:00 PM 9.06 48.308 0.995 7.9 7.36 10.35
12/15/2020 8:30:00 PM 9.02 48.236 1 7.89 6.83 10.28
12/15/2020 8:45:00 PM 8.98 48.164 1.004 7.88 6.95 10.22
12/15/2020 9:00:00 PM 8.94 48.092 1.007 7.88 6.6 10.17
12/15/2020 9:15:00 PM 8.91 48.038 1.01 7.87 6.89 10.13
12/15/2020 9:30:00 PM 8.87 47.966 1.01 7.86 7.27 10.1
12/15/2020 9:45:00 PM 8.83 47.894 1.01 7.86 7.1 10.08
12/15/2020 10:00:00 PM 8.79 47.822 1.01 7.86 6.67 10.06
12/15/2020 10:15:00 PM 8.76 47.768 1.01 7.86 6.94 10.04
12/15/2020 10:30:00 PM 8.71 47.678 1.009 7.85 6.7 10.03
12/15/2020 10:45:00 PM 8.68 47.624 1.01 7.85 6.74 10.02
12/15/2020 11:00:00 PM 8.64 47.552 1.008 7.85 7.14 10.02
12/15/2020 11:15:00 PM 8.6 47.48 1.007 7.84 6.88 10.02
12/15/2020 11:30:00 PM 8.56 47.408 1.004 7.84 6.97 10.02
12/15/2020 11:45:00 PM 8.52 47.336 0.999 7.84 6.91 10.02
12/16/2020 12:00:00 AM 8.48 47.264 0.995 7.84 6.84 10.04
12/16/2020 12:15:00 AM 8.43 47.174 0.991 7.84 6.99 10.05
12/16/2020 12:30:00 AM 8.39 47.102 0.989 7.83 7.42 10.06
12/16/2020 12:45:00 AM 8.35 47.03 0.989 7.83 6.82 10.07
12/16/2020 1:00:00 AM 8.31 46.958 0.99 7.82 7.11 10.09
12/16/2020 1:15:00 AM 8.26 46.868 0.991 7.84 6.67 10.1
12/16/2020 1:30:00 AM 8.23 46.814 0.993 7.84 6.51 10.1
12/16/2020 1:45:00 AM 8.19 46.742 0.995 7.84 6.4 10.11
12/16/2020 2:00:00 AM 8.14 46.652 0.997 7.83 6.45 10.11
12/16/2020 2:15:00 AM 8.11 46.598 0.998 7.83 7.28 10.12
12/16/2020 2:30:00 AM 8.07 46.526 0.999 7.82 6.75 10.13
12/16/2020 2:45:00 AM 8.02 46.436 0.999 7.84 6.67 10.14
12/16/2020 3:00:00 AM 7.97 46.346 0.999 7.83 6.71 10.15
12/16/2020 3:15:00 AM 7.92 46.256 0.997 7.83 6.92 10.16
12/16/2020 3:30:00 AM 7.86 46.148 0.997 7.84 7.53 10.19
12/16/2020 3:45:00 AM 7.82 46.076 0.996 7.85 7.24 10.2
12/16/2020 4:00:00 AM 7.77 45.986 0.994 7.85 7.9 10.22
12/16/2020 4:15:00 AM 7.73 45.914 0.993 7.85 7.96 10.25
12/16/2020 4:30:00 AM 7.69 45.842 0.991 7.85 8.48 10.27
12/16/2020 4:45:00 AM 7.66 45.788 0.989 7.85 8.2 10.28
12/16/2020 5:00:00 AM 7.62 45.716 0.985 7.85 7.49 10.3
12/16/2020 5:15:00 AM 7.58 45.644 0.981 7.85 8.03 10.32
12/16/2020 5:30:00 AM 7.55 45.59 0.978 7.87 7.92 10.33
12/16/2020 5:45:00 AM 7.51 45.518 0.974 7.85 7.41 10.35
12/16/2020 6:00:00 AM 7.48 45.464 0.97 7.86 6.96 10.37
12/16/2020 6:15:00 AM 7.46 45.428 0.966 7.86 7.06 10.39
12/16/2020 6:30:00 AM 7.44 45.392 0.962 7.87 7.08 10.4
12/16/2020 6:45:00 AM 7.41 45.338 0.957 7.86 6.85 10.42
12/16/2020 7:00:00 AM 7.39 45.302 0.951 7.87 6.86 10.45
12/16/2020 7:15:00 AM 7.36 45.248 0.945 7.87 7.11 10.46
12/16/2020 7:30:00 AM 7.32 45.176 0.939 7.88 6.96 10.49
12/16/2020 7:45:00 AM 7.29 45.122 0.934 7.87 6.82 10.53
12/16/2020 8:00:00 AM 7.27 45.086 0.93 7.88 6.84 10.58
12/16/2020 8:15:00 AM 7.25 45.05 0.928 7.88 7.07 10.62
12/16/2020 8:30:00 AM 7.24 45.032 0.925 7.89 7.67 10.69
12/16/2020 8:45:00 AM 7.24 45.032 0.924 7.89 7.67 10.76
12/16/2020 9:00:00 AM 7.24 45.032 0.923 7.89 6.77 10.82
12/16/2020 9:15:00 AM 7.25 45.05 0.924 7.9 7.11 10.86
12/16/2020 9:30:00 AM 7.27 45.086 0.924 7.9 6.77 10.9
12/16/2020 9:45:00 AM 7.28 45.104 0.924 7.92 7.99 10.93
12/16/2020 10:00:00 AM 7.3 45.14 0.922 7.92 7.21 10.96
12/16/2020 10:15:00 AM 7.32 45.176 0.921 7.92 8.9 11
12/16/2020 10:30:00 AM 7.33 45.194 0.92 7.93 7.3 11.08
12/16/2020 10:45:00 AM 7.36 45.248 0.917 7.93 7.42 11.15
12/16/2020 11:00:00 AM 7.39 45.302 0.915 7.94 8.31 11.19
12/16/2020 11:15:00 AM 7.43 45.374 0.912 7.95 8.63 11.25
12/16/2020 11:30:00 AM 7.46 45.428 0.911 7.94 8.18 11.26
12/16/2020 11:45:00 AM 7.49 45.482 0.913 7.95 7.93 11.27
12/16/2020 12:00:00 PM 7.52 45.536 0.918 7.95 7.62 11.3
12/16/2020 12:15:00 PM 7.51 45.518 0.926 7.96 7.98 11.32
12/16/2020 12:30:00 PM 7.5 45.5 0.937 7.96 7.04 11.33
12/16/2020 12:45:00 PM 7.5 45.5 0.951 7.96 6.91 11.38
12/16/2020 1:00:00 PM 7.51 45.518 0.967 7.97 7.51 11.46
12/16/2020 1:15:00 PM 7.56 45.608 0.984 7.97 8.54 11.54
12/16/2020 1:30:00 PM 7.61 45.698 1.002 7.97 8.28 11.55
12/16/2020 1:45:00 PM 7.67 45.806 1.021 7.97 8.11 11.52
12/16/2020 2:00:00 PM 7.69 45.842 1.038 7.97 8.02 11.46
12/16/2020 2:15:00 PM 7.66 45.788 1.055 7.97 7.06 11.4
12/16/2020 2:30:00 PM 7.6 45.68 1.067 7.97 6.64 11.35
12/16/2020 2:45:00 PM 7.52 45.536 1.075 7.97 8.86 11.3
12/16/2020 3:00:00 PM 7.46 45.428 1.081 7.96 8.15 11.27
12/16/2020 3:15:00 PM 7.38 45.284 1.084 7.96 8.29 11.23
12/16/2020 3:30:00 PM 7.25 45.05 1.085 7.96 8.51 11.21
12/16/2020 3:45:00 PM 7.1 44.78 1.086 7.97 7.58 11.2
12/16/2020 4:00:00 PM 7 44.6 1.086 7.96 7.59 11.18
12/16/2020 4:15:00 PM 6.84 44.312 1.084 7.96 7.58 11.14
12/16/2020 4:30:00 PM 6.64 43.952 1.081 7.96 8.13 11.12
12/16/2020 4:45:00 PM 6.38 43.484 1.078 7.95 8.07 11.12
12/16/2020 5:00:00 PM 6.16 43.088 1.073 7.96 8.54 11.11
12/16/2020 5:15:00 PM 5.91 42.638 1.065 7.95 7.95 11.14
12/16/2020 5:30:00 PM 5.58 42.044 1.055 7.96 7.29 11.17
12/16/2020 5:45:00 PM 5.53 41.954 1.047 7.96 7.41 11.18
12/16/2020 6:00:00 PM 5.42 41.756 1.04 7.96 7.29 11.2
12/16/2020 6:15:00 PM 5.37 41.666 1.034 7.96 7.42 11.21
12/16/2020 6:30:00 PM 5.39 41.702 1.03 7.97 7.13 11.2
12/16/2020 6:45:00 PM 5.25 41.45 1.026 7.96 7.73 11.19
12/16/2020 7:00:00 PM 5.21 41.378 1.025 7.95 7.44 11.17
12/16/2020 7:15:00 PM 5.24 41.432 1.024 7.96 7.13 11.15
12/16/2020 7:30:00 PM 5.17 41.306 1.022 7.96 8.87 11.14
12/16/2020 7:45:00 PM 5.04 41.072 1.02 7.94 7.63 11.14
12/16/2020 8:00:00 PM 4.93 40.874 1.02 7.95 7.1 11.14
12/16/2020 8:15:00 PM 4.86 40.748 1.02 7.94 7.43 11.14
12/16/2020 8:30:00 PM 4.78 40.604 1.02 7.93 6.86 11.13
12/16/2020 8:45:00 PM 4.61 40.298 1.017 7.94 7.12 11.12
12/16/2020 9:00:00 PM 4.64 40.352 1.018 7.93 6.74 11.12
12/16/2020 9:15:00 PM 4.67 40.406 1.018 7.92 6.76 11.12
12/16/2020 9:30:00 PM 4.63 40.334 1.017 7.93 7.05 11.13
12/16/2020 9:45:00 PM 4.68 40.424 1.017 7.92 6.76 11.12
12/16/2020 10:00:00 PM 4.7 40.46 1.016 7.92 6.44 11.13
12/16/2020 10:15:00 PM 4.72 40.496 1.016 7.92 7.11 11.13
12/16/2020 10:30:00 PM 4.79 40.622 1.018 7.93 6.5 11.12
12/16/2020 10:45:00 PM 4.82 40.676 1.02 7.91 6.42 11.1
12/16/2020 11:00:00 PM 4.64 40.352 1.02 7.92 6.31 11.08
12/16/2020 11:15:00 PM 4.42 39.956 1.019 7.91 7 11.09
12/16/2020 11:30:00 PM 4.26 39.668 1.018 7.9 6.51 11.13
12/16/2020 11:45:00 PM 4.16 39.488 1.018 7.91 6.74 11.16
12/17/2020 12:00:00 AM 4.08 39.344 1.02 7.91 6.43 11.17
12/17/2020 12:15:00 AM 4 39.2 1.022 7.9 6.24 11.18
12/17/2020 12:30:00 AM 3.88 38.984 1.025 7.9 6.66 11.19
12/17/2020 12:45:00 AM 3.88 38.984 1.028 7.91 6.45 11.2
12/17/2020 1:00:00 AM 3.85 38.93 1.03 7.91 6.41 11.22
12/17/2020 1:15:00 AM 3.78 38.804 1.032 7.91 7.75 11.24
12/17/2020 1:30:00 AM 3.74 38.732 1.033 7.9 6.66 11.25
12/17/2020 1:45:00 AM 3.71 38.678 1.034 7.9 6.71 11.28
12/17/2020 2:00:00 AM 3.7 38.66 1.033 7.92 6.3 11.29
12/17/2020 2:15:00 AM 3.71 38.678 1.033 7.9 6.38 11.3
12/17/2020 2:30:00 AM 3.73 38.714 1.031 7.91 6.3 11.32
12/17/2020 2:45:00 AM 3.74 38.732 1.029 7.91 6.33 11.33
12/17/2020 3:00:00 AM 3.73 38.714 1.025 7.93 6.1 11.35
12/17/2020 3:15:00 AM 3.75 38.75 1.02 7.93 6.02 11.37
12/17/2020 3:30:00 AM 3.78 38.804 1.015 7.92 6.1 11.38
12/17/2020 3:45:00 AM 3.83 38.894 1.01 7.92 6.11 11.38
12/17/2020 4:00:00 AM 3.87 38.966 1.005 7.93 6 11.39
12/17/2020 4:15:00 AM 3.91 39.038 1.002 7.92 6 11.39
12/17/2020 4:30:00 AM 3.96 39.128 0.998 7.93 5.89 11.38
12/17/2020 4:45:00 AM 4.01 39.218 0.994 7.93 6.24 11.39
12/17/2020 5:00:00 AM 4.06 39.308 0.988 7.93 5.78 11.39
12/17/2020 5:15:00 AM 4.1 39.38 0.981 7.93 6.14 11.4
12/17/2020 5:30:00 AM 4.14 39.452 0.972 7.92 5.72 11.41
12/17/2020 5:45:00 AM 4.18 39.524 0.964 7.93 5.61 11.42
12/17/2020 6:00:00 AM 4.22 39.596 0.957 7.93 5.87 11.43
12/17/2020 6:15:00 AM 4.26 39.668 0.949 7.93 5.82 11.43
12/17/2020 6:30:00 AM 4.31 39.758 0.943 7.93 5.76 11.43
12/17/2020 6:45:00 AM 4.36 39.848 0.937 7.92 5.71 11.43
12/17/2020 7:00:00 AM 4.38 39.884 0.93 7.93 5.74 11.43
12/17/2020 7:15:00 AM 4.4 39.92 0.923 7.93 6.04 11.43
12/17/2020 7:30:00 AM 4.41 39.938 0.917 7.94 5.91 11.45
12/17/2020 7:45:00 AM 4.41 39.938 0.912 7.93 6.1 11.5
12/17/2020 8:00:00 AM 4.43 39.974 0.907 7.94 6.61 11.56
12/17/2020 8:15:00 AM 4.47 40.046 0.904 7.94 6.89 11.61
12/17/2020 8:30:00 AM 4.52 40.136 0.902 7.94 7.03 11.67
12/17/2020 8:45:00 AM 4.6 40.28 0.903 7.95 7.23 11.71
12/17/2020 9:00:00 AM 4.68 40.424 0.904 7.96 7.9 11.78
12/17/2020 9:15:00 AM 4.75 40.55 0.902 7.95 7.73 11.84
12/17/2020 9:30:00 AM 4.83 40.694 0.903 7.97 7.84 11.92
12/17/2020 9:45:00 AM 4.95 40.91 0.905 7.98 8.44 12
12/17/2020 10:00:00 AM 5.08 41.144 0.906 7.97 8.74 12.09
12/17/2020 10:15:00 AM 5.22 41.396 0.905 7.98 7.93 12.14
12/17/2020 10:30:00 AM 5.37 41.666 0.903 7.99 7.48 12.18
12/17/2020 10:45:00 AM 5.54 41.972 0.901 8 8.54 12.21
12/17/2020 11:00:00 AM 5.7 42.26 0.898 8.01 9.01 12.26
12/17/2020 11:15:00 AM 5.86 42.548 0.895 8.01 8.86 12.33
12/17/2020 11:30:00 AM 6.03 42.854 0.893 8.02 7.68 12.36
12/17/2020 11:45:00 AM 6.19 43.142 0.891 8.02 8.22 12.38
12/17/2020 12:00:00 PM 6.35 43.43 0.891 8.04 8.35 12.43
12/17/2020 12:15:00 PM 6.5 43.7 0.892 8.05 8.3 12.48
12/17/2020 12:30:00 PM 6.65 43.97 0.896 8.05 8.6 12.49
12/17/2020 12:45:00 PM 6.79 44.222 0.9 8.06 8.27 12.51
12/17/2020 1:00:00 PM 6.88 44.384 0.905 8.07 8.23 12.53
12/17/2020 1:15:00 PM 6.94 44.492 0.912 8.06 8.22 12.53
12/17/2020 1:30:00 PM 6.96 44.528 0.92 8.06 7.99 12.54
12/17/2020 1:45:00 PM 7.01 44.618 0.93 8.07 8.08 12.53
12/17/2020 2:00:00 PM 7.13 44.834 0.941 8.06 8.59 12.52
12/17/2020 2:15:00 PM 7.28 45.104 0.952 8.07 8.11 12.48
12/17/2020 2:30:00 PM 7.39 45.302 0.959 8.06 8.68 12.43
12/17/2020 2:45:00 PM 7.47 45.446 0.967 8.06 8.51 12.37
12/17/2020 3:00:00 PM 7.52 45.536 0.971 8.06 8.93 12.29
12/17/2020 3:15:00 PM 7.56 45.608 0.976 8.05 8.7 12.19
12/17/2020 3:30:00 PM 7.58 45.644 0.98 8.04 8.43 12.1
12/17/2020 3:45:00 PM 7.6 45.68 0.984 8.04 8.31 12
12/17/2020 4:00:00 PM 7.62 45.716 0.989 8.04 8.04 11.91
12/17/2020 4:15:00 PM 7.64 45.752 0.993 8.02 8.63 11.81
12/17/2020 4:30:00 PM 7.67 45.806 0.996 8.02 9.19 11.71
12/17/2020 4:45:00 PM 7.68 45.824 0.998 8.01 9.47 11.61
12/17/2020 5:00:00 PM 7.69 45.842 0.998 8 9.14 11.53
12/17/2020 5:15:00 PM 7.69 45.842 0.997 8 9.38 11.45
12/17/2020 5:30:00 PM 7.71 45.878 0.997 7.99 9.7 11.39
12/17/2020 5:45:00 PM 7.73 45.914 0.998 7.99 9.48 11.32
12/17/2020 6:00:00 PM 7.75 45.95 1.001 7.98 8.8 11.26
12/17/2020 6:15:00 PM 7.78 46.004 1.003 7.98 8.99 11.2
12/17/2020 6:30:00 PM 7.78 46.004 1.007 7.96 8.18 11.13
12/17/2020 6:45:00 PM 7.77 45.986 1.013 7.96 8 11.07
12/17/2020 7:00:00 PM 7.74 45.932 1.021 7.95 8.67 11.02
12/17/2020 7:15:00 PM 7.7 45.86 1.031 7.95 8.41 10.96
12/17/2020 7:30:00 PM 7.66 45.788 1.043 7.93 8.11 10.9
12/17/2020 7:45:00 PM 7.63 45.734 1.056 7.93 8.87 10.84
12/17/2020 8:00:00 PM 7.6 45.68 1.065 7.92 8.91 10.78
12/17/2020 8:15:00 PM 7.58 45.644 1.071 7.92 8.7 10.73
12/17/2020 8:30:00 PM 7.55 45.59 1.075 7.9 8.69 10.68
12/17/2020 8:45:00 PM 7.52 45.536 1.076 7.91 8.58 10.63
12/17/2020 9:00:00 PM 7.49 45.482 1.075 7.9 8.74 10.59
12/17/2020 9:15:00 PM 7.46 45.428 1.073 7.89 9.26 10.55
12/17/2020 9:30:00 PM 7.44 45.392 1.069 7.89 8.52 10.52
12/17/2020 9:45:00 PM 7.41 45.338 1.064 7.88 8.95 10.49
12/17/2020 10:00:00 PM 7.38 45.284 1.059 7.88 9.09 10.48
12/17/2020 10:15:00 PM 7.36 45.248 1.055 7.87 9.13 10.46
12/17/2020 10:30:00 PM 7.33 45.194 1.051 7.88 8.9 10.46
12/17/2020 10:45:00 PM 7.31 45.158 1.051 7.87 8.94 10.46
12/17/2020 11:00:00 PM 7.28 45.104 1.054 7.88 8.23 10.45
12/17/2020 11:15:00 PM 7.25 45.05 1.059 7.87 8.41 10.45
12/17/2020 11:30:00 PM 7.23 45.014 1.067 7.86 8.41 10.44
12/17/2020 11:45:00 PM 7.22 44.996 1.076 7.86 8.7 10.43
12/18/2020 12:00:00 AM 7.21 44.978 1.087 7.85 8.41 10.43
12/18/2020 12:15:00 AM 7.21 44.978 1.1 7.86 8.17 10.41
12/18/2020 12:30:00 AM 7.21 44.978 1.112 7.85 7.77 10.4
12/18/2020 12:45:00 AM 7.22 44.996 1.125 7.85 7.79 10.39
12/18/2020 1:00:00 AM 7.21 44.978 1.137 7.84 8.52 10.38
12/18/2020 1:15:00 AM 7.21 44.978 1.146 7.85 7.93 10.37
12/18/2020 1:30:00 AM 7.2 44.96 1.153 7.85 7.62 10.37
12/18/2020 1:45:00 AM 7.18 44.924 1.158 7.84 7.55 10.37
12/18/2020 2:00:00 AM 7.15 44.87 1.162 7.85 7.28 10.37
12/18/2020 2:15:00 AM 7.11 44.798 1.165 7.84 7.43 10.37
12/18/2020 2:30:00 AM 7.08 44.744 1.166 7.85 7.41 10.37
12/18/2020 2:45:00 AM 7.03 44.654 1.165 7.85 7.27 10.37
12/18/2020 3:00:00 AM 6.98 44.564 1.163 7.84 7.41 10.38
12/18/2020 3:15:00 AM 6.93 44.474 1.158 7.85 7.54 10.4
12/18/2020 3:30:00 AM 6.88 44.384 1.152 7.85 7.62 10.41
12/18/2020 3:45:00 AM 6.82 44.276 1.146 7.85 7.55 10.43
12/18/2020 4:00:00 AM 6.77 44.186 1.137 7.85 7.5 10.46
12/18/2020 4:15:00 AM 6.72 44.096 1.129 7.86 7.84 10.48
12/18/2020 4:30:00 AM 6.67 44.006 1.12 7.86 7.8 10.5
12/18/2020 4:45:00 AM 6.62 43.916 1.111 7.86 7.71 10.53
12/18/2020 5:00:00 AM 6.58 43.844 1.103 7.86 8.53 10.56
12/18/2020 5:15:00 AM 6.54 43.772 1.095 7.86 7.61 10.58
12/18/2020 5:30:00 AM 6.5 43.7 1.087 7.86 7.8 10.6
12/18/2020 5:45:00 AM 6.48 43.664 1.078 7.86 7.18 10.62
12/18/2020 6:00:00 AM 6.45 43.61 1.069 7.86 7.18 10.64
12/18/2020 6:15:00 AM 6.43 43.574 1.06 7.86 7.16 10.66
12/18/2020 6:30:00 AM 6.41 43.538 1.052 7.86 7.13 10.68
12/18/2020 6:45:00 AM 6.37 43.466 1.045 7.88 6.89 10.7
12/18/2020 7:00:00 AM 6.34 43.412 1.038 7.88 6.74 10.72
12/18/2020 7:15:00 AM 6.3 43.34 1.032 7.88 7.27 10.74
12/18/2020 7:30:00 AM 6.28 43.304 1.026 7.87 6.68 10.78
12/18/2020 7:45:00 AM 6.26 43.268 1.02 7.88 6.94 10.84
12/18/2020 8:00:00 AM 6.25 43.25 1.014 7.88 8.21 10.93
12/18/2020 8:15:00 AM 6.27 43.286 1.009 7.89 10.21 11
12/18/2020 8:30:00 AM 6.3 43.34 1.006 7.91 9.93 11.11
12/18/2020 8:45:00 AM 6.33 43.394 1.003 7.92 9.2 11.24
12/18/2020 9:00:00 AM 6.37 43.466 1.001 7.93 9.62 11.35
12/18/2020 9:15:00 AM 6.41 43.538 0.999 7.94 10.4 11.43
12/18/2020 9:30:00 AM 6.46 43.628 0.996 7.94 10.34 11.51
12/18/2020 9:45:00 AM 6.53 43.754 0.994 7.96 10.5 11.62
12/18/2020 10:00:00 AM 6.64 43.952 0.991 7.97 9.75 11.77
12/18/2020 10:15:00 AM 6.72 44.096 0.988 7.97 9.89 11.88
12/18/2020 10:30:00 AM 6.82 44.276 0.985 7.99 10.6 11.94
12/18/2020 10:45:00 AM 6.98 44.564 0.981 8 10.6 12.07
12/18/2020 11:00:00 AM 7.14 44.852 0.977 8.01 10.25 12.19
12/18/2020 11:15:00 AM 7.26 45.068 0.972 8.03 9.15 12.26
12/18/2020 11:30:00 AM 7.4 45.32 0.969 8.03 9.61 12.3
12/18/2020 11:45:00 AM 7.52 45.536 0.97 8.03 9.11 12.33
12/18/2020 12:00:00 PM 7.64 45.752 0.972 8.05 9.51 12.39
12/18/2020 12:15:00 PM 7.78 46.004 0.979 8.05 10.26 12.47
12/18/2020 12:30:00 PM 7.92 46.256 0.986 8.06 9.91 12.53
12/18/2020 12:45:00 PM 8.04 46.472 0.998 8.08 9.66 12.55
12/18/2020 1:00:00 PM 8.15 46.67 1.011 8.07 8.44 12.55
12/18/2020 1:15:00 PM 8.28 46.904 1.026 8.07 8.6 12.56
12/18/2020 1:30:00 PM 8.38 47.084 1.04 8.08 8.41 12.56
12/18/2020 1:45:00 PM 8.44 47.192 1.052 8.08 8.56 12.54
12/18/2020 2:00:00 PM 8.51 47.318 1.065 8.09 8.4 12.53
12/18/2020 2:15:00 PM 8.59 47.462 1.076 8.09 8.52 12.49
12/18/2020 2:30:00 PM 8.65 47.57 1.085 8.08 9.07 12.45
12/18/2020 2:45:00 PM 8.68 47.624 1.093 8.09 8.9 12.44
12/18/2020 3:00:00 PM 8.73 47.714 1.099 8.09 8.51 12.47
12/18/2020 3:15:00 PM 8.74 47.732 1.105 8.08 8.44 12.4
12/18/2020 3:30:00 PM 8.74 47.732 1.109 8.08 8.28 12.29
12/18/2020 3:45:00 PM 8.76 47.768 1.11 8.08 9.13 12.17
12/18/2020 4:00:00 PM 8.77 47.786 1.109 8.07 8.67 12.05
12/18/2020 4:15:00 PM 8.77 47.786 1.107 8.05 8.26 11.91
12/18/2020 4:30:00 PM 8.76 47.768 1.104 8.04 7.71 11.78
12/18/2020 4:45:00 PM 8.74 47.732 1.102 8.03 8.03 11.64
12/18/2020 5:00:00 PM 8.69 47.642 1.1 8.03 7.48 11.52
12/18/2020 5:15:00 PM 8.64 47.552 1.097 8.01 8.51 11.43
12/18/2020 5:30:00 PM 8.58 47.444 1.095 8.01 9.01 11.35
12/18/2020 5:45:00 PM 8.51 47.318 1.094 8 8.46 11.29
12/18/2020 6:00:00 PM 8.45 47.21 1.094 8 8.43 11.24
12/18/2020 6:15:00 PM 8.4 47.12 1.095 7.98 8.32 11.18
12/18/2020 6:30:00 PM 8.35 47.03 1.097 7.98 7.74 11.13
12/18/2020 6:45:00 PM 8.3 46.94 1.099 7.97 7.81 11.07
12/18/2020 7:00:00 PM 8.25 46.85 1.099 7.98 6.64 11.01
12/18/2020 7:15:00 PM 8.2 46.76 1.099 7.96 6.75 10.96
12/18/2020 7:30:00 PM 8.14 46.652 1.099 7.96 6.63 10.91
12/18/2020 7:45:00 PM 8.08 46.544 1.1 7.96 6.61 10.86
12/18/2020 8:00:00 PM 8 46.4 1.102 7.95 6.57 10.82
12/18/2020 8:15:00 PM 7.94 46.292 1.106 7.94 6.74 10.79
12/18/2020 8:30:00 PM 7.87 46.166 1.112 7.93 6.5 10.74
12/18/2020 8:45:00 PM 7.78 46.004 1.116 7.93 6.71 10.71
12/18/2020 9:00:00 PM 7.7 45.86 1.12 7.93 6.52 10.67
12/18/2020 9:15:00 PM 7.62 45.716 1.122 7.92 6.67 10.63
12/18/2020 9:30:00 PM 7.54 45.572 1.123 7.91 6.67 10.61
12/18/2020 9:45:00 PM 7.47 45.446 1.125 7.9 6.75 10.59
12/18/2020 10:00:00 PM 7.39 45.302 1.127 7.9 6.71 10.58
12/18/2020 10:15:00 PM 7.32 45.176 1.128 7.89 6.36 10.57
12/18/2020 10:30:00 PM 7.25 45.05 1.131 7.89 6.34 10.57
12/18/2020 10:45:00 PM 7.17 44.906 1.135 7.88 6.2 10.57
12/18/2020 11:00:00 PM 7.1 44.78 1.14 7.87 6.24 10.57
12/18/2020 11:15:00 PM 7.03 44.654 1.146 7.89 6.15 10.56
12/18/2020 11:30:00 PM 6.96 44.528 1.153 7.87 5.94 10.56
12/18/2020 11:45:00 PM 6.9 44.42 1.161 7.88 5.87 10.57
12/19/2020 12:00:00 AM 6.83 44.294 1.167 7.87 5.87 10.58
12/19/2020 12:15:00 AM 6.77 44.186 1.172 7.88 6.06 10.6
12/19/2020 12:30:00 AM 6.7 44.06 1.177 7.87 5.87 10.61
12/19/2020 12:45:00 AM 6.63 43.934 1.181 7.87 6.06 10.63
12/19/2020 1:00:00 AM 6.57 43.826 1.185 7.87 5.8 10.64
12/19/2020 1:15:00 AM 6.51 43.718 1.186 7.88 5.64 10.65
12/19/2020 1:30:00 AM 6.45 43.61 1.187 7.87 5.61 10.65
12/19/2020 1:45:00 AM 6.4 43.52 1.185 7.87 5.81 10.67
12/19/2020 2:00:00 AM 6.34 43.412 1.183 7.88 5.59 10.68
12/19/2020 2:15:00 AM 6.27 43.286 1.18 7.87 5.67 10.7
12/19/2020 2:30:00 AM 6.22 43.196 1.176 7.87 5.57 10.72
12/19/2020 2:45:00 AM 6.16 43.088 1.172 7.87 5.8 10.75
12/19/2020 3:00:00 AM 6.1 42.98 1.168 7.88 5.64 10.77
12/19/2020 3:15:00 AM 6.03 42.854 1.164 7.87 5.44 10.8
12/19/2020 3:30:00 AM 5.97 42.746 1.158 7.88 5.52 10.82
12/19/2020 3:45:00 AM 5.9 42.62 1.152 7.88 5.51 10.85
12/19/2020 4:00:00 AM 5.84 42.512 1.145 7.88 5.7 10.86
12/19/2020 4:15:00 AM 5.78 42.404 1.139 7.88 5.76 10.88
12/19/2020 4:30:00 AM 5.71 42.278 1.134 7.88 5.41 10.89
12/19/2020 4:45:00 AM 5.65 42.17 1.129 7.87 5.68 10.91
12/19/2020 5:00:00 AM 5.59 42.062 1.127 7.87 5.64 10.93
12/19/2020 5:15:00 AM 5.54 41.972 1.122 7.88 5.51 10.95
12/19/2020 5:30:00 AM 5.48 41.864 1.118 7.87 5.44 10.98
12/19/2020 5:45:00 AM 5.43 41.774 1.114 7.88 5.37 11
12/19/2020 6:00:00 AM 5.39 41.702 1.108 7.89 5.62 11.03
12/19/2020 6:15:00 AM 5.34 41.612 1.102 7.89 5.52 11.06
12/19/2020 6:30:00 AM 5.29 41.522 1.095 7.88 5.65 11.07
12/19/2020 6:45:00 AM 5.24 41.432 1.088 7.89 5.58 11.1
12/19/2020 7:00:00 AM 5.19 41.342 1.08 7.9 5.62 11.12
12/19/2020 7:15:00 AM 5.13 41.234 1.071 7.9 5.68 11.14
12/19/2020 7:30:00 AM 5.08 41.144 1.061 7.89 5.66 11.17
12/19/2020 7:45:00 AM 5.03 41.054 1.05 7.91 5.67 11.23
12/19/2020 8:00:00 AM 4.99 40.982 1.04 7.9 7.03 11.32
12/19/2020 8:15:00 AM 4.95 40.91 1.03 7.92 8.99 11.42
12/19/2020 8:30:00 AM 4.93 40.874 1.023 7.91 11.34 11.51
12/19/2020 8:45:00 AM 4.91 40.838 1.018 7.92 11.64 11.6
12/19/2020 9:00:00 AM 4.92 40.856 1.014 7.92 12.33 11.7
12/19/2020 9:15:00 AM 4.94 40.892 1.012 7.94 12.67 11.8
12/19/2020 9:30:00 AM 4.96 40.928 1.011 7.95 11.44 11.93
12/19/2020 9:45:00 AM 5.01 41.018 1.01 7.95 10.62 12.05
12/19/2020 10:00:00 AM 5.07 41.126 1.009 7.97 11.38 12.12
12/19/2020 10:15:00 AM 5.14 41.252 1.009 7.97 10.44 12.23
12/19/2020 10:30:00 AM 5.22 41.396 1.007 7.99 10.78 12.33
12/19/2020 10:45:00 AM 5.33 41.594 1.004 8 9.98 12.44
12/19/2020 11:00:00 AM 5.44 41.792 1 8.01 10.22 12.51
12/19/2020 11:15:00 AM 5.55 41.99 0.994 8.02 9.68 12.59
12/19/2020 11:30:00 AM 5.67 42.206 0.987 8.02 9.26 12.66
12/19/2020 11:45:00 AM 5.78 42.404 0.98 8.04 9.63 12.71
12/19/2020 12:00:00 PM 5.89 42.602 0.975 8.04 9.44 12.78
12/19/2020 12:15:00 PM 6.01 42.818 0.971 8.05 9.19 12.84
12/19/2020 12:30:00 PM 6.13 43.034 0.97 8.06 9.97 12.87
12/19/2020 12:45:00 PM 6.27 43.286 0.972 8.06 10.29 12.88
12/19/2020 1:00:00 PM 6.4 43.52 0.976 8.07 9.58 12.91
12/19/2020 1:15:00 PM 6.55 43.79 0.986 8.08 9.43 12.95
12/19/2020 1:30:00 PM 6.72 44.096 0.998 8.09 9.34 12.97
12/19/2020 1:45:00 PM 6.87 44.366 1.016 8.09 9.82 12.95
12/19/2020 2:00:00 PM 7.03 44.654 1.035 8.09 8.12 12.94
12/19/2020 2:15:00 PM 7.2 44.96 1.054 8.09 8.05 12.92
12/19/2020 2:30:00 PM 7.35 45.23 1.072 8.08 8.19 12.89
12/19/2020 2:45:00 PM 7.49 45.482 1.09 8.09 7.62 12.84
12/19/2020 3:00:00 PM 7.62 45.716 1.106 8.09 7.1 12.78
12/19/2020 3:15:00 PM 7.74 45.932 1.12 8.08 7.5 12.71
12/19/2020 3:30:00 PM 7.85 46.13 1.132 8.09 7.19 12.64
12/19/2020 3:45:00 PM 7.94 46.292 1.142 8.08 7.02 12.54
12/19/2020 4:00:00 PM 8.02 46.436 1.15 8.07 6.81 12.41
12/19/2020 4:15:00 PM 8.08 46.544 1.155 8.08 7.22 12.28
12/19/2020 4:30:00 PM 8.11 46.598 1.158 8.07 6.89 12.14
12/19/2020 4:45:00 PM 8.13 46.634 1.16 8.06 7.34 11.99
12/19/2020 5:00:00 PM 8.15 46.67 1.161 8.05 7.56 11.85
12/19/2020 5:15:00 PM 8.15 46.67 1.162 8.03 8.02 11.73
12/19/2020 5:30:00 PM 8.16 46.688 1.163 8.03 8.21 11.63
12/19/2020 5:45:00 PM 8.16 46.688 1.163 8.02 7.37 11.53
12/19/2020 6:00:00 PM 8.16 46.688 1.162 8.02 7.29 11.44
12/19/2020 6:15:00 PM 8.14 46.652 1.161 8.01 7.17 11.36
12/19/2020 6:30:00 PM 8.1 46.58 1.159 7.99 7.38 11.29
12/19/2020 6:45:00 PM 8.05 46.49 1.157 7.99 7.28 11.21
12/19/2020 7:00:00 PM 7.99 46.382 1.155 7.99 7.21 11.15
12/19/2020 7:15:00 PM 7.94 46.292 1.152 7.98 7.79 11.09
12/19/2020 7:30:00 PM 7.87 46.166 1.149 7.97 7.35 11.02
12/19/2020 7:45:00 PM 7.82 46.076 1.145 7.97 6.85 10.97
12/19/2020 8:00:00 PM 7.76 45.968 1.142 7.96 6.79 10.91
12/19/2020 8:15:00 PM 7.7 45.86 1.138 7.96 7.01 10.85
12/19/2020 8:30:00 PM 7.67 45.806 1.136 7.94 7 10.78
12/19/2020 8:45:00 PM 7.61 45.698 1.134 7.94 7.14 10.73
12/19/2020 9:00:00 PM 7.55 45.59 1.131 7.92 6.84 10.68
12/19/2020 9:15:00 PM 7.49 45.482 1.128 7.92 7.19 10.64
12/19/2020 9:30:00 PM 7.43 45.374 1.126 7.91 6.86 10.61
12/19/2020 9:45:00 PM 7.4 45.32 1.123 7.91 6.86 10.57
12/19/2020 10:00:00 PM 7.37 45.266 1.121 7.91 6.58 10.55
12/19/2020 10:15:00 PM 7.33 45.194 1.12 7.9 6.1 10.53
12/19/2020 10:30:00 PM 7.29 45.122 1.119 7.91 6.23 10.51
12/19/2020 10:45:00 PM 7.26 45.068 1.118 7.89 6.29 10.49
12/19/2020 11:00:00 PM 7.24 45.032 1.117 7.89 6.14 10.48
12/19/2020 11:15:00 PM 7.2 44.96 1.117 7.89 5.92 10.48
12/19/2020 11:30:00 PM 7.16 44.888 1.116 7.89 5.83 10.47
12/19/2020 11:45:00 PM 7.12 44.816 1.114 7.88 5.58 10.47
12/20/2020 12:00:00 AM 7.08 44.744 1.113 7.88 5.63 10.46
12/20/2020 12:15:00 AM 7.06 44.708 1.112 7.89 5.52 10.47
12/20/2020 12:30:00 AM 7.04 44.672 1.112 7.89 5.73 10.46
12/20/2020 12:45:00 AM 7.03 44.654 1.112 7.88 5.58 10.46
12/20/2020 1:00:00 AM 7.02 44.636 1.111 7.87 5.48 10.46
12/20/2020 1:15:00 AM 7.01 44.618 1.11 7.88 5.58 10.46
12/20/2020 1:30:00 AM 7 44.6 1.109 7.87 5.4 10.46
12/20/2020 1:45:00 AM 6.99 44.582 1.107 7.89 5.56 10.46
12/20/2020 2:00:00 AM 6.98 44.564 1.105 7.89 5.88 10.47
12/20/2020 2:15:00 AM 6.97 44.546 1.103 7.87 5.43 10.47
12/20/2020 2:30:00 AM 6.96 44.528 1.101 7.89 5.3 10.47
12/20/2020 2:45:00 AM 6.95 44.51 1.098 7.89 5.31 10.47
12/20/2020 3:00:00 AM 6.93 44.474 1.095 7.87 5.29 10.48
12/20/2020 3:15:00 AM 6.93 44.474 1.093 7.87 5.45 10.48
12/20/2020 3:30:00 AM 6.92 44.456 1.09 7.86 4.25 10.48
12/20/2020 3:45:00 AM 6.91 44.438 1.087 7.87 10.62 10.48
12/20/2020 4:00:00 AM 6.91 44.438 1.084 7.87 11.97 10.49
12/20/2020 4:15:00 AM 6.9 44.42 1.079 7.87 4.96 10.5
12/20/2020 4:30:00 AM 6.89 44.402 1.074 7.87 5.02 10.5
12/20/2020 4:45:00 AM 6.88 44.384 1.068 7.86 7.15 10.51
12/20/2020 5:00:00 AM 6.87 44.366 1.062 7.86 6.66 10.51
12/20/2020 5:15:00 AM 6.87 44.366 1.057 7.87 7.22 10.52
12/20/2020 5:30:00 AM 6.86 44.348 1.053 7.88 6.21 10.53
12/20/2020 5:45:00 AM 6.86 44.348 1.049 7.87 5.73 10.53
12/20/2020 6:00:00 AM 6.87 44.366 1.046 7.87 6.55 10.53
12/20/2020 6:15:00 AM 6.87 44.366 1.042 7.88 5.44 10.53
12/20/2020 6:30:00 AM 6.87 44.366 1.036 7.87 6.21 10.54
12/20/2020 6:45:00 AM 6.87 44.366 1.031 7.89 5.43 10.54
12/20/2020 7:00:00 AM 6.88 44.384 1.024 7.87 6.1 10.55
12/20/2020 7:15:00 AM 6.88 44.384 1.018 7.88 5.55 10.55
12/20/2020 7:30:00 AM 6.87 44.366 1.013 7.88 6.3 10.56
12/20/2020 7:45:00 AM 6.87 44.366 1.006 7.9 6.21 10.58
12/20/2020 8:00:00 AM 6.88 44.384 0.999 7.88 6.22 10.62
12/20/2020 8:15:00 AM 6.89 44.402 0.991 7.89 8.99 10.69
12/20/2020 8:30:00 AM 6.91 44.438 0.984 7.9 12.53 10.77
12/20/2020 8:45:00 AM 6.94 44.492 0.978 7.9 13.96 10.88
12/20/2020 9:00:00 AM 6.97 44.546 0.972 7.93 14.31 10.98
12/20/2020 9:15:00 AM 7.01 44.618 0.969 7.93 12.31 11.11
12/20/2020 9:30:00 AM 7.07 44.726 0.966 7.93 11.67 11.22
12/20/2020 9:45:00 AM 7.13 44.834 0.963 7.95 12.25 11.32
12/20/2020 10:00:00 AM 7.23 45.014 0.961 7.96 11.4 11.51
12/20/2020 10:15:00 AM 7.35 45.23 0.959 7.99 8.85 11.71
12/20/2020 10:30:00 AM 7.44 45.392 0.956 7.99 8.94 11.76
12/20/2020 10:45:00 AM 7.53 45.554 0.952 7.99 10.1 11.76
12/20/2020 11:00:00 AM 7.61 45.698 0.947 7.99 9.35 11.76
12/20/2020 11:15:00 AM 7.71 45.878 0.942 8 9.48 11.84
12/20/2020 11:30:00 AM 7.77 45.986 0.937 8 12.21 11.81
12/20/2020 11:45:00 AM 7.84 46.112 0.933 8 11.34 11.8
12/20/2020 12:00:00 PM 7.92 46.256 0.929 8.01 11.45 11.85
12/20/2020 12:15:00 PM 8 46.4 0.925 8.01 10.7 11.89
12/20/2020 12:30:00 PM 8.1 46.58 0.923 8.02 11.25 11.97
12/20/2020 12:45:00 PM 8.23 46.814 0.922 8.04 11.68 12.11
12/20/2020 1:00:00 PM 8.34 47.012 0.925 8.06 11.42 12.17
12/20/2020 1:15:00 PM 8.45 47.21 0.933 8.06 10.67 12.16
12/20/2020 1:30:00 PM 8.56 47.408 0.946 8.05 11.25 12.1
12/20/2020 1:45:00 PM 8.68 47.624 0.962 8.06 10.61 12.09
12/20/2020 2:00:00 PM 8.82 47.876 0.979 8.06 11.42 12.08
12/20/2020 2:15:00 PM 8.96 48.128 0.996 8.06 11.54 12.07
12/20/2020 2:30:00 PM 9.09 48.362 1.013 8.06 10.53 12.06
12/20/2020 2:45:00 PM 9.22 48.596 1.028 8.06 10.44 12.04
12/20/2020 3:00:00 PM 9.33 48.794 1.043 8.06 9.8 12
12/20/2020 3:15:00 PM 9.42 48.956 1.055 8.05 10.43 11.9
12/20/2020 3:30:00 PM 9.48 49.064 1.066 8.05 10.88 11.77
12/20/2020 3:45:00 PM 9.54 49.172 1.076 8.04 10.69 11.63
12/20/2020 4:00:00 PM 9.59 49.262 1.084 8.03 9.95 11.54
12/20/2020 4:15:00 PM 9.62 49.316 1.091 8.03 9.23 11.44
12/20/2020 4:30:00 PM 9.65 49.37 1.095 8.01 10.25 11.34
12/20/2020 4:45:00 PM 9.67 49.406 1.098 8.01 9.74 11.2
12/20/2020 5:00:00 PM 9.68 49.424 1.1 8.02 9.98 11.1
12/20/2020 5:15:00 PM 9.67 49.406 1.102 8.01 10.06 11.02
12/20/2020 5:30:00 PM 9.67 49.406 1.103 7.99 10.23 10.93
12/20/2020 5:45:00 PM 9.65 49.37 1.104 7.99 10.9 10.88
12/20/2020 6:00:00 PM 9.63 49.334 1.105 7.99 9.79 10.82
12/20/2020 6:15:00 PM 9.6 49.28 1.105 7.99 7.74 10.74
12/20/2020 6:30:00 PM 9.58 49.244 1.105 7.98 7.67 10.67
12/20/2020 6:45:00 PM 9.56 49.208 1.105 7.98 7.23 10.61
12/20/2020 7:00:00 PM 9.55 49.19 1.105 7.97 7.11 10.53
12/20/2020 7:15:00 PM 9.53 49.154 1.104 7.97 6.64 10.47
12/20/2020 7:30:00 PM 9.51 49.118 1.104 7.95 6.62 10.4
12/20/2020 7:45:00 PM 9.5 49.1 1.102 7.94 6.81 10.33
12/20/2020 8:00:00 PM 9.47 49.046 1.101 7.94 6.5 10.27
12/20/2020 8:15:00 PM 9.45 49.01 1.099 7.92 6.43 10.21
12/20/2020 8:30:00 PM 9.43 48.974 1.098 7.92 6.51 10.15
12/20/2020 8:45:00 PM 9.4 48.92 1.096 7.93 6.3 10.1
12/20/2020 9:00:00 PM 9.38 48.884 1.094 7.91 6.19 10.05
12/20/2020 9:15:00 PM 9.35 48.83 1.092 7.91 6.43 10.01
12/20/2020 9:30:00 PM 9.33 48.794 1.09 7.91 6.17 9.96
12/20/2020 9:45:00 PM 9.31 48.758 1.088 7.89 6.34 9.92
12/20/2020 10:00:00 PM 9.28 48.704 1.085 7.89 5.97 9.89
12/20/2020 10:15:00 PM 9.25 48.65 1.081 7.88 6.04 9.87
12/20/2020 10:30:00 PM 9.22 48.596 1.078 7.88 5.81 9.85
12/20/2020 10:45:00 PM 9.2 48.56 1.076 7.88 6.05 9.84
12/20/2020 11:00:00 PM 9.18 48.524 1.074 7.88 5.8 9.82
12/20/2020 11:15:00 PM 9.16 48.488 1.073 7.88 5.87 9.81
12/20/2020 11:30:00 PM 9.15 48.47 1.072 7.87 5.82 9.8
12/20/2020 11:45:00 PM 9.14 48.452 1.071 7.86 5.81 9.8
12/21/2020 12:00:00 AM 9.13 48.434 1.071 7.87 6.03 9.79
12/21/2020 12:15:00 AM 9.12 48.416 1.072 7.87 5.87 9.78
12/21/2020 12:30:00 AM 9.11 48.398 1.073 7.86 5.73 9.78
12/21/2020 12:45:00 AM 9.1 48.38 1.074 7.86 5.74 9.77
12/21/2020 1:00:00 AM 9.09 48.362 1.076 7.86 5.7 9.76
12/21/2020 1:15:00 AM 9.08 48.344 1.078 7.86 5.65 9.75
12/21/2020 1:30:00 AM 9.07 48.326 1.08 7.86 5.88 9.75
12/21/2020 1:45:00 AM 9.06 48.308 1.082 7.85 5.86 9.74
12/21/2020 2:00:00 AM 9.06 48.308 1.083 7.85 5.69 9.74
12/21/2020 2:15:00 AM 9.05 48.29 1.084 7.86 5.93 9.73
12/21/2020 2:30:00 AM 9.04 48.272 1.085 7.86 6.21 9.73
12/21/2020 2:45:00 AM 9.03 48.254 1.087 7.85 5.89 9.73
12/21/2020 3:00:00 AM 9.02 48.236 1.087 7.85 5.76 9.73
12/21/2020 3:15:00 AM 9.01 48.218 1.087 7.85 5.63 9.73
12/21/2020 3:30:00 AM 9 48.2 1.085 7.85 5.55 9.73
12/21/2020 3:45:00 AM 8.98 48.164 1.082 7.85 5.69 9.73
12/21/2020 4:00:00 AM 8.96 48.128 1.079 7.86 5.91 9.73
12/21/2020 4:15:00 AM 8.95 48.11 1.075 7.85 5.57 9.74
12/21/2020 4:30:00 AM 8.93 48.074 1.07 7.85 5.48 9.74
12/21/2020 4:45:00 AM 8.91 48.038 1.064 7.85 5.39 9.75
12/21/2020 5:00:00 AM 8.89 48.002 1.056 7.86 5.51 9.76
12/21/2020 5:15:00 AM 8.87 47.966 1.047 7.87 5.42 9.78
12/21/2020 5:30:00 AM 8.84 47.912 1.038 7.85 5.53 9.79
12/21/2020 5:45:00 AM 8.82 47.876 1.03 7.85 5.41 9.81
12/21/2020 6:00:00 AM 8.81 47.858 1.022 7.86 5.6 9.82
12/21/2020 6:15:00 AM 8.79 47.822 1.015 7.85 5.62 9.83
12/21/2020 6:30:00 AM 8.77 47.786 1.008 7.85 5.79 9.85
12/21/2020 6:45:00 AM 8.75 47.75 1 7.85 5.93 9.86
12/21/2020 7:00:00 AM 8.73 47.714 0.993 7.87 5.8 9.87
12/21/2020 7:15:00 AM 8.71 47.678 0.985 7.86 5.89 9.88
12/21/2020 7:30:00 AM 8.69 47.642 0.976 7.87 5.86 9.91
12/21/2020 7:45:00 AM 8.68 47.624 0.969 7.87 5.97 9.94
12/21/2020 8:00:00 AM 8.66 47.588 0.962 7.88 6.06 9.99
12/21/2020 8:15:00 AM 8.66 47.588 0.956 7.88 6.26 10.08
12/21/2020 8:30:00 AM 8.66 47.588 0.95 7.89 7.27 10.17
12/21/2020 8:45:00 AM 8.66 47.588 0.947 7.88 7.82 10.25
12/21/2020 9:00:00 AM 8.68 47.624 0.944 7.9 8.03 10.36
12/21/2020 9:15:00 AM 8.7 47.66 0.943 7.9 7.75 10.47
12/21/2020 9:30:00 AM 8.72 47.696 0.943 7.91 7.33 10.52
12/21/2020 9:45:00 AM 8.74 47.732 0.942 7.91 6.95 10.58
12/21/2020 10:00:00 AM 8.78 47.804 0.941 7.92 7.04 10.69
12/21/2020 10:15:00 AM 8.82 47.876 0.94 7.93 6.8 10.78
12/21/2020 10:30:00 AM 8.86 47.948 0.937 7.94 6.59 10.89
12/21/2020 10:45:00 AM 8.91 48.038 0.934 7.94 6.7 10.98
12/21/2020 11:00:00 AM 8.97 48.146 0.929 7.96 6.85 11.1
12/21/2020 11:15:00 AM 9.04 48.272 0.927 7.97 6.57 11.23
12/21/2020 11:30:00 AM 9.09 48.362 0.925 7.97 6.47 11.31
12/21/2020 11:45:00 AM 9.15 48.47 0.925 7.98 6.4 11.39
12/21/2020 12:00:00 PM 9.23 48.614 0.927 7.99 6.31 11.5
12/21/2020 12:15:00 PM 9.31 48.758 0.933 8 6.26 11.56
12/21/2020 12:30:00 PM 9.39 48.902 0.942 8.02 6.58 11.6
12/21/2020 12:45:00 PM 9.46 49.028 0.955 8.01 6.28 11.6
12/21/2020 1:00:00 PM 9.53 49.154 0.971 8.01 6.32 11.59
12/21/2020 1:15:00 PM 9.61 49.298 0.99 8.02 5.99 11.67
12/21/2020 1:30:00 PM 9.68 49.424 1.008 8.01 6.47 11.66
12/21/2020 1:45:00 PM 9.74 49.532 1.026 8.01 6.7 11.65
12/21/2020 2:00:00 PM 9.82 49.676 1.04 8.03 7.06 11.69
12/21/2020 2:15:00 PM 9.89 49.802 1.052 8.03 7.25 11.73
12/21/2020 2:30:00 PM 9.96 49.928 1.061 8.03 7.14 11.73
12/21/2020 2:45:00 PM 10.05 50.09 1.067 8.03 7.62 11.78
12/21/2020 3:00:00 PM 10.1 50.18 1.07 8.03 7.59 11.75
12/21/2020 3:15:00 PM 10.14 50.252 1.072 8.04 7.32 11.69
12/21/2020 3:30:00 PM 10.17 50.306 1.073 8.04 7.99 11.63
12/21/2020 3:45:00 PM 10.2 50.36 1.075 8.05 7.33 11.61
12/21/2020 4:00:00 PM 10.2 50.36 1.076 8.03 7.24 11.52
12/21/2020 4:15:00 PM 10.2 50.36 1.076 8.02 7.35 11.36
12/21/2020 4:30:00 PM 10.19 50.342 1.077 8.02 7.42 11.22
12/21/2020 4:45:00 PM 10.17 50.306 1.078 8 6.81 11.11
12/21/2020 5:00:00 PM 10.14 50.252 1.079 8 7.17 11
12/21/2020 5:15:00 PM 10.12 50.216 1.079 7.98 7.17 10.91
12/21/2020 5:30:00 PM 10.08 50.144 1.079 7.98 6.82 10.82
12/21/2020 5:45:00 PM 10.05 50.09 1.079 7.98 7.03 10.74
12/21/2020 6:00:00 PM 10.02 50.036 1.078 7.97 6.94 10.66
12/21/2020 6:15:00 PM 9.99 49.982 1.077 7.96 6.74 10.59
12/21/2020 6:30:00 PM 9.95 49.91 1.076 7.95 6.78 10.52
12/21/2020 6:45:00 PM 9.92 49.856 1.074 7.95 6.75 10.45
12/21/2020 7:00:00 PM 9.88 49.784 1.073 7.94 6.36 10.38
12/21/2020 7:15:00 PM 9.85 49.73 1.073 7.94 6.51 10.31
12/21/2020 7:30:00 PM 9.81 49.658 1.073 7.93 6.46 10.25
12/21/2020 7:45:00 PM 9.77 49.586 1.075 7.92 6.24 10.19
12/21/2020 8:00:00 PM 9.73 49.514 1.077 7.91 6.27 10.13
12/21/2020 8:15:00 PM 9.68 49.424 1.078 7.91 5.97 10.07
12/21/2020 8:30:00 PM 9.64 49.352 1.076 7.9 6.13 10.01
12/21/2020 8:45:00 PM 9.6 49.28 1.074 7.9 6.24 9.96
12/21/2020 9:00:00 PM 9.56 49.208 1.071 7.88 6.12 9.91
12/21/2020 9:15:00 PM 9.51 49.118 1.067 7.88 5.95 9.86
12/21/2020 9:30:00 PM 9.47 49.046 1.062 7.87 5.85 9.81
12/21/2020 9:45:00 PM 9.43 48.974 1.057 7.87 6.22 9.77
12/21/2020 10:00:00 PM 9.39 48.902 1.052 7.87 6.4 9.76
12/21/2020 10:15:00 PM 9.35 48.83 1.049 7.85 6.73 9.74
12/21/2020 10:30:00 PM 9.32 48.776 1.046 7.86 6.7 9.72
12/21/2020 10:45:00 PM 9.29 48.722 1.045 7.85 6.81 9.71
12/21/2020 11:00:00 PM 9.27 48.686 1.046 7.84 6.81 9.7
12/21/2020 11:15:00 PM 9.25 48.65 1.049 7.84 6.47 9.68
12/21/2020 11:30:00 PM 9.23 48.614 1.053 7.84 6.62 9.67
12/21/2020 11:45:00 PM 9.21 48.578 1.057 7.85 6.47 9.66
12/22/2020 12:00:00 AM 9.2 48.56 1.06 7.83 6.28 9.65
12/22/2020 12:15:00 AM 9.18 48.524 1.062 7.83 6.45 9.64
12/22/2020 12:30:00 AM 9.16 48.488 1.064 7.83 6.19 9.63
12/22/2020 12:45:00 AM 9.14 48.452 1.067 7.82 6.53 9.63
12/22/2020 1:00:00 AM 9.13 48.434 1.07 7.82 6.28 9.62
12/22/2020 1:15:00 AM 9.12 48.416 1.073 7.83 6.35 9.61
12/22/2020 1:30:00 AM 9.11 48.398 1.076 7.83 6.29 9.6
12/22/2020 1:45:00 AM 9.09 48.362 1.08 7.83 6.77 9.59
12/22/2020 2:00:00 AM 9.06 48.308 1.081 7.81 6.27 9.59
12/22/2020 2:15:00 AM 9.05 48.29 1.083 7.81 6.16 9.59
12/22/2020 2:30:00 AM 9.03 48.254 1.084 7.81 6.39 9.58
12/22/2020 2:45:00 AM 9.02 48.236 1.084 7.81 6.33 9.59
12/22/2020 3:00:00 AM 9.01 48.218 1.082 7.81 6.58 9.59
12/22/2020 3:15:00 AM 9 48.2 1.08 7.81 6.25 9.59
12/22/2020 3:30:00 AM 8.99 48.182 1.077 7.81 6.23 9.6
12/22/2020 3:45:00 AM 8.97 48.146 1.073 7.83 6.26 9.6
12/22/2020 4:00:00 AM 8.96 48.128 1.069 7.81 6.32 9.61
12/22/2020 4:15:00 AM 8.94 48.092 1.063 7.82 6.7 9.62
12/22/2020 4:30:00 AM 8.92 48.056 1.058 7.82 6.23 9.62
12/22/2020 4:45:00 AM 8.9 48.02 1.055 7.83 6.48 9.63
12/22/2020 5:00:00 AM 8.88 47.984 1.049 7.82 6.32 9.65
12/22/2020 5:15:00 AM 8.86 47.948 1.044 7.83 6.34 9.66
12/22/2020 5:30:00 AM 8.85 47.93 1.039 7.83 6.46 9.67
12/22/2020 5:45:00 AM 8.84 47.912 1.033 7.83 6.2 9.69
12/22/2020 6:00:00 AM 8.82 47.876 1.027 7.83 6.09 9.7
12/22/2020 6:15:00 AM 8.8 47.84 1.021 7.82 6.1 9.72
12/22/2020 6:30:00 AM 8.78 47.804 1.016 7.83 6.04 9.73
12/22/2020 6:45:00 AM 8.76 47.768 1.008 7.83 6.02 9.75
12/22/2020 7:00:00 AM 8.75 47.75 1.002 7.83 5.9 9.77
12/22/2020 7:15:00 AM 8.73 47.714 0.994 7.85 6.05 9.79
12/22/2020 7:30:00 AM 8.72 47.696 0.986 7.83 5.96 9.81
12/22/2020 7:45:00 AM 8.71 47.678 0.979 7.84 6.01 9.84
12/22/2020 8:00:00 AM 8.71 47.678 0.973 7.85 6.14 9.88
12/22/2020 8:15:00 AM 8.7 47.66 0.968 7.84 6.11 9.93
12/22/2020 8:30:00 AM 8.71 47.678 0.965 7.85 6.69 10.02
12/22/2020 8:45:00 AM 8.72 47.696 0.963 7.86 6.81 10.13
12/22/2020 9:00:00 AM 8.74 47.732 0.963 7.87 6.32 10.27
12/22/2020 9:15:00 AM 8.77 47.786 0.964 7.88 6.56 10.42
12/22/2020 9:30:00 AM 8.81 47.858 0.966 7.89 7.08 10.55
12/22/2020 9:45:00 AM 8.89 48.002 0.97 7.9 7.42 10.7
12/22/2020 10:00:00 AM 8.97 48.146 0.974 7.91 7.67 10.82
12/22/2020 10:15:00 AM 9.01 48.218 0.977 7.91 7.53 10.83
12/22/2020 10:30:00 AM 9.07 48.326 0.978 7.91 7.4 10.85
12/22/2020 10:45:00 AM 9.14 48.452 0.98 7.91 7.92 10.95
12/22/2020 11:00:00 AM 9.23 48.614 0.981 7.94 7.69 11.11
12/22/2020 11:15:00 AM 9.27 48.686 0.983 7.93 7.29 11.13
12/22/2020 11:30:00 AM 9.34 48.812 0.985 7.94 7.43 11.17
12/22/2020 11:45:00 AM 9.46 49.028 0.987 7.95 8.03 11.34
12/22/2020 12:00:00 PM 9.57 49.226 0.991 7.96 9.13 11.47
12/22/2020 12:15:00 PM 9.6 49.28 0.997 7.96 7.71 11.41
12/22/2020 12:30:00 PM 9.66 49.388 1.008 7.94 7.34 11.27
12/22/2020 12:45:00 PM 9.78 49.604 1.022 7.96 7.56 11.39
12/22/2020 1:00:00 PM 9.92 49.856 1.038 7.98 8.21 11.58
12/22/2020 1:15:00 PM 10.01 50.018 1.054 7.98 8.04 11.63
12/22/2020 1:30:00 PM 10.04 50.072 1.067 7.97 8.74 11.53
12/22/2020 1:45:00 PM 10.1 50.18 1.08 7.98 8.28 11.51
12/22/2020 2:00:00 PM 10.19 50.342 1.092 7.98 8.34 11.6
12/22/2020 2:15:00 PM 10.27 50.486 1.103 7.98 8.15 11.63
12/22/2020 2:30:00 PM 10.35 50.63 1.113 7.98 7.8 11.62
12/22/2020 2:45:00 PM 10.42 50.756 1.121 7.99 7.93 11.6
12/22/2020 3:00:00 PM 10.45 50.81 1.128 7.98 7.65 11.52
12/22/2020 3:15:00 PM 10.45 50.81 1.132 7.98 7.9 11.42
12/22/2020 3:30:00 PM 10.44 50.792 1.134 7.97 7.78 11.3
12/22/2020 3:45:00 PM 10.43 50.774 1.134 7.96 8.32 11.24
12/22/2020 4:00:00 PM 10.41 50.738 1.133 7.97 8.5 11.19
12/22/2020 4:15:00 PM 10.38 50.684 1.132 7.96 8.41 11.1
12/22/2020 4:30:00 PM 10.36 50.648 1.131 7.95 8.49 11.01
12/22/2020 4:45:00 PM 10.34 50.612 1.129 7.95 8.05 10.93
12/22/2020 5:00:00 PM 10.31 50.558 1.128 7.93 8.75 10.84
12/22/2020 5:15:00 PM 10.29 50.522 1.125 7.92 8.35 10.76
12/22/2020 5:30:00 PM 10.27 50.486 1.12 7.92 8.74 10.68
12/22/2020 5:45:00 PM 10.23 50.414 1.111 7.91 8.93 10.62
12/22/2020 6:00:00 PM 10.19 50.342 1.1 7.91 9.57 10.55
12/22/2020 6:15:00 PM 10.15 50.27 1.088 7.91 9.58 10.5
12/22/2020 6:30:00 PM 10.1 50.18 1.077 7.91 9.6 10.44
12/22/2020 6:45:00 PM 10.06 50.108 1.067 7.9 9.43 10.38
12/22/2020 7:00:00 PM 10.01 50.018 1.059 7.89 8.88 10.31
12/22/2020 7:15:00 PM 9.96 49.928 1.051 7.87 8.94 10.25
12/22/2020 7:30:00 PM 9.9 49.82 1.044 7.86 9.25 10.19
12/22/2020 7:45:00 PM 9.84 49.712 1.036 7.86 8.51 10.14
12/22/2020 8:00:00 PM 9.77 49.586 1.029 7.85 8.4 10.11
12/22/2020 8:15:00 PM 9.71 49.478 1.024 7.84 8.69 10.07
12/22/2020 8:30:00 PM 9.65 49.37 1.019 7.83 8.07 10.03
12/22/2020 8:45:00 PM 9.6 49.28 1.015 7.83 8.01 10
12/22/2020 9:00:00 PM 9.55 49.19 1.012 7.83 7.96 9.95
12/22/2020 9:15:00 PM 9.5 49.1 1.011 7.82 8.23 9.94
12/22/2020 9:30:00 PM 9.45 49.01 1.01 7.81 8.15 9.91
12/22/2020 9:45:00 PM 9.4 48.92 1.012 7.81 8.14 9.9
12/22/2020 10:00:00 PM 9.37 48.866 1.016 7.8 8.54 9.89
12/22/2020 10:15:00 PM 9.34 48.812 1.021 7.79 8.35 9.88
12/22/2020 10:30:00 PM 9.32 48.776 1.025 7.79 8.67 9.87
12/22/2020 10:45:00 PM 9.29 48.722 1.029 7.79 9.01 9.87
12/22/2020 11:00:00 PM 9.25 48.65 1.034 7.8 8.56 9.87
12/22/2020 11:15:00 PM 9.21 48.578 1.038 7.78 8.77 9.87
12/22/2020 11:30:00 PM 9.16 48.488 1.043 7.79 8.9 9.88
12/22/2020 11:45:00 PM 9.1 48.38 1.046 7.79 8.41 9.89
12/23/2020 12:00:00 AM 9.05 48.29 1.048 7.78 9.26 9.89
12/23/2020 12:15:00 AM 8.99 48.182 1.049 7.78 8.86 9.91
12/23/2020 12:30:00 AM 8.94 48.092 1.05 7.78 8.81 9.92
12/23/2020 12:45:00 AM 8.88 47.984 0.98 7.79 9.18 9.93
12/23/2020 1:00:00 AM 8.83 47.894 1.052 7.79 9.08 9.94
12/23/2020 1:15:00 AM 8.78 47.804 1.052 7.79 8.91 9.96
12/23/2020 1:30:00 AM 8.73 47.714 1.053 7.78 8.78 9.98
12/23/2020 1:45:00 AM 8.69 47.642 1.054 7.79 9.12 9.99
12/23/2020 2:00:00 AM 8.64 47.552 1.054 7.79 9.44 10
12/23/2020 2:15:00 AM 8.6 47.48 1.051 7.8 8.95 10.02
12/23/2020 2:30:00 AM 8.56 47.408 1.048 7.79 9.16 10.03
12/23/2020 2:45:00 AM 8.51 47.318 1.045 7.79 9.66 10.04
12/23/2020 3:00:00 AM 8.46 47.228 1.041 7.79 9.89 10.06
12/23/2020 3:15:00 AM 8.42 47.156 1.037 7.8 9.46 10.07
12/23/2020 3:30:00 AM 8.36 47.048 1.032 7.8 9.17 10.09
12/23/2020 3:45:00 AM 8.32 46.976 1.027 7.8 8.68 10.12
12/23/2020 4:00:00 AM 8.27 46.886 1.021 7.8 8.58 10.14
12/23/2020 4:15:00 AM 8.22 46.796 1.017 7.81 8.75 10.16
12/23/2020 4:30:00 AM 8.17 46.706 1.012 7.81 8.74 10.19
12/23/2020 4:45:00 AM 8.12 46.616 1.007 7.81 8.81 10.21
12/23/2020 5:00:00 AM 8.07 46.526 1.003 7.82 8.42 10.24
12/23/2020 5:15:00 AM 8.01 46.418 0.996 7.82 8 10.26
12/23/2020 5:30:00 AM 7.96 46.328 0.99 7.82 8.2 10.27
12/23/2020 5:45:00 AM 7.91 46.238 0.982 7.82 8.27 10.3
12/23/2020 6:00:00 AM 7.86 46.148 0.974 7.83 7.84 10.32
12/23/2020 6:15:00 AM 7.81 46.058 0.967 7.82 7.81 10.34
12/23/2020 6:30:00 AM 7.77 45.986 0.96 7.83 7.8 10.36
12/23/2020 6:45:00 AM 7.72 45.896 0.953 7.83 7.93 10.39
12/23/2020 7:00:00 AM 7.67 45.806 0.949 7.82 7.64 10.42
12/23/2020 7:15:00 AM 7.63 45.734 0.944 7.84 7.44 10.45
12/23/2020 7:30:00 AM 7.58 45.644 0.94 7.83 7.55 10.48
12/23/2020 7:45:00 AM 7.55 45.59 0.936 7.83 7.26 10.53
12/23/2020 8:00:00 AM 7.51 45.518 0.933 7.84 7.56 10.6
12/23/2020 8:15:00 AM 7.49 45.482 0.932 7.85 7.52 10.68
12/23/2020 8:30:00 AM 7.49 45.482 0.932 7.86 7.66 10.77
12/23/2020 8:45:00 AM 7.5 45.5 0.934 7.86 8.21 10.85
12/23/2020 9:00:00 AM 7.51 45.518 0.935 7.88 7.77 10.95
12/23/2020 9:15:00 AM 7.54 45.572 0.937 7.89 8.18 11.06
12/23/2020 9:30:00 AM 7.59 45.662 0.937 7.9 8.08 11.15
12/23/2020 9:45:00 AM 7.65 45.77 0.935 7.9 7.74 11.26
12/23/2020 10:00:00 AM 7.71 45.878 0.933 7.91 7.78 11.38
12/23/2020 10:15:00 AM 7.79 46.022 0.93 7.93 7.75 11.5
12/23/2020 10:30:00 AM 7.87 46.166 0.926 7.95 7.51 11.59
12/23/2020 10:45:00 AM 7.96 46.328 0.922 7.95 7.5 11.69
12/23/2020 11:00:00 AM 8.06 46.508 0.919 7.97 7.41 11.79
12/23/2020 11:15:00 AM 8.16 46.688 0.919 7.97 7.63 11.86
12/23/2020 11:30:00 AM 8.28 46.904 0.922 7.98 7.47 11.94
12/23/2020 11:45:00 AM 8.4 47.12 0.928 7.98 7.51 11.99
12/23/2020 12:00:00 PM 8.53 47.354 0.94 7.99 8.09 12.02
12/23/2020 12:15:00 PM 8.67 47.606 0.956 8 8.15 12.08
12/23/2020 12:30:00 PM 8.79 47.822 0.974 8 8.15 12.11
12/23/2020 12:45:00 PM 8.93 48.074 0.992 8 8.07 12.15
12/23/2020 1:00:00 PM 9.05 48.29 1.009 8.01 7.44 12.18
12/23/2020 1:15:00 PM 9.18 48.524 1.023 8.01 8.1 12.22
12/23/2020 1:30:00 PM 9.31 48.758 1.035 8.02 7.18 12.26
12/23/2020 1:45:00 PM 9.43 48.974 1.047 8.02 8.15 12.27
12/23/2020 2:00:00 PM 9.53 49.154 1.059 8.03 7.53 12.23
12/23/2020 2:15:00 PM 9.62 49.316 1.071 8.04 7 12.21
12/23/2020 2:30:00 PM 9.71 49.478 1.083 8.03 7.41 12.22
12/23/2020 2:45:00 PM 9.79 49.622 1.092 8.04 7.14 12.19
12/23/2020 3:00:00 PM 9.83 49.694 1.098 8.03 6.68 12.12
12/23/2020 3:15:00 PM 9.87 49.766 1.103 8.02 7.17 12.02
12/23/2020 3:30:00 PM 9.9 49.82 1.105 8.02 7.18 11.95
12/23/2020 3:45:00 PM 9.93 49.874 1.105 8.03 6.95 11.87
12/23/2020 4:00:00 PM 9.95 49.91 1.104 8.01 6.68 11.79
12/23/2020 4:15:00 PM 9.95 49.91 1.103 8 6.8 11.65
12/23/2020 4:30:00 PM 9.95 49.91 1.102 7.99 6.6 11.51
12/23/2020 4:45:00 PM 9.94 49.892 1.101 7.99 6.59 11.39
12/23/2020 5:00:00 PM 9.92 49.856 1.098 7.98 6.53 11.27
12/23/2020 5:15:00 PM 9.9 49.82 1.093 7.97 6.9 11.17
12/23/2020 5:30:00 PM 9.87 49.766 1.086 7.97 7.48 11.07
12/23/2020 5:45:00 PM 9.83 49.694 1.076 7.96 7.39 11
12/23/2020 6:00:00 PM 9.78 49.604 1.065 7.96 7.63 10.92
12/23/2020 6:15:00 PM 9.73 49.514 1.054 7.94 7.41 10.86
12/23/2020 6:30:00 PM 9.68 49.424 1.045 7.94 7.1 10.78
12/23/2020 6:45:00 PM 9.64 49.352 1.037 7.94 6.94 10.72
12/23/2020 7:00:00 PM 9.58 49.244 1.031 7.93 6.82 10.65
12/23/2020 7:15:00 PM 9.53 49.154 1.028 7.93 6.71 10.58
12/23/2020 7:30:00 PM 9.48 49.064 1.025 7.92 6.54 10.51
12/23/2020 7:45:00 PM 9.43 48.974 1.023 7.91 6.62 10.45
12/23/2020 8:00:00 PM 9.39 48.902 1.019 7.91 6.67 10.38
12/23/2020 8:15:00 PM 9.34 48.812 1.016 7.89 6.56 10.33
12/23/2020 8:30:00 PM 9.29 48.722 1.012 7.88 6.29 10.29
12/23/2020 8:45:00 PM 9.24 48.632 1.011 7.88 6.01 10.24
12/23/2020 9:00:00 PM 9.21 48.578 1.011 7.88 6.03 10.2
12/23/2020 9:15:00 PM 9.17 48.506 1.012 7.88 6.04 10.15
12/23/2020 9:30:00 PM 9.14 48.452 1.013 7.87 6.11 10.12
12/23/2020 9:45:00 PM 9.11 48.398 1.014 7.86 5.66 10.1
12/23/2020 10:00:00 PM 9.08 48.344 1.014 7.86 6.03 10.07
12/23/2020 10:15:00 PM 9.06 48.308 1.016 7.85 5.93 10.06
12/23/2020 10:30:00 PM 9.04 48.272 1.018 7.85 6.31 10.05
12/23/2020 10:45:00 PM 9.03 48.254 1.021 7.85 5.97 10.03
12/23/2020 11:00:00 PM 9.01 48.218 1.025 7.85 5.86 10.03
12/23/2020 11:15:00 PM 9 48.2 1.028 7.85 5.73 10.02
12/23/2020 11:30:00 PM 8.98 48.164 1.032 7.85 5.95 10.01
12/23/2020 11:45:00 PM 8.97 48.146 1.035 7.84 5.82 10.01
12/24/2020 12:00:00 AM 8.95 48.11 1.037 7.84 5.87 10.01
12/24/2020 12:15:00 AM 8.93 48.074 1.038 7.85 5.97 10.01
12/24/2020 12:30:00 AM 8.91 48.038 1.036 7.84 6.15 10.01
12/24/2020 12:45:00 AM 8.89 48.002 1.035 7.85 7.13 10.01
12/24/2020 1:00:00 AM 8.88 47.984 1.034 7.83 7.27 10.01
12/24/2020 1:15:00 AM 8.88 47.984 1.033 7.83 6.88 10.02
12/24/2020 1:30:00 AM 8.88 47.984 1.032 7.84 6.3 10.01
12/24/2020 1:45:00 AM 8.9 48.02 1.03 7.84 6.05 10.01
12/24/2020 2:00:00 AM 8.91 48.038 1.028 7.84 6.06 10.01
12/24/2020 2:15:00 AM 8.93 48.074 1.027 7.83 6.12 10.01
12/24/2020 2:30:00 AM 8.94 48.092 1.024 7.84 6.14 10.01
12/24/2020 2:45:00 AM 8.95 48.11 1.021 7.85 6.24 10.01
12/24/2020 3:00:00 AM 8.96 48.128 1.019 7.84 5.97 10.01
12/24/2020 3:15:00 AM 8.97 48.146 1.017 7.84 6.19 10.01
12/24/2020 3:30:00 AM 8.97 48.146 1.013 7.83 6.25 10.01
12/24/2020 3:45:00 AM 8.98 48.164 1.01 7.84 6.15 10.01
12/24/2020 4:00:00 AM 8.98 48.164 1.006 7.83 6.26 10.01
12/24/2020 4:15:00 AM 8.99 48.182 1.002 7.85 6.23 10
12/24/2020 4:30:00 AM 8.99 48.182 0.998 7.85 6.19 10.01
12/24/2020 4:45:00 AM 9 48.2 0.994 7.84 6.33 10.01
12/24/2020 5:00:00 AM 9.01 48.218 0.99 7.85 6.19 10.01
12/24/2020 5:15:00 AM 9.01 48.218 0.987 7.85 6.63 10.01
12/24/2020 5:30:00 AM 9.01 48.218 0.984 7.84 6.87 10
12/24/2020 5:45:00 AM 9.02 48.236 0.982 7.84 6.8 10
12/24/2020 6:00:00 AM 9.03 48.254 0.977 7.85 7.37 9.99
12/24/2020 6:15:00 AM 9.03 48.254 0.971 7.84 7.77 9.99
12/24/2020 6:30:00 AM 9.04 48.272 0.965 7.85 7.67 10
12/24/2020 6:45:00 AM 9.05 48.29 0.958 7.85 7.72 10
12/24/2020 7:00:00 AM 9.05 48.29 0.951 7.86 7.65 10
12/24/2020 7:15:00 AM 9.06 48.308 0.946 7.86 7.55 10
12/24/2020 7:30:00 AM 9.07 48.326 0.94 7.85 7.23 10.01
12/24/2020 7:45:00 AM 9.08 48.344 0.933 7.85 7.23 10.02
12/24/2020 8:00:00 AM 9.09 48.362 0.928 7.85 7 10.05
12/24/2020 8:15:00 AM 9.11 48.398 0.924 7.85 6.91 10.09
12/24/2020 8:30:00 AM 9.14 48.452 0.921 7.87 6.25 10.12
12/24/2020 8:45:00 AM 9.18 48.524 0.918 7.86 6.25 10.16
12/24/2020 9:00:00 AM 9.21 48.578 0.916 7.86 6.12 10.17
12/24/2020 9:15:00 AM 9.24 48.632 0.914 7.88 6.07 10.18
12/24/2020 9:30:00 AM 9.27 48.686 0.91 7.87 6.19 10.2
12/24/2020 9:45:00 AM 9.31 48.758 0.906 7.87 6.06 10.23
12/24/2020 10:00:00 AM 9.35 48.83 0.902 7.88 6.1 10.28
12/24/2020 10:15:00 AM 9.39 48.902 0.898 7.89 5.86 10.35
12/24/2020 10:30:00 AM 9.45 49.01 0.893 7.89 5.96 10.48
12/24/2020 10:45:00 AM 9.53 49.154 0.887 7.91 6.02 10.68
12/24/2020 11:00:00 AM 9.61 49.298 0.883 7.92 6.2 10.79
12/24/2020 11:15:00 AM 9.68 49.424 0.88 7.92 6.33 10.81
12/24/2020 11:30:00 AM 9.75 49.55 0.878 7.92 6.18 10.81
12/24/2020 11:45:00 AM 9.82 49.676 0.878 7.93 6.34 10.83
12/24/2020 12:00:00 PM 9.89 49.802 0.881 7.92 6.44 10.83
12/24/2020 12:15:00 PM 9.96 49.928 0.886 7.93 6.39 10.82
12/24/2020 12:30:00 PM 10.04 50.072 0.897 7.93 6.32 10.84
12/24/2020 12:45:00 PM 10.13 50.234 0.911 7.93 6.4 10.85
12/24/2020 1:00:00 PM 10.21 50.378 0.93 7.92 6.57 10.77
12/24/2020 1:15:00 PM 10.29 50.522 0.948 7.91 6.67 10.68
12/24/2020 1:30:00 PM 10.36 50.648 0.963 7.91 6.96 10.61
12/24/2020 1:45:00 PM 10.44 50.792 0.974 7.9 7.44 10.56
12/24/2020 2:00:00 PM 10.51 50.918 0.985 7.9 7.66 10.52
12/24/2020 2:15:00 PM 10.59 51.062 0.994 7.9 8.23 10.52
12/24/2020 2:30:00 PM 10.64 51.152 0.998 7.89 8.14 10.5
12/24/2020 2:45:00 PM 10.67 51.206 0.992 7.89 8.92 10.47
12/24/2020 3:00:00 PM 10.69 51.242 0.982 7.88 10.49 10.43
12/24/2020 3:15:00 PM 10.66 51.188 0.969 7.87 12.49 10.38
12/24/2020 3:30:00 PM 10.66 51.188 0.959 7.86 12.74 10.32
12/24/2020 3:45:00 PM 10.66 51.188 0.952 7.86 14.78 10.27
12/24/2020 4:00:00 PM 10.63 51.134 0.942 7.85 15.97 10.21
12/24/2020 4:15:00 PM 10.6 51.08 0.931 7.84 17.84 10.15
12/24/2020 4:30:00 PM 10.61 51.098 0.923 7.82 22.9 10.09
12/24/2020 4:45:00 PM 10.6 51.08 0.91 7.82 30.25 10.03
12/24/2020 5:00:00 PM 10.54 50.972 0.886 7.81 33.95 10.01
12/24/2020 5:15:00 PM 10.42 50.756 0.859 7.79 55.91 10.04
12/24/2020 5:30:00 PM 10.32 50.576 0.834 7.77 55.15 10.05
12/24/2020 5:45:00 PM 10.19 50.342 0.811 7.74 69.51 10.06
12/24/2020 6:00:00 PM 10.02 50.036 0.786 7.72 66.85 10.08
12/24/2020 6:15:00 PM 9.79 49.622 0.747 7.67 112.61 10.13
12/24/2020 6:30:00 PM 9.51 49.118 0.694 7.64 98.66 10.22
12/24/2020 6:45:00 PM 9.24 48.632 0.636 7.59 121.7 10.32
12/24/2020 7:00:00 PM 8.96 48.128 0.575 7.58 146.66 10.42
12/24/2020 7:15:00 PM 8.72 47.696 0.53 7.58 124 10.51
12/24/2020 7:30:00 PM 8.52 47.336 0.492 7.55 114.43 10.6
12/24/2020 7:45:00 PM 8.34 47.012 0.465 7.55 120.96 10.65
12/24/2020 8:00:00 PM 8.21 46.778 0.448 7.55 133.28 10.72
12/24/2020 8:15:00 PM 8.18 46.724 0.433 7.56 138.23 10.76
12/24/2020 8:30:00 PM 8.25 46.85 0.421 7.54 145.75 10.74
12/24/2020 8:45:00 PM 8.38 47.084 0.402 7.53 157.85 10.67
12/24/2020 9:00:00 PM 8.48 47.264 0.382 7.54 125.58 10.63
12/24/2020 9:15:00 PM 8.54 47.372 0.365 7.55 108.68 10.62
12/24/2020 9:30:00 PM 8.56 47.408 0.358 7.55 100.53 10.63
12/24/2020 9:45:00 PM 8.56 47.408 0.356 7.55 86.61 10.64
12/24/2020 10:00:00 PM 8.58 47.444 0.359 7.54 89.19 10.64
12/24/2020 10:15:00 PM 8.62 47.516 0.365 7.54 75.29 10.62
12/24/2020 10:30:00 PM 8.71 47.678 0.373 7.54 102.39 10.58
12/24/2020 10:45:00 PM 8.84 47.912 0.379 7.52 92.84 10.52
12/24/2020 11:00:00 PM 8.98 48.164 0.387 7.52 85.02 10.46
12/24/2020 11:15:00 PM 9.13 48.434 0.398 7.52 96.46 10.39
12/24/2020 11:30:00 PM 9.28 48.704 0.399 7.52 105.72 10.34
12/24/2020 11:45:00 PM 9.41 48.938 0.394 7.51 99.73 10.29
12/25/2020 12:00:00 AM 9.52 49.136 0.392 7.53 83.76 10.26
12/25/2020 12:15:00 AM 9.62 49.316 0.391 7.51 87.6 10.22
12/25/2020 12:30:00 AM 9.71 49.478 0.392 7.53 73.28 10.16
12/25/2020 12:45:00 AM 9.76 49.568 0.39 7.52 73.92 10.14
12/25/2020 1:00:00 AM 9.85 49.73 0.385 7.53 70.47 10.14
12/25/2020 1:15:00 AM 9.94 49.892 0.372 7.52 75.5 10.15
12/25/2020 1:30:00 AM 9.89 49.802 0.378 7.52 69.93 10.16
12/25/2020 1:45:00 AM 9.88 49.784 0.382 7.52 67.77 10.15
12/25/2020 2:00:00 AM 9.91 49.838 0.393 7.52 73.76 10.14
12/25/2020 2:15:00 AM 9.91 49.838 0.391 7.51 114.77 10.13
12/25/2020 2:30:00 AM 10.02 50.036 0.39 7.51 138.13 10.09
12/25/2020 2:45:00 AM 10.31 50.558 0.372 7.51 192.02 10
12/25/2020 3:00:00 AM 10.58 51.044 0.327 7.51 208.67 9.85
12/25/2020 3:15:00 AM 10.73 51.314 0.284 7.52 202.48 9.8
12/25/2020 3:30:00 AM 10.68 51.224 0.266 7.48 200.67 9.81
12/25/2020 3:45:00 AM 10.61 51.098 0.262 7.45 225.38 9.8
12/25/2020 4:00:00 AM 10.57 51.026 0.262 7.41 232.29 9.79
12/25/2020 4:15:00 AM 10.55 50.99 0.261 7.39 242.46 9.78
12/25/2020 4:30:00 AM 10.51 50.918 0.262 7.39 222.85 9.78
12/25/2020 4:45:00 AM 10.47 50.846 0.269 7.41 168.95 9.78
12/25/2020 5:00:00 AM 10.42 50.756 0.279 7.43 173.29 9.78
12/25/2020 5:15:00 AM 10.36 50.648 0.292 7.44 143.7 9.77
12/25/2020 5:30:00 AM 10.31 50.558 0.306 7.44 121.65 9.77
12/25/2020 5:45:00 AM 10.25 50.45 0.319 7.46 100.99 9.77
12/25/2020 6:00:00 AM 10.2 50.36 0.332 7.47 78.47 9.78
12/25/2020 6:15:00 AM 10.15 50.27 0.344 7.45 97.45 9.78
12/25/2020 6:30:00 AM 10.11 50.198 0.35 7.46 95.49 9.8
12/25/2020 6:45:00 AM 10.04 50.072 0.353 7.45 68.32 9.83
12/25/2020 7:00:00 AM 9.96 49.928 0.355 7.46 76.18 9.86
12/25/2020 7:15:00 AM 9.89 49.802 0.36 7.48 72.66 9.87
12/25/2020 7:30:00 AM 9.83 49.694 0.366 7.47 76.64 9.89
12/25/2020 7:45:00 AM 9.77 49.586 0.373 7.47 61.76 9.9
12/25/2020 8:00:00 AM 9.71 49.478 0.379 7.46 58.89 9.93
12/25/2020 8:15:00 AM 9.65 49.37 0.385 7.48 54.5 9.95
12/25/2020 8:30:00 AM 9.59 49.262 0.391 7.47 50.45 9.96
12/25/2020 8:45:00 AM 9.55 49.19 0.402 7.48 51.95 9.99
12/25/2020 9:00:00 AM 9.53 49.154 0.413 7.49 51.1 10
12/25/2020 9:15:00 AM 9.5 49.1 0.42 7.5 44.22 10.02
12/25/2020 9:30:00 AM 9.47 49.046 0.435 7.5 38.87 10.03
12/25/2020 9:45:00 AM 9.44 48.992 0.441 7.52 39.82 10.05
12/25/2020 10:00:00 AM 9.39 48.902 0.446 7.51 34.45 10.08
12/25/2020 10:15:00 AM 9.36 48.848 0.452 7.51 33.71 10.1
12/25/2020 10:30:00 AM 9.33 48.794 0.46 7.51 33.89 10.12
12/25/2020 10:45:00 AM 9.3 48.74 0.467 7.52 34.94 10.14
12/25/2020 11:00:00 AM 9.27 48.686 0.473 7.53 33.95 10.16
12/25/2020 11:15:00 AM 9.24 48.632 0.478 7.52 36.3 10.18
12/25/2020 11:30:00 AM 9.22 48.596 0.486 7.54 32.8 10.2
12/25/2020 11:45:00 AM 9.2 48.56 0.492 7.54 28.36 10.22
12/25/2020 12:00:00 PM 9.18 48.524 0.498 7.56 27.72 10.24
12/25/2020 12:15:00 PM 9.17 48.506 0.503 7.56 27.64 10.28
12/25/2020 12:30:00 PM 9.16 48.488 0.508 7.56 23.61 10.29
12/25/2020 12:45:00 PM 9.15 48.47 0.512 7.56 26.06 10.3
12/25/2020 1:00:00 PM 9.11 48.398 0.515 7.55 24.79 10.34
12/25/2020 1:15:00 PM 9.09 48.362 0.518 7.58 22.94 10.37
12/25/2020 1:30:00 PM 9.05 48.29 0.521 7.57 22.5 10.4
12/25/2020 1:45:00 PM 9.03 48.254 0.525 7.59 24.62 10.42
12/25/2020 2:00:00 PM 9 48.2 0.527 7.58 20 10.44
12/25/2020 2:15:00 PM 8.98 48.164 0.528 7.59 20.66 10.46
12/25/2020 2:30:00 PM 8.96 48.128 0.531 7.59 20.4 10.48
12/25/2020 2:45:00 PM 8.94 48.092 0.534 7.59 20.09 10.52
12/25/2020 3:00:00 PM 8.91 48.038 0.536 7.59 19.97 10.53
12/25/2020 3:15:00 PM 8.87 47.966 0.537 7.61 20.09 10.53
12/25/2020 3:30:00 PM 8.83 47.894 0.539 7.6 16.37 10.55
12/25/2020 3:45:00 PM 8.8 47.84 0.541 7.6 19.34 10.56
12/25/2020 4:00:00 PM 8.76 47.768 0.542 7.62 17.04 10.56
12/25/2020 4:15:00 PM 8.72 47.696 0.543 7.6 14.51 10.57
12/25/2020 4:30:00 PM 8.68 47.624 0.544 7.6 17.56 10.58
12/25/2020 4:45:00 PM 8.63 47.534 0.547 7.61 15.46 10.58
12/25/2020 5:00:00 PM 8.59 47.462 0.547 7.6 16.04 10.58
12/25/2020 5:15:00 PM 8.54 47.372 0.548 7.61 16.37 10.58
12/25/2020 5:30:00 PM 8.5 47.3 0.549 7.62 15.19 10.58
12/25/2020 5:45:00 PM 8.46 47.228 0.55 7.62 15.51 10.58
12/25/2020 6:00:00 PM 8.41 47.138 0.55 7.62 14.19 10.56
12/25/2020 6:15:00 PM 8.38 47.084 0.55 7.62 13.58 10.56
12/25/2020 6:30:00 PM 8.32 46.976 0.552 7.62 14.19 10.57
12/25/2020 6:45:00 PM 8.28 46.904 0.553 7.61 14.74 10.58
12/25/2020 7:00:00 PM 8.25 46.85 0.554 7.6 34.37 10.58
12/25/2020 7:15:00 PM 8.2 46.76 0.554 7.6 14.87 10.59
12/25/2020 7:30:00 PM 8.16 46.688 0.554 7.62 13.95 10.6
12/25/2020 7:45:00 PM 8.1 46.58 0.555 7.61 13.46 10.62
12/25/2020 8:00:00 PM 8.06 46.508 0.557 7.61 14.24 10.63
12/25/2020 8:15:00 PM 8.02 46.436 0.557 7.62 14.13 10.64
12/25/2020 8:30:00 PM 7.98 46.364 0.558 7.62 13.28 10.65
12/25/2020 8:45:00 PM 7.93 46.274 0.559 7.61 13.3 10.66
12/25/2020 9:00:00 PM 7.88 46.184 0.559 7.61 13.52 10.67
12/25/2020 9:15:00 PM 7.84 46.112 0.56 7.61 12.22 10.68
12/25/2020 9:30:00 PM 7.8 46.04 0.561 7.63 12.89 10.7
12/25/2020 9:45:00 PM 7.75 45.95 0.562 7.62 12.79 10.71
12/25/2020 10:00:00 PM 7.71 45.878 0.564 7.62 12.23 10.73
12/25/2020 10:15:00 PM 7.67 45.806 0.566 7.6 12.32 10.74
12/25/2020 10:30:00 PM 7.62 45.716 0.566 7.6 12.61 10.76
12/25/2020 10:45:00 PM 7.58 45.644 0.566 7.61 11.85 10.78
12/25/2020 11:00:00 PM 7.53 45.554 0.566 7.62 11.59 10.81
12/25/2020 11:15:00 PM 7.5 45.5 0.566 7.62 12.18 10.82
12/25/2020 11:30:00 PM 7.46 45.428 0.567 7.63 12.05 10.84
12/25/2020 11:45:00 PM 7.43 45.374 0.568 7.63 11.71 10.85
12/26/2020 12:00:00 AM 7.39 45.302 0.568 7.64 11.77 10.86
12/26/2020 12:15:00 AM 7.35 45.23 0.569 7.64 11.76 10.87
12/26/2020 12:30:00 AM 7.3 45.14 0.569 7.63 11.17 10.88
12/26/2020 12:45:00 AM 7.26 45.068 0.57 7.62 11.3 10.9
12/26/2020 1:00:00 AM 7.23 45.014 0.57 7.62 10.94 10.9
12/26/2020 1:15:00 AM 7.19 44.942 0.57 7.65 11.23 10.93
12/26/2020 1:30:00 AM 7.15 44.87 0.571 7.63 10.42 10.94
12/26/2020 1:45:00 AM 7.11 44.798 0.571 7.63 10.59 10.96
12/26/2020 2:00:00 AM 7.08 44.744 0.572 7.64 10.57 10.98
12/26/2020 2:15:00 AM 7.04 44.672 0.573 7.65 10.65 10.99
12/26/2020 2:30:00 AM 7.01 44.618 0.573 7.64 11.62 11.01
12/26/2020 2:45:00 AM 6.98 44.564 0.574 7.66 11.17 11.02
12/26/2020 3:00:00 AM 6.95 44.51 0.574 7.64 11.02 11.04
12/26/2020 3:15:00 AM 6.92 44.456 0.574 7.66 10.67 11.05
12/26/2020 3:30:00 AM 6.89 44.402 0.574 7.66 10.84 11.07
12/26/2020 3:45:00 AM 6.87 44.366 0.574 7.66 10.49 11.08
12/26/2020 4:00:00 AM 6.85 44.33 0.575 7.65 10.87 11.08
12/26/2020 4:15:00 AM 6.84 44.312 0.575 7.64 10.39 11.09
12/26/2020 4:30:00 AM 6.82 44.276 0.575 7.66 10.36 11.1
12/26/2020 4:45:00 AM 6.81 44.258 0.576 7.66 10.46 11.1
12/26/2020 5:00:00 AM 6.81 44.258 0.578 7.65 10.76 11.1
12/26/2020 5:15:00 AM 6.8 44.24 0.578 7.65 10.39 11.11
12/26/2020 5:30:00 AM 6.81 44.258 0.58 7.66 11.23 11.11
12/26/2020 5:45:00 AM 6.8 44.24 0.58 7.67 10.57 11.11
12/26/2020 6:00:00 AM 6.8 44.24 0.581 7.67 10.4 11.11
12/26/2020 6:15:00 AM 6.78 44.204 0.582 7.67 10.03 11.12
12/26/2020 6:30:00 AM 6.77 44.186 0.582 7.69 10.83 11.12
12/26/2020 6:45:00 AM 6.76 44.168 0.582 7.66 9.99 11.14
12/26/2020 7:00:00 AM 6.74 44.132 0.583 7.67 10.76 11.14
12/26/2020 7:15:00 AM 6.73 44.114 0.582 7.68 10.53 11.15
12/26/2020 7:30:00 AM 6.71 44.078 0.583 7.68 9.81 11.16
12/26/2020 7:45:00 AM 6.69 44.042 0.583 7.69 10.15 11.17
12/26/2020 8:00:00 AM 6.69 44.042 0.584 7.68 9.7 11.2
12/26/2020 8:15:00 AM 6.69 44.042 0.584 7.69 9.46 11.23
12/26/2020 8:30:00 AM 6.7 44.06 0.585 7.69 9.08 11.25
12/26/2020 8:45:00 AM 6.71 44.078 0.586 7.69 9.43 11.28
12/26/2020 9:00:00 AM 6.72 44.096 0.586 7.7 9.18 11.31
12/26/2020 9:15:00 AM 6.74 44.132 0.587 7.71 9.23 11.35
12/26/2020 9:30:00 AM 6.77 44.186 0.588 7.7 9.37 11.39
12/26/2020 9:45:00 AM 6.8 44.24 0.589 7.69 9.57 11.41
12/26/2020 10:00:00 AM 6.84 44.312 0.591 7.71 9.64 11.46
12/26/2020 10:15:00 AM 6.89 44.402 0.593 7.73 9.6 11.48
12/26/2020 10:30:00 AM 6.96 44.528 0.596 7.73 9.43 11.51
12/26/2020 10:45:00 AM 7.03 44.654 0.6 7.74 8.98 11.52
12/26/2020 11:00:00 AM 7.1 44.78 0.602 7.74 9.84 11.54
12/26/2020 11:15:00 AM 7.16 44.888 0.603 7.74 10.03 11.56
12/26/2020 11:30:00 AM 7.22 44.996 0.604 7.75 9.44 11.58
12/26/2020 11:45:00 AM 7.29 45.122 0.605 7.76 9.58 11.59
12/26/2020 12:00:00 PM 7.35 45.23 0.608 7.76 10.06 11.6
12/26/2020 12:15:00 PM 7.43 45.374 0.61 7.75 8.9 11.6
12/26/2020 12:30:00 PM 7.51 45.518 0.614 7.76 9.34 11.62
12/26/2020 12:45:00 PM 7.59 45.662 0.617 7.77 9.01 11.62
12/26/2020 1:00:00 PM 7.67 45.806 0.619 7.78 8.96 11.61
12/26/2020 1:15:00 PM 7.74 45.932 0.622 7.76 9.13 11.6
12/26/2020 1:30:00 PM 7.8 46.04 0.625 7.78 9.06 11.57
12/26/2020 1:45:00 PM 7.84 46.112 0.627 7.77 8.85 11.56
12/26/2020 2:00:00 PM 7.87 46.166 0.629 7.78 8.8 11.54
12/26/2020 2:15:00 PM 7.91 46.238 0.632 7.79 8.89 11.52
12/26/2020 2:30:00 PM 7.95 46.31 0.637 7.78 9.11 11.49
12/26/2020 2:45:00 PM 7.99 46.382 0.64 7.77 9.09 11.47
12/26/2020 3:00:00 PM 8.01 46.418 0.641 7.78 9.41 11.43
12/26/2020 3:15:00 PM 8.02 46.436 0.642 7.78 71.77 11.4
12/26/2020 3:30:00 PM 8.02 46.436 0.645 7.78 11.93 11.36
12/26/2020 3:45:00 PM 8.03 46.454 0.647 7.76 7.14 11.31
12/26/2020 4:00:00 PM 8.02 46.436 0.649 7.77 12.32 11.27
12/26/2020 4:15:00 PM 8.01 46.418 0.65 7.75 10.35 11.22
12/26/2020 4:30:00 PM 7.99 46.382 0.65 7.75 11.22 11.18
12/26/2020 4:45:00 PM 7.96 46.328 0.65 7.76 9.59 11.15
12/26/2020 5:00:00 PM 7.94 46.292 0.651 7.75 9.49 11.11
12/26/2020 5:15:00 PM 7.91 46.238 0.652 7.75 9.07 11.07
12/26/2020 5:30:00 PM 7.9 46.22 0.651 7.73 9 11.04
12/26/2020 5:45:00 PM 7.87 46.166 0.651 7.73 9.34 11.01
12/26/2020 6:00:00 PM 7.84 46.112 0.651 7.73 9.54 10.98
12/26/2020 6:15:00 PM 7.81 46.058 0.652 7.72 9.25 10.96
12/26/2020 6:30:00 PM 7.77 45.986 0.651 7.73 9.83 10.94
12/26/2020 6:45:00 PM 7.73 45.914 0.652 7.73 9.29 10.93
12/26/2020 7:00:00 PM 7.71 45.878 0.653 7.73 9.43 10.92
12/26/2020 7:15:00 PM 7.67 45.806 0.653 7.72 9.37 10.91
12/26/2020 7:30:00 PM 7.65 45.77 0.653 7.71 10.02 10.92
12/26/2020 7:45:00 PM 7.61 45.698 0.654 7.73 10.07 10.91
12/26/2020 8:00:00 PM 7.58 45.644 0.652 7.71 9.24 10.91
12/26/2020 8:15:00 PM 7.54 45.572 0.652 7.72 9.54 10.92
12/26/2020 8:30:00 PM 7.51 45.518 0.651 7.7 10.08 10.92
12/26/2020 8:45:00 PM 7.48 45.464 0.652 7.7 10.1 10.92
12/26/2020 9:00:00 PM 7.45 45.41 0.652 7.7 9.4 10.92
12/26/2020 9:15:00 PM 7.42 45.356 0.652 7.7 9.28 10.93
12/26/2020 9:30:00 PM 7.39 45.302 0.652 7.67 9.57 10.93
12/26/2020 9:45:00 PM 7.37 45.266 0.651 7.68 9.44 10.93
12/26/2020 10:00:00 PM 7.34 45.212 0.653 7.7 9.13 10.93
12/26/2020 10:15:00 PM 7.32 45.176 0.652 7.69 9.15 10.94
12/26/2020 10:30:00 PM 7.3 45.14 0.651 7.71 9.03 10.94
12/26/2020 10:45:00 PM 7.28 45.104 0.651 7.7 9.18 10.95
12/26/2020 11:00:00 PM 7.26 45.068 0.651 7.69 9.39 10.95
12/26/2020 11:15:00 PM 7.24 45.032 0.651 7.69 8.94 10.96
12/26/2020 11:30:00 PM 7.22 44.996 0.651 7.71 8.94 10.97
12/26/2020 11:45:00 PM 7.21 44.978 0.651 7.69 9.45 10.97
12/27/2020 12:00:00 AM 7.19 44.942 0.649 7.69 9.12 10.98
12/27/2020 12:15:00 AM 7.17 44.906 0.648 7.69 9.25 10.98
12/27/2020 12:30:00 AM 7.15 44.87 0.647 7.71 9.11 10.99
12/27/2020 12:45:00 AM 7.14 44.852 0.648 7.7 9.33 11
12/27/2020 1:00:00 AM 7.12 44.816 0.648 7.7 9.07 11.01
12/27/2020 1:15:00 AM 7.11 44.798 0.647 7.71 8.81 11.01
12/27/2020 1:30:00 AM 7.09 44.762 0.646 7.71 8.86 11.02
12/27/2020 1:45:00 AM 7.07 44.726 0.645 7.71 8.42 11.03
12/27/2020 2:00:00 AM 7.05 44.69 0.645 7.71 8.84 11.04
12/27/2020 2:15:00 AM 7.04 44.672 0.644 7.7 8.71 11.04
12/27/2020 2:30:00 AM 7.01 44.618 0.643 7.7 9.13 11.06
12/27/2020 2:45:00 AM 6.99 44.582 0.642 7.71 8.78 11.07
12/27/2020 3:00:00 AM 6.97 44.546 0.641 7.71 8.68 11.08
12/27/2020 3:15:00 AM 6.94 44.492 0.64 7.71 8.75 11.09
12/27/2020 3:30:00 AM 6.91 44.438 0.639 7.71 8.85 11.1
12/27/2020 3:45:00 AM 6.89 44.402 0.638 7.71 9.11 11.11
12/27/2020 4:00:00 AM 6.87 44.366 0.637 7.71 9.05 11.12
12/27/2020 4:15:00 AM 6.85 44.33 0.636 7.69 9.16 11.12
12/27/2020 4:30:00 AM 6.84 44.312 0.636 7.72 8.7 11.14
12/27/2020 4:45:00 AM 6.82 44.276 0.636 7.71 9.26 11.14
12/27/2020 5:00:00 AM 6.81 44.258 0.636 7.71 8.63 11.14
12/27/2020 5:15:00 AM 6.8 44.24 0.635 7.73 8.65 11.15
12/27/2020 5:30:00 AM 6.78 44.204 0.636 7.71 8.74 11.16
12/27/2020 5:45:00 AM 6.78 44.204 0.637 7.72 8.82 11.16
12/27/2020 6:00:00 AM 6.78 44.204 0.638 7.72 8.89 11.16
12/27/2020 6:15:00 AM 6.78 44.204 0.638 7.71 8.96 11.17
12/27/2020 6:30:00 AM 6.78 44.204 0.639 7.74 8.69 11.17
12/27/2020 6:45:00 AM 6.78 44.204 0.64 7.74 8.78 11.17
12/27/2020 7:00:00 AM 6.77 44.186 0.64 7.74 8.99 11.18
12/27/2020 7:15:00 AM 6.77 44.186 0.641 7.75 8.79 11.19
12/27/2020 7:30:00 AM 6.76 44.168 0.64 7.72 8.83 11.19
12/27/2020 7:45:00 AM 6.76 44.168 0.639 7.73 9.23 11.22
12/27/2020 8:00:00 AM 6.75 44.15 0.64 7.74 8.49 11.24
12/27/2020 8:15:00 AM 6.76 44.168 0.64 7.75 8.16 11.27
12/27/2020 8:30:00 AM 6.77 44.186 0.641 7.74 7.48 11.3
12/27/2020 8:45:00 AM 6.78 44.204 0.64 7.75 7.95 11.33
12/27/2020 9:00:00 AM 6.81 44.258 0.642 7.75 7.65 11.38
12/27/2020 9:15:00 AM 6.83 44.294 0.642 7.76 7.78 11.42
12/27/2020 9:30:00 AM 6.88 44.384 0.643 7.76 7.83 11.48
12/27/2020 9:45:00 AM 6.94 44.492 0.644 7.78 7.67 11.53
12/27/2020 10:00:00 AM 7 44.6 0.645 7.79 8.37 11.56
12/27/2020 10:15:00 AM 7.07 44.726 0.647 7.79 7.87 11.6
12/27/2020 10:30:00 AM 7.15 44.87 0.648 7.8 8.73 11.62
12/27/2020 10:45:00 AM 7.25 45.05 0.65 7.8 8.21 11.64
12/27/2020 11:00:00 AM 7.35 45.23 0.652 7.82 8.53 11.66
12/27/2020 11:15:00 AM 7.46 45.428 0.655 7.8 8.62 11.68
12/27/2020 11:30:00 AM 7.58 45.644 0.659 7.81 8.13 11.7
12/27/2020 11:45:00 AM 7.71 45.878 0.663 7.81 8.22 11.7
12/27/2020 12:00:00 PM 7.82 46.076 0.666 7.81 8.53 11.69
12/27/2020 12:15:00 PM 7.94 46.292 0.671 7.81 8.74 11.68
12/27/2020 12:30:00 PM 8.05 46.49 0.674 7.82 8.47 11.67
12/27/2020 12:45:00 PM 8.15 46.67 0.678 7.82 8.49 11.66
12/27/2020 1:00:00 PM 8.26 46.868 0.682 7.82 8.3 11.64
12/27/2020 1:15:00 PM 8.35 47.03 0.684 7.82 8.09 11.6
12/27/2020 1:30:00 PM 8.44 47.192 0.687 7.83 7.8 11.57
12/27/2020 1:45:00 PM 8.52 47.336 0.69 7.83 7.69 11.55
12/27/2020 2:00:00 PM 8.6 47.48 0.691 7.82 8.05 11.53
12/27/2020 2:15:00 PM 8.67 47.606 0.693 7.83 7.92 11.49
12/27/2020 2:30:00 PM 8.72 47.696 0.695 7.82 8.19 11.45
12/27/2020 2:45:00 PM 8.74 47.732 0.695 7.81 8.05 11.42
12/27/2020 3:00:00 PM 8.7 47.66 0.692 7.82 8.77 11.41
12/27/2020 3:15:00 PM 8.71 47.678 0.693 7.81 7.93 11.35
12/27/2020 3:30:00 PM 8.76 47.768 0.696 7.82 7.98 11.28
12/27/2020 3:45:00 PM 8.79 47.822 0.697 7.82 8.22 11.22
12/27/2020 4:00:00 PM 8.82 47.876 0.696 7.8 7.79 11.18
12/27/2020 4:15:00 PM 8.84 47.912 0.697 7.79 7.81 11.13
12/27/2020 4:30:00 PM 8.87 47.966 0.698 7.79 7.7 11.09
12/27/2020 4:45:00 PM 8.88 47.984 0.698 7.8 7.45 11.03
12/27/2020 5:00:00 PM 8.89 48.002 0.7 7.79 7.46 10.98
12/27/2020 5:15:00 PM 8.88 47.984 0.699 7.79 7.75 10.94
12/27/2020 5:30:00 PM 8.86 47.948 0.698 7.78 8.26 10.91
12/27/2020 5:45:00 PM 8.84 47.912 0.698 7.78 8.08 10.88
12/27/2020 6:00:00 PM 8.81 47.858 0.697 7.77 8.05 10.86
12/27/2020 6:15:00 PM 8.78 47.804 0.697 7.77 8.34 10.84
12/27/2020 6:30:00 PM 8.74 47.732 0.695 7.78 8.12 10.82
12/27/2020 6:45:00 PM 8.7 47.66 0.695 7.78 8.95 10.8
12/27/2020 7:00:00 PM 8.66 47.588 0.694 7.76 8.85 10.78
12/27/2020 7:15:00 PM 8.61 47.498 0.693 7.76 8.27 10.77
12/27/2020 7:30:00 PM 8.58 47.444 0.694 7.77 8.2 10.76
12/27/2020 7:45:00 PM 8.53 47.354 0.692 7.77 8.58 10.74
12/27/2020 8:00:00 PM 8.5 47.3 0.692 7.75 8.14 10.74
12/27/2020 8:15:00 PM 8.46 47.228 0.692 7.75 8.18 10.73
12/27/2020 8:30:00 PM 8.42 47.156 0.692 7.74 8.71 10.73
12/27/2020 8:45:00 PM 8.39 47.102 0.692 7.74 8.3 10.73
12/27/2020 9:00:00 PM 8.36 47.048 0.693 7.74 8.64 10.73
12/27/2020 9:15:00 PM 8.33 46.994 0.693 7.74 8.31 10.73
12/27/2020 9:30:00 PM 8.31 46.958 0.695 7.74 8.12 10.74
12/27/2020 9:45:00 PM 8.28 46.904 0.696 7.74 8.42 10.74
12/27/2020 10:00:00 PM 8.27 46.886 0.696 7.74 8.56 10.74
12/27/2020 10:15:00 PM 8.25 46.85 0.698 7.75 8.46 10.75
12/27/2020 10:30:00 PM 8.24 46.832 0.698 7.76 8.27 10.75
12/27/2020 10:45:00 PM 8.22 46.796 0.699 7.76 8.27 10.75
12/27/2020 11:00:00 PM 8.21 46.778 0.7 7.74 8.77 10.76
12/27/2020 11:15:00 PM 8.19 46.742 0.7 7.74 8.66 10.76
12/27/2020 11:30:00 PM 8.18 46.724 0.7 7.75 8.82 10.76
12/27/2020 11:45:00 PM 8.17 46.706 0.702 7.74 8.67 10.76
12/28/2020 12:00:00 AM 8.17 46.706 0.704 7.76 8.67 10.77
12/28/2020 12:15:00 AM 8.16 46.688 0.705 7.75 9.39 10.77
12/28/2020 12:30:00 AM 8.15 46.67 0.704 7.76 8.59 10.77
12/28/2020 12:45:00 AM 8.15 46.67 0.704 7.76 9.03 10.77
12/28/2020 1:00:00 AM 8.15 46.67 0.704 7.75 8.67 10.77
12/28/2020 1:15:00 AM 8.14 46.652 0.704 7.76 8.85 10.78
12/28/2020 1:30:00 AM 8.13 46.634 0.703 7.75 8.36 10.78
12/28/2020 1:45:00 AM 8.13 46.634 0.702 7.75 8.38 10.78
12/28/2020 2:00:00 AM 8.12 46.616 0.701 7.76 9.11 10.79
12/28/2020 2:15:00 AM 8.11 46.598 0.7 7.76 8.5 10.79
12/28/2020 2:30:00 AM 8.11 46.598 0.699 7.77 9.05 10.8
12/28/2020 2:45:00 AM 8.09 46.562 0.697 7.77 8.99 10.8
12/28/2020 3:00:00 AM 8.08 46.544 0.696 7.77 8.72 10.8
12/28/2020 3:15:00 AM 8.08 46.544 0.695 7.76 9.42 10.8
12/28/2020 3:30:00 AM 8.08 46.544 0.694 7.76 8.81 10.81
12/28/2020 3:45:00 AM 8.08 46.544 0.693 7.78 8.67 10.81
12/28/2020 4:00:00 AM 8.07 46.526 0.69 7.76 8.77 10.81
12/28/2020 4:15:00 AM 8.07 46.526 0.689 7.76 9.3 10.81
12/28/2020 4:30:00 AM 8.07 46.526 0.686 7.76 9.24 10.82
12/28/2020 4:45:00 AM 8.06 46.508 0.685 7.76 8.8 10.82
12/28/2020 5:00:00 AM 8.07 46.526 0.685 7.77 8.97 10.83
12/28/2020 5:15:00 AM 8.08 46.544 0.686 7.78 8.53 10.82
12/28/2020 5:30:00 AM 8.1 46.58 0.686 7.76 8.68 10.82
12/28/2020 5:45:00 AM 8.11 46.598 0.685 7.77 8.66 10.82
12/28/2020 6:00:00 AM 8.12 46.616 0.684 7.78 8.88 10.81
12/28/2020 6:15:00 AM 8.13 46.634 0.685 7.77 9.29 10.81
12/28/2020 6:30:00 AM 8.16 46.688 0.686 7.78 8.88 10.8
12/28/2020 6:45:00 AM 8.18 46.724 0.685 7.77 9.23 10.8
12/28/2020 7:00:00 AM 8.2 46.76 0.684 7.78 9.1 10.79
12/28/2020 7:15:00 AM 8.22 46.796 0.684 7.78 9.42 10.79
12/28/2020 7:30:00 AM 8.24 46.832 0.683 7.77 8.99 10.78
12/28/2020 7:45:00 AM 8.26 46.868 0.682 7.78 8.64 10.78
12/28/2020 8:00:00 AM 8.28 46.904 0.681 7.79 8.39 10.79
12/28/2020 8:15:00 AM 8.3 46.94 0.679 7.78 7.81 10.81
12/28/2020 8:30:00 AM 8.33 46.994 0.68 7.78 7.83 10.85
12/28/2020 8:45:00 AM 8.36 47.048 0.681 7.78 8.05 10.88
12/28/2020 9:00:00 AM 8.4 47.12 0.681 7.78 8.04 10.91
12/28/2020 9:15:00 AM 8.43 47.174 0.683 7.8 7.39